<?xml version="1.0" encoding="UTF-8" standalone="no" ?>
<gpx xmlns="http://www.topografix.com/GPX/1/1" xmlns:xsi="http://www.w3.org/2001/XMLSchema-instance" xsi:schemaLocation="http://www.topografix.com/GPX/1/1 http://www.topografix.com/GPX/1/1/gpx.xsd" version="1.1" creator="VisuGPX - https://www.visugpx.com">
  <metadata>
    <name>2013 08 06 VTT plougastel</name>
    <desc><![CDATA[vtt plougastel 06 08 2013]]></desc>
  </metadata>
  <trk>
    <name><![CDATA[2013-08-06T07:29:32Z]]></name>
    <trkseg>
      <trkpt lat="48.39185" lon="-4.37901">
        <ele>19.8443604</ele>
        <time>2013-08-06T07:29:32Z</time>
      </trkpt>
      <trkpt lat="48.39193" lon="-4.37919">
        <ele>18.4023438</ele>
        <time>2013-08-06T07:29:38Z</time>
      </trkpt>
      <trkpt lat="48.39194" lon="-4.37922">
        <ele>16.9604492</ele>
        <time>2013-08-06T07:29:39Z</time>
      </trkpt>
      <trkpt lat="48.39196" lon="-4.37926">
        <ele>16.9604492</ele>
        <time>2013-08-06T07:29:40Z</time>
      </trkpt>
      <trkpt lat="48.39207" lon="-4.3795">
        <ele>11.6732178</ele>
        <time>2013-08-06T07:29:46Z</time>
      </trkpt>
      <trkpt lat="48.39206" lon="-4.37972">
        <ele>10.711792</ele>
        <time>2013-08-06T07:29:50Z</time>
      </trkpt>
      <trkpt lat="48.39198" lon="-4.38013">
        <ele>12.1538086</ele>
        <time>2013-08-06T07:29:56Z</time>
      </trkpt>
      <trkpt lat="48.39181" lon="-4.38065">
        <ele>12.1538086</ele>
        <time>2013-08-06T07:30:04Z</time>
      </trkpt>
      <trkpt lat="48.39162" lon="-4.38113">
        <ele>13.1151123</ele>
        <time>2013-08-06T07:30:12Z</time>
      </trkpt>
      <trkpt lat="48.39156" lon="-4.3813">
        <ele>13.1151123</ele>
        <time>2013-08-06T07:30:15Z</time>
      </trkpt>
      <trkpt lat="48.39152" lon="-4.38145">
        <ele>13.1151123</ele>
        <time>2013-08-06T07:30:18Z</time>
      </trkpt>
      <trkpt lat="48.39146" lon="-4.38162">
        <ele>12.1538086</ele>
        <time>2013-08-06T07:30:22Z</time>
      </trkpt>
      <trkpt lat="48.39135" lon="-4.38162">
        <ele>14.076416</ele>
        <time>2013-08-06T07:30:26Z</time>
      </trkpt>
      <trkpt lat="48.39114" lon="-4.3815">
        <ele>18.4023438</ele>
        <time>2013-08-06T07:30:33Z</time>
      </trkpt>
      <trkpt lat="48.39103" lon="-4.38134">
        <ele>28.9769287</ele>
        <time>2013-08-06T07:30:39Z</time>
      </trkpt>
      <trkpt lat="48.39086" lon="-4.38119">
        <ele>29.9381104</ele>
        <time>2013-08-06T07:30:47Z</time>
      </trkpt>
      <trkpt lat="48.39061" lon="-4.38094">
        <ele>30.8995361</ele>
        <time>2013-08-06T07:30:58Z</time>
      </trkpt>
      <trkpt lat="48.39046" lon="-4.38079">
        <ele>31.380127</ele>
        <time>2013-08-06T07:31:06Z</time>
      </trkpt>
      <trkpt lat="48.39029" lon="-4.38062">
        <ele>33.3028564</ele>
        <time>2013-08-06T07:31:16Z</time>
      </trkpt>
      <trkpt lat="48.39019" lon="-4.38052">
        <ele>34.2641602</ele>
        <time>2013-08-06T07:31:22Z</time>
      </trkpt>
      <trkpt lat="48.39009" lon="-4.38039">
        <ele>37.1480713</ele>
        <time>2013-08-06T07:31:29Z</time>
      </trkpt>
      <trkpt lat="48.39" lon="-4.38028">
        <ele>39.5512695</ele>
        <time>2013-08-06T07:31:36Z</time>
      </trkpt>
      <trkpt lat="48.38992" lon="-4.38017">
        <ele>40.9934082</ele>
        <time>2013-08-06T07:31:43Z</time>
      </trkpt>
      <trkpt lat="48.38984" lon="-4.38004">
        <ele>43.8773193</ele>
        <time>2013-08-06T07:31:50Z</time>
      </trkpt>
      <trkpt lat="48.38978" lon="-4.37996">
        <ele>45.3192139</ele>
        <time>2013-08-06T07:31:55Z</time>
      </trkpt>
      <trkpt lat="48.38975" lon="-4.37992">
        <ele>45.7999268</ele>
        <time>2013-08-06T07:31:57Z</time>
      </trkpt>
      <trkpt lat="48.38968" lon="-4.37981">
        <ele>43.3966064</ele>
        <time>2013-08-06T07:32:03Z</time>
      </trkpt>
      <trkpt lat="48.3896" lon="-4.37972">
        <ele>40.0321045</ele>
        <time>2013-08-06T07:32:09Z</time>
      </trkpt>
      <trkpt lat="48.38955" lon="-4.37968">
        <ele>39.5512695</ele>
        <time>2013-08-06T07:32:13Z</time>
      </trkpt>
      <trkpt lat="48.38954" lon="-4.37966">
        <ele>40.0321045</ele>
        <time>2013-08-06T07:32:14Z</time>
      </trkpt>
      <trkpt lat="48.38947" lon="-4.37957">
        <ele>39.5512695</ele>
        <time>2013-08-06T07:32:20Z</time>
      </trkpt>
      <trkpt lat="48.38936" lon="-4.37942">
        <ele>38.5900879</ele>
        <time>2013-08-06T07:32:28Z</time>
      </trkpt>
      <trkpt lat="48.38928" lon="-4.37931">
        <ele>40.5128174</ele>
        <time>2013-08-06T07:32:36Z</time>
      </trkpt>
      <trkpt lat="48.38918" lon="-4.37924">
        <ele>40.5128174</ele>
        <time>2013-08-06T07:32:43Z</time>
      </trkpt>
      <trkpt lat="48.3891" lon="-4.37915">
        <ele>40.9934082</ele>
        <time>2013-08-06T07:32:50Z</time>
      </trkpt>
      <trkpt lat="48.38905" lon="-4.37908">
        <ele>44.3580322</ele>
        <time>2013-08-06T07:32:54Z</time>
      </trkpt>
      <trkpt lat="48.38899" lon="-4.37905">
        <ele>46.7612305</ele>
        <time>2013-08-06T07:32:58Z</time>
      </trkpt>
      <trkpt lat="48.38893" lon="-4.37905">
        <ele>46.2806396</ele>
        <time>2013-08-06T07:33:02Z</time>
      </trkpt>
      <trkpt lat="48.38891" lon="-4.37906">
        <ele>45.7999268</ele>
        <time>2013-08-06T07:33:03Z</time>
      </trkpt>
      <trkpt lat="48.38887" lon="-4.37908">
        <ele>44.838623</ele>
        <time>2013-08-06T07:33:05Z</time>
      </trkpt>
      <trkpt lat="48.38885" lon="-4.3791">
        <ele>43.8773193</ele>
        <time>2013-08-06T07:33:06Z</time>
      </trkpt>
      <trkpt lat="48.38884" lon="-4.37912">
        <ele>42.9160156</ele>
        <time>2013-08-06T07:33:07Z</time>
      </trkpt>
      <trkpt lat="48.3888" lon="-4.37917">
        <ele>41.9547119</ele>
        <time>2013-08-06T07:33:09Z</time>
      </trkpt>
      <trkpt lat="48.38878" lon="-4.3792">
        <ele>41.9547119</ele>
        <time>2013-08-06T07:33:10Z</time>
      </trkpt>
      <trkpt lat="48.38874" lon="-4.37925">
        <ele>41.9547119</ele>
        <time>2013-08-06T07:33:12Z</time>
      </trkpt>
      <trkpt lat="48.38873" lon="-4.37928">
        <ele>41.473999</ele>
        <time>2013-08-06T07:33:13Z</time>
      </trkpt>
      <trkpt lat="48.38871" lon="-4.37931">
        <ele>41.473999</ele>
        <time>2013-08-06T07:33:14Z</time>
      </trkpt>
      <trkpt lat="48.38859" lon="-4.37952">
        <ele>42.4354248</ele>
        <time>2013-08-06T07:33:22Z</time>
      </trkpt>
      <trkpt lat="48.38857" lon="-4.37957">
        <ele>42.4354248</ele>
        <time>2013-08-06T07:33:24Z</time>
      </trkpt>
      <trkpt lat="48.38855" lon="-4.3796">
        <ele>42.4354248</ele>
        <time>2013-08-06T07:33:25Z</time>
      </trkpt>
      <trkpt lat="48.38851" lon="-4.37968">
        <ele>41.9547119</ele>
        <time>2013-08-06T07:33:28Z</time>
      </trkpt>
      <trkpt lat="48.38838" lon="-4.37986">
        <ele>43.3966064</ele>
        <time>2013-08-06T07:33:36Z</time>
      </trkpt>
      <trkpt lat="48.38823" lon="-4.38003">
        <ele>43.3966064</ele>
        <time>2013-08-06T07:33:44Z</time>
      </trkpt>
      <trkpt lat="48.3881" lon="-4.38017">
        <ele>44.3580322</ele>
        <time>2013-08-06T07:33:51Z</time>
      </trkpt>
      <trkpt lat="48.38793" lon="-4.38033">
        <ele>47.7225342</ele>
        <time>2013-08-06T07:34:00Z</time>
      </trkpt>
      <trkpt lat="48.38777" lon="-4.38051">
        <ele>49.1645508</ele>
        <time>2013-08-06T07:34:09Z</time>
      </trkpt>
      <trkpt lat="48.3876" lon="-4.38066">
        <ele>52.5291748</ele>
        <time>2013-08-06T07:34:17Z</time>
      </trkpt>
      <trkpt lat="48.38737" lon="-4.38088">
        <ele>53.4904785</ele>
        <time>2013-08-06T07:34:28Z</time>
      </trkpt>
      <trkpt lat="48.3872" lon="-4.38109">
        <ele>55.8937988</ele>
        <time>2013-08-06T07:34:37Z</time>
      </trkpt>
      <trkpt lat="48.38707" lon="-4.3813">
        <ele>57.3358154</ele>
        <time>2013-08-06T07:34:45Z</time>
      </trkpt>
      <trkpt lat="48.38694" lon="-4.38146">
        <ele>61.1810303</ele>
        <time>2013-08-06T07:34:53Z</time>
      </trkpt>
      <trkpt lat="48.38683" lon="-4.38161">
        <ele>65.0263672</ele>
        <time>2013-08-06T07:35:00Z</time>
      </trkpt>
      <trkpt lat="48.38671" lon="-4.38181">
        <ele>66.9489746</ele>
        <time>2013-08-06T07:35:07Z</time>
      </trkpt>
      <trkpt lat="48.38661" lon="-4.38199">
        <ele>66.4682617</ele>
        <time>2013-08-06T07:35:13Z</time>
      </trkpt>
      <trkpt lat="48.38646" lon="-4.38222">
        <ele>66.9489746</ele>
        <time>2013-08-06T07:35:22Z</time>
      </trkpt>
      <trkpt lat="48.38631" lon="-4.38239">
        <ele>68.871582</ele>
        <time>2013-08-06T07:35:30Z</time>
      </trkpt>
      <trkpt lat="48.38619" lon="-4.38253">
        <ele>69.8328857</ele>
        <time>2013-08-06T07:35:37Z</time>
      </trkpt>
      <trkpt lat="48.38605" lon="-4.38268">
        <ele>72.2362061</ele>
        <time>2013-08-06T07:35:45Z</time>
      </trkpt>
      <trkpt lat="48.38589" lon="-4.3829">
        <ele>72.2362061</ele>
        <time>2013-08-06T07:35:55Z</time>
      </trkpt>
      <trkpt lat="48.38574" lon="-4.38308">
        <ele>70.7941895</ele>
        <time>2013-08-06T07:36:04Z</time>
      </trkpt>
      <trkpt lat="48.38563" lon="-4.38325">
        <ele>72.7169189</ele>
        <time>2013-08-06T07:36:11Z</time>
      </trkpt>
      <trkpt lat="48.38551" lon="-4.38342">
        <ele>75.1202393</ele>
        <time>2013-08-06T07:36:19Z</time>
      </trkpt>
      <trkpt lat="48.38541" lon="-4.38363">
        <ele>77.0428467</ele>
        <time>2013-08-06T07:36:27Z</time>
      </trkpt>
      <trkpt lat="48.38534" lon="-4.38379">
        <ele>78.9654541</ele>
        <time>2013-08-06T07:36:33Z</time>
      </trkpt>
      <trkpt lat="48.38524" lon="-4.384">
        <ele>81.8493652</ele>
        <time>2013-08-06T07:36:41Z</time>
      </trkpt>
      <trkpt lat="48.38516" lon="-4.38418">
        <ele>83.2913818</ele>
        <time>2013-08-06T07:36:48Z</time>
      </trkpt>
      <trkpt lat="48.38505" lon="-4.3844">
        <ele>86.6560059</ele>
        <time>2013-08-06T07:36:56Z</time>
      </trkpt>
      <trkpt lat="48.38492" lon="-4.38463">
        <ele>86.175293</ele>
        <time>2013-08-06T07:37:05Z</time>
      </trkpt>
      <trkpt lat="48.38484" lon="-4.38481">
        <ele>85.6945801</ele>
        <time>2013-08-06T07:37:12Z</time>
      </trkpt>
      <trkpt lat="48.38473" lon="-4.38498">
        <ele>85.2139893</ele>
        <time>2013-08-06T07:37:20Z</time>
      </trkpt>
      <trkpt lat="48.38464" lon="-4.38513">
        <ele>85.2139893</ele>
        <time>2013-08-06T07:37:27Z</time>
      </trkpt>
      <trkpt lat="48.3845" lon="-4.38537">
        <ele>88.0980225</ele>
        <time>2013-08-06T07:37:37Z</time>
      </trkpt>
      <trkpt lat="48.38446" lon="-4.38551">
        <ele>87.6171875</ele>
        <time>2013-08-06T07:37:42Z</time>
      </trkpt>
      <trkpt lat="48.38446" lon="-4.38579">
        <ele>85.2139893</ele>
        <time>2013-08-06T07:37:48Z</time>
      </trkpt>
      <trkpt lat="48.38446" lon="-4.38623">
        <ele>82.3300781</ele>
        <time>2013-08-06T07:37:54Z</time>
      </trkpt>
      <trkpt lat="48.38447" lon="-4.38681">
        <ele>78.9654541</ele>
        <time>2013-08-06T07:38:00Z</time>
      </trkpt>
      <trkpt lat="48.38443" lon="-4.38752">
        <ele>75.6008301</ele>
        <time>2013-08-06T07:38:06Z</time>
      </trkpt>
      <trkpt lat="48.3844" lon="-4.38805">
        <ele>73.1976318</ele>
        <time>2013-08-06T07:38:10Z</time>
      </trkpt>
      <trkpt lat="48.3844" lon="-4.3882">
        <ele>72.2362061</ele>
        <time>2013-08-06T07:38:11Z</time>
      </trkpt>
      <trkpt lat="48.38439" lon="-4.3885">
        <ele>70.7941895</ele>
        <time>2013-08-06T07:38:13Z</time>
      </trkpt>
      <trkpt lat="48.38457" lon="-4.38936">
        <ele>65.5070801</ele>
        <time>2013-08-06T07:38:19Z</time>
      </trkpt>
      <trkpt lat="48.38456" lon="-4.38997">
        <ele>62.142334</ele>
        <time>2013-08-06T07:38:23Z</time>
      </trkpt>
      <trkpt lat="48.38454" lon="-4.39062">
        <ele>58.2971191</ele>
        <time>2013-08-06T07:38:27Z</time>
      </trkpt>
      <trkpt lat="48.38463" lon="-4.39129">
        <ele>54.4517822</ele>
        <time>2013-08-06T07:38:31Z</time>
      </trkpt>
      <trkpt lat="48.38466" lon="-4.39146">
        <ele>53.4904785</ele>
        <time>2013-08-06T07:38:32Z</time>
      </trkpt>
      <trkpt lat="48.3847" lon="-4.39214">
        <ele>50.6065674</ele>
        <time>2013-08-06T07:38:36Z</time>
      </trkpt>
      <trkpt lat="48.38468" lon="-4.3928">
        <ele>47.7225342</ele>
        <time>2013-08-06T07:38:40Z</time>
      </trkpt>
      <trkpt lat="48.3846" lon="-4.39316">
        <ele>46.7612305</ele>
        <time>2013-08-06T07:38:43Z</time>
      </trkpt>
      <trkpt lat="48.38443" lon="-4.39335">
        <ele>46.2806396</ele>
        <time>2013-08-06T07:38:46Z</time>
      </trkpt>
      <trkpt lat="48.3842" lon="-4.39358">
        <ele>46.2806396</ele>
        <time>2013-08-06T07:38:50Z</time>
      </trkpt>
      <trkpt lat="48.38405" lon="-4.39383">
        <ele>49.6452637</ele>
        <time>2013-08-06T07:38:56Z</time>
      </trkpt>
      <trkpt lat="48.38404" lon="-4.39388">
        <ele>50.1259766</ele>
        <time>2013-08-06T07:38:57Z</time>
      </trkpt>
      <trkpt lat="48.38402" lon="-4.39407">
        <ele>49.6452637</ele>
        <time>2013-08-06T07:39:02Z</time>
      </trkpt>
      <trkpt lat="48.38394" lon="-4.39429">
        <ele>51.0871582</ele>
        <time>2013-08-06T07:39:08Z</time>
      </trkpt>
      <trkpt lat="48.38388" lon="-4.39451">
        <ele>52.5291748</ele>
        <time>2013-08-06T07:39:14Z</time>
      </trkpt>
      <trkpt lat="48.38378" lon="-4.39476">
        <ele>52.5291748</ele>
        <time>2013-08-06T07:39:20Z</time>
      </trkpt>
      <trkpt lat="48.38365" lon="-4.39479">
        <ele>53.0097656</ele>
        <time>2013-08-06T07:39:24Z</time>
      </trkpt>
      <trkpt lat="48.38351" lon="-4.39465">
        <ele>54.4517822</ele>
        <time>2013-08-06T07:39:29Z</time>
      </trkpt>
      <trkpt lat="48.38349" lon="-4.39442">
        <ele>56.8551025</ele>
        <time>2013-08-06T07:39:34Z</time>
      </trkpt>
      <trkpt lat="48.38351" lon="-4.394">
        <ele>60.7003174</ele>
        <time>2013-08-06T07:39:43Z</time>
      </trkpt>
      <trkpt lat="48.38354" lon="-4.39363">
        <ele>63.5843506</ele>
        <time>2013-08-06T07:39:52Z</time>
      </trkpt>
      <trkpt lat="48.3835" lon="-4.39353">
        <ele>63.1036377</ele>
        <time>2013-08-06T07:39:56Z</time>
      </trkpt>
      <trkpt lat="48.3834" lon="-4.39349">
        <ele>64.5456543</ele>
        <time>2013-08-06T07:40:02Z</time>
      </trkpt>
      <trkpt lat="48.38332" lon="-4.39347">
        <ele>67.4296875</ele>
        <time>2013-08-06T07:40:08Z</time>
      </trkpt>
      <trkpt lat="48.38328" lon="-4.39346">
        <ele>66.9489746</ele>
        <time>2013-08-06T07:40:12Z</time>
      </trkpt>
      <trkpt lat="48.38319" lon="-4.39342">
        <ele>67.4296875</ele>
        <time>2013-08-06T07:40:19Z</time>
      </trkpt>
      <trkpt lat="48.38312" lon="-4.39342">
        <ele>63.1036377</ele>
        <time>2013-08-06T07:40:25Z</time>
      </trkpt>
      <trkpt lat="48.38303" lon="-4.39338">
        <ele>62.142334</ele>
        <time>2013-08-06T07:40:32Z</time>
      </trkpt>
      <trkpt lat="48.38302" lon="-4.39337">
        <ele>62.6229248</ele>
        <time>2013-08-06T07:40:33Z</time>
      </trkpt>
      <trkpt lat="48.38288" lon="-4.39324">
        <ele>66.4682617</ele>
        <time>2013-08-06T07:40:42Z</time>
      </trkpt>
      <trkpt lat="48.38277" lon="-4.39314">
        <ele>70.3134766</ele>
        <time>2013-08-06T07:40:50Z</time>
      </trkpt>
      <trkpt lat="48.38268" lon="-4.39309">
        <ele>67.9102783</ele>
        <time>2013-08-06T07:40:57Z</time>
      </trkpt>
      <trkpt lat="48.3826" lon="-4.39302">
        <ele>68.3908691</ele>
        <time>2013-08-06T07:41:03Z</time>
      </trkpt>
      <trkpt lat="48.38254" lon="-4.39286">
        <ele>73.1976318</ele>
        <time>2013-08-06T07:41:10Z</time>
      </trkpt>
      <trkpt lat="48.38256" lon="-4.39267">
        <ele>74.6395264</ele>
        <time>2013-08-06T07:41:16Z</time>
      </trkpt>
      <trkpt lat="48.3826" lon="-4.39254">
        <ele>75.1202393</ele>
        <time>2013-08-06T07:41:20Z</time>
      </trkpt>
      <trkpt lat="48.38262" lon="-4.39231">
        <ele>73.1976318</ele>
        <time>2013-08-06T07:41:27Z</time>
      </trkpt>
      <trkpt lat="48.38258" lon="-4.39217">
        <ele>73.1976318</ele>
        <time>2013-08-06T07:41:32Z</time>
      </trkpt>
      <trkpt lat="48.38255" lon="-4.39214">
        <ele>74.1588135</ele>
        <time>2013-08-06T07:41:34Z</time>
      </trkpt>
      <trkpt lat="48.38243" lon="-4.39199">
        <ele>76.0814209</ele>
        <time>2013-08-06T07:41:41Z</time>
      </trkpt>
      <trkpt lat="48.38235" lon="-4.39184">
        <ele>77.0428467</ele>
        <time>2013-08-06T07:41:47Z</time>
      </trkpt>
      <trkpt lat="48.3823" lon="-4.39171">
        <ele>78.0040283</ele>
        <time>2013-08-06T07:41:53Z</time>
      </trkpt>
      <trkpt lat="48.38229" lon="-4.39169">
        <ele>78.4847412</ele>
        <time>2013-08-06T07:41:54Z</time>
      </trkpt>
      <trkpt lat="48.38227" lon="-4.3916">
        <ele>79.9266357</ele>
        <time>2013-08-06T07:41:58Z</time>
      </trkpt>
      <trkpt lat="48.38225" lon="-4.39156">
        <ele>81.8493652</ele>
        <time>2013-08-06T07:42:00Z</time>
      </trkpt>
      <trkpt lat="48.38218" lon="-4.39147">
        <ele>79.4460449</ele>
        <time>2013-08-06T07:42:04Z</time>
      </trkpt>
      <trkpt lat="48.38209" lon="-4.39131">
        <ele>78.0040283</ele>
        <time>2013-08-06T07:42:11Z</time>
      </trkpt>
      <trkpt lat="48.38204" lon="-4.39116">
        <ele>79.4460449</ele>
        <time>2013-08-06T07:42:17Z</time>
      </trkpt>
      <trkpt lat="48.38201" lon="-4.39109">
        <ele>78.9654541</ele>
        <time>2013-08-06T07:42:20Z</time>
      </trkpt>
      <trkpt lat="48.38194" lon="-4.39099">
        <ele>80.8881836</ele>
        <time>2013-08-06T07:42:26Z</time>
      </trkpt>
      <trkpt lat="48.38188" lon="-4.39088">
        <ele>79.9266357</ele>
        <time>2013-08-06T07:42:31Z</time>
      </trkpt>
      <trkpt lat="48.38185" lon="-4.39083">
        <ele>79.4460449</ele>
        <time>2013-08-06T07:42:34Z</time>
      </trkpt>
      <trkpt lat="48.38183" lon="-4.39077">
        <ele>79.4460449</ele>
        <time>2013-08-06T07:42:38Z</time>
      </trkpt>
      <trkpt lat="48.38177" lon="-4.39067">
        <ele>83.7719727</ele>
        <time>2013-08-06T07:42:45Z</time>
      </trkpt>
      <trkpt lat="48.38176" lon="-4.39065">
        <ele>84.2526855</ele>
        <time>2013-08-06T07:42:47Z</time>
      </trkpt>
      <trkpt lat="48.38167" lon="-4.39058">
        <ele>84.7333984</ele>
        <time>2013-08-06T07:42:54Z</time>
      </trkpt>
      <trkpt lat="48.38166" lon="-4.39057">
        <ele>85.2139893</ele>
        <time>2013-08-06T07:42:55Z</time>
      </trkpt>
      <trkpt lat="48.3816" lon="-4.39049">
        <ele>87.6171875</ele>
        <time>2013-08-06T07:43:02Z</time>
      </trkpt>
      <trkpt lat="48.38154" lon="-4.39046">
        <ele>86.175293</ele>
        <time>2013-08-06T07:43:06Z</time>
      </trkpt>
      <trkpt lat="48.38144" lon="-4.3904">
        <ele>87.1365967</ele>
        <time>2013-08-06T07:43:14Z</time>
      </trkpt>
      <trkpt lat="48.3814" lon="-4.39037">
        <ele>86.175293</ele>
        <time>2013-08-06T07:43:18Z</time>
      </trkpt>
      <trkpt lat="48.38131" lon="-4.39036">
        <ele>86.6560059</ele>
        <time>2013-08-06T07:43:27Z</time>
      </trkpt>
      <trkpt lat="48.38124" lon="-4.39035">
        <ele>87.1365967</ele>
        <time>2013-08-06T07:43:33Z</time>
      </trkpt>
      <trkpt lat="48.3812" lon="-4.39035">
        <ele>86.6560059</ele>
        <time>2013-08-06T07:43:35Z</time>
      </trkpt>
      <trkpt lat="48.38114" lon="-4.39036">
        <ele>90.0206299</ele>
        <time>2013-08-06T07:43:41Z</time>
      </trkpt>
      <trkpt lat="48.38103" lon="-4.3904">
        <ele>89.539917</ele>
        <time>2013-08-06T07:43:50Z</time>
      </trkpt>
      <trkpt lat="48.38091" lon="-4.39041">
        <ele>89.0593262</ele>
        <time>2013-08-06T07:43:58Z</time>
      </trkpt>
      <trkpt lat="48.3809" lon="-4.39041">
        <ele>88.5787354</ele>
        <time>2013-08-06T07:43:59Z</time>
      </trkpt>
      <trkpt lat="48.38082" lon="-4.39044">
        <ele>90.9819336</ele>
        <time>2013-08-06T07:44:06Z</time>
      </trkpt>
      <trkpt lat="48.38077" lon="-4.39049">
        <ele>90.0206299</ele>
        <time>2013-08-06T07:44:12Z</time>
      </trkpt>
      <trkpt lat="48.38071" lon="-4.39054">
        <ele>92.904541</ele>
        <time>2013-08-06T07:44:19Z</time>
      </trkpt>
      <trkpt lat="48.3807" lon="-4.39055">
        <ele>95.7884521</ele>
        <time>2013-08-06T07:44:22Z</time>
      </trkpt>
      <trkpt lat="48.38061" lon="-4.39062">
        <ele>96.7498779</ele>
        <time>2013-08-06T07:44:28Z</time>
      </trkpt>
      <trkpt lat="48.38052" lon="-4.39068">
        <ele>97.7111816</ele>
        <time>2013-08-06T07:44:35Z</time>
      </trkpt>
      <trkpt lat="48.38042" lon="-4.39071">
        <ele>99.6337891</ele>
        <time>2013-08-06T07:44:42Z</time>
      </trkpt>
      <trkpt lat="48.38033" lon="-4.39072">
        <ele>100.114502</ele>
        <time>2013-08-06T07:44:49Z</time>
      </trkpt>
      <trkpt lat="48.38032" lon="-4.39072">
        <ele>101.0756836</ele>
        <time>2013-08-06T07:44:50Z</time>
      </trkpt>
      <trkpt lat="48.38027" lon="-4.39074">
        <ele>99.1530762</ele>
        <time>2013-08-06T07:44:56Z</time>
      </trkpt>
      <trkpt lat="48.38019" lon="-4.39079">
        <ele>98.6724854</ele>
        <time>2013-08-06T07:45:02Z</time>
      </trkpt>
      <trkpt lat="48.38017" lon="-4.3908">
        <ele>98.1918945</ele>
        <time>2013-08-06T07:45:04Z</time>
      </trkpt>
      <trkpt lat="48.38009" lon="-4.39084">
        <ele>97.7111816</ele>
        <time>2013-08-06T07:45:12Z</time>
      </trkpt>
      <trkpt lat="48.38007" lon="-4.39085">
        <ele>95.7884521</ele>
        <time>2013-08-06T07:45:14Z</time>
      </trkpt>
      <trkpt lat="48.37996" lon="-4.39084">
        <ele>98.1918945</ele>
        <time>2013-08-06T07:45:20Z</time>
      </trkpt>
      <trkpt lat="48.37991" lon="-4.39063">
        <ele>99.6337891</ele>
        <time>2013-08-06T07:45:26Z</time>
      </trkpt>
      <trkpt lat="48.37989" lon="-4.39035">
        <ele>101.0756836</ele>
        <time>2013-08-06T07:45:32Z</time>
      </trkpt>
      <trkpt lat="48.37988" lon="-4.39011">
        <ele>101.5563965</ele>
        <time>2013-08-06T07:45:37Z</time>
      </trkpt>
      <trkpt lat="48.37989" lon="-4.38986">
        <ele>100.114502</ele>
        <time>2013-08-06T07:45:42Z</time>
      </trkpt>
      <trkpt lat="48.37994" lon="-4.38958">
        <ele>98.6724854</ele>
        <time>2013-08-06T07:45:48Z</time>
      </trkpt>
      <trkpt lat="48.37993" lon="-4.38937">
        <ele>100.114502</ele>
        <time>2013-08-06T07:45:54Z</time>
      </trkpt>
      <trkpt lat="48.37991" lon="-4.38916">
        <ele>103.4790039</ele>
        <time>2013-08-06T07:45:59Z</time>
      </trkpt>
      <trkpt lat="48.37992" lon="-4.38894">
        <ele>105.8824463</ele>
        <time>2013-08-06T07:46:04Z</time>
      </trkpt>
      <trkpt lat="48.37996" lon="-4.38871">
        <ele>102.5177002</ele>
        <time>2013-08-06T07:46:09Z</time>
      </trkpt>
      <trkpt lat="48.38003" lon="-4.38831">
        <ele>102.5177002</ele>
        <time>2013-08-06T07:46:14Z</time>
      </trkpt>
      <trkpt lat="48.38007" lon="-4.38798">
        <ele>102.998291</ele>
        <time>2013-08-06T07:46:17Z</time>
      </trkpt>
      <trkpt lat="48.38011" lon="-4.38766">
        <ele>99.6337891</ele>
        <time>2013-08-06T07:46:22Z</time>
      </trkpt>
      <trkpt lat="48.38012" lon="-4.38748">
        <ele>100.5950928</ele>
        <time>2013-08-06T07:46:25Z</time>
      </trkpt>
      <trkpt lat="48.38011" lon="-4.38725">
        <ele>99.1530762</ele>
        <time>2013-08-06T07:46:31Z</time>
      </trkpt>
      <trkpt lat="48.38008" lon="-4.38707">
        <ele>100.5950928</ele>
        <time>2013-08-06T07:46:35Z</time>
      </trkpt>
      <trkpt lat="48.38006" lon="-4.38674">
        <ele>101.5563965</ele>
        <time>2013-08-06T07:46:42Z</time>
      </trkpt>
      <trkpt lat="48.38003" lon="-4.38644">
        <ele>105.4017334</ele>
        <time>2013-08-06T07:46:48Z</time>
      </trkpt>
      <trkpt lat="48.38006" lon="-4.38618">
        <ele>105.8824463</ele>
        <time>2013-08-06T07:46:53Z</time>
      </trkpt>
      <trkpt lat="48.38011" lon="-4.38582">
        <ele>102.5177002</ele>
        <time>2013-08-06T07:47:00Z</time>
      </trkpt>
      <trkpt lat="48.38012" lon="-4.3855">
        <ele>101.5563965</ele>
        <time>2013-08-06T07:47:06Z</time>
      </trkpt>
      <trkpt lat="48.38011" lon="-4.3851">
        <ele>102.0371094</ele>
        <time>2013-08-06T07:47:14Z</time>
      </trkpt>
      <trkpt lat="48.38007" lon="-4.38492">
        <ele>102.0371094</ele>
        <time>2013-08-06T07:47:20Z</time>
      </trkpt>
      <trkpt lat="48.37995" lon="-4.38468">
        <ele>101.5563965</ele>
        <time>2013-08-06T07:47:27Z</time>
      </trkpt>
      <trkpt lat="48.37985" lon="-4.38447">
        <ele>102.0371094</ele>
        <time>2013-08-06T07:47:32Z</time>
      </trkpt>
      <trkpt lat="48.37974" lon="-4.38419">
        <ele>103.9597168</ele>
        <time>2013-08-06T07:47:38Z</time>
      </trkpt>
      <trkpt lat="48.37963" lon="-4.38394">
        <ele>102.998291</ele>
        <time>2013-08-06T07:47:44Z</time>
      </trkpt>
      <trkpt lat="48.37951" lon="-4.38361">
        <ele>105.8824463</ele>
        <time>2013-08-06T07:47:51Z</time>
      </trkpt>
      <trkpt lat="48.37937" lon="-4.38328">
        <ele>110.208252</ele>
        <time>2013-08-06T07:47:58Z</time>
      </trkpt>
      <trkpt lat="48.37928" lon="-4.38305">
        <ele>108.7662354</ele>
        <time>2013-08-06T07:48:04Z</time>
      </trkpt>
      <trkpt lat="48.37918" lon="-4.38282">
        <ele>106.8436279</ele>
        <time>2013-08-06T07:48:10Z</time>
      </trkpt>
      <trkpt lat="48.37906" lon="-4.3826">
        <ele>107.8050537</ele>
        <time>2013-08-06T07:48:16Z</time>
      </trkpt>
      <trkpt lat="48.37898" lon="-4.38238">
        <ele>106.3630371</ele>
        <time>2013-08-06T07:48:22Z</time>
      </trkpt>
      <trkpt lat="48.37889" lon="-4.38218">
        <ele>107.3243408</ele>
        <time>2013-08-06T07:48:27Z</time>
      </trkpt>
      <trkpt lat="48.37883" lon="-4.38204">
        <ele>107.3243408</ele>
        <time>2013-08-06T07:48:32Z</time>
      </trkpt>
      <trkpt lat="48.37872" lon="-4.38192">
        <ele>107.3243408</ele>
        <time>2013-08-06T07:48:38Z</time>
      </trkpt>
      <trkpt lat="48.37858" lon="-4.38191">
        <ele>108.7662354</ele>
        <time>2013-08-06T07:48:44Z</time>
      </trkpt>
      <trkpt lat="48.37846" lon="-4.38194">
        <ele>110.208252</ele>
        <time>2013-08-06T07:48:49Z</time>
      </trkpt>
      <trkpt lat="48.3783" lon="-4.38201">
        <ele>110.6888428</ele>
        <time>2013-08-06T07:48:55Z</time>
      </trkpt>
      <trkpt lat="48.37812" lon="-4.3821">
        <ele>107.8050537</ele>
        <time>2013-08-06T07:49:00Z</time>
      </trkpt>
      <trkpt lat="48.37792" lon="-4.38219">
        <ele>107.8050537</ele>
        <time>2013-08-06T07:49:06Z</time>
      </trkpt>
      <trkpt lat="48.37776" lon="-4.38226">
        <ele>111.1695557</ele>
        <time>2013-08-06T07:49:10Z</time>
      </trkpt>
      <trkpt lat="48.37758" lon="-4.38226">
        <ele>115.0148926</ele>
        <time>2013-08-06T07:49:15Z</time>
      </trkpt>
      <trkpt lat="48.3774" lon="-4.38222">
        <ele>115.0148926</ele>
        <time>2013-08-06T07:49:20Z</time>
      </trkpt>
      <trkpt lat="48.37722" lon="-4.38215">
        <ele>114.0535889</ele>
        <time>2013-08-06T07:49:25Z</time>
      </trkpt>
      <trkpt lat="48.37706" lon="-4.38205">
        <ele>112.1309814</ele>
        <time>2013-08-06T07:49:29Z</time>
      </trkpt>
      <trkpt lat="48.37689" lon="-4.38211">
        <ele>110.6888428</ele>
        <time>2013-08-06T07:49:35Z</time>
      </trkpt>
      <trkpt lat="48.37675" lon="-4.38221">
        <ele>109.2469482</ele>
        <time>2013-08-06T07:49:40Z</time>
      </trkpt>
      <trkpt lat="48.37657" lon="-4.38236">
        <ele>109.7276611</ele>
        <time>2013-08-06T07:49:47Z</time>
      </trkpt>
      <trkpt lat="48.37632" lon="-4.38265">
        <ele>111.1695557</ele>
        <time>2013-08-06T07:49:56Z</time>
      </trkpt>
      <trkpt lat="48.37621" lon="-4.38267">
        <ele>111.6502686</ele>
        <time>2013-08-06T07:50:02Z</time>
      </trkpt>
      <trkpt lat="48.37615" lon="-4.38277">
        <ele>111.6502686</ele>
        <time>2013-08-06T07:50:07Z</time>
      </trkpt>
      <trkpt lat="48.37605" lon="-4.38302">
        <ele>110.208252</ele>
        <time>2013-08-06T07:50:15Z</time>
      </trkpt>
      <trkpt lat="48.37592" lon="-4.38329">
        <ele>109.7276611</ele>
        <time>2013-08-06T07:50:21Z</time>
      </trkpt>
      <trkpt lat="48.37581" lon="-4.38355">
        <ele>109.2469482</ele>
        <time>2013-08-06T07:50:27Z</time>
      </trkpt>
      <trkpt lat="48.37562" lon="-4.38394">
        <ele>112.1309814</ele>
        <time>2013-08-06T07:50:34Z</time>
      </trkpt>
      <trkpt lat="48.37554" lon="-4.38414">
        <ele>114.5341797</ele>
        <time>2013-08-06T07:50:38Z</time>
      </trkpt>
      <trkpt lat="48.37547" lon="-4.38447">
        <ele>115.0148926</ele>
        <time>2013-08-06T07:50:45Z</time>
      </trkpt>
      <trkpt lat="48.37541" lon="-4.38477">
        <ele>114.5341797</ele>
        <time>2013-08-06T07:50:52Z</time>
      </trkpt>
      <trkpt lat="48.37539" lon="-4.38512">
        <ele>114.0535889</ele>
        <time>2013-08-06T07:51:00Z</time>
      </trkpt>
      <trkpt lat="48.37543" lon="-4.38525">
        <ele>113.572998</ele>
        <time>2013-08-06T07:51:04Z</time>
      </trkpt>
      <trkpt lat="48.37544" lon="-4.38524">
        <ele>114.0535889</ele>
        <time>2013-08-06T07:51:08Z</time>
      </trkpt>
      <trkpt lat="48.37542" lon="-4.38522">
        <ele>114.0535889</ele>
        <time>2013-08-06T07:51:09Z</time>
      </trkpt>
      <trkpt lat="48.37534" lon="-4.38505">
        <ele>113.0922852</ele>
        <time>2013-08-06T07:51:14Z</time>
      </trkpt>
      <trkpt lat="48.37535" lon="-4.38477">
        <ele>114.0535889</ele>
        <time>2013-08-06T07:51:18Z</time>
      </trkpt>
      <trkpt lat="48.37538" lon="-4.38446">
        <ele>114.0535889</ele>
        <time>2013-08-06T07:51:22Z</time>
      </trkpt>
      <trkpt lat="48.37539" lon="-4.38438">
        <ele>114.0535889</ele>
        <time>2013-08-06T07:51:23Z</time>
      </trkpt>
      <trkpt lat="48.37548" lon="-4.38398">
        <ele>114.0535889</ele>
        <time>2013-08-06T07:51:28Z</time>
      </trkpt>
      <trkpt lat="48.37569" lon="-4.38351">
        <ele>114.5341797</ele>
        <time>2013-08-06T07:51:34Z</time>
      </trkpt>
      <trkpt lat="48.37585" lon="-4.38307">
        <ele>117.4182129</ele>
        <time>2013-08-06T07:51:40Z</time>
      </trkpt>
      <trkpt lat="48.37595" lon="-4.38284">
        <ele>115.4956055</ele>
        <time>2013-08-06T07:51:44Z</time>
      </trkpt>
      <trkpt lat="48.37597" lon="-4.38279">
        <ele>115.0148926</ele>
        <time>2013-08-06T07:51:45Z</time>
      </trkpt>
      <trkpt lat="48.37598" lon="-4.38247">
        <ele>113.572998</ele>
        <time>2013-08-06T07:51:50Z</time>
      </trkpt>
      <trkpt lat="48.37594" lon="-4.38236">
        <ele>113.572998</ele>
        <time>2013-08-06T07:51:52Z</time>
      </trkpt>
      <trkpt lat="48.3758" lon="-4.38201">
        <ele>112.6115723</ele>
        <time>2013-08-06T07:52:00Z</time>
      </trkpt>
      <trkpt lat="48.3757" lon="-4.38166">
        <ele>115.0148926</ele>
        <time>2013-08-06T07:52:07Z</time>
      </trkpt>
      <trkpt lat="48.37562" lon="-4.38145">
        <ele>117.4182129</ele>
        <time>2013-08-06T07:52:12Z</time>
      </trkpt>
      <trkpt lat="48.37554" lon="-4.38144">
        <ele>114.5341797</ele>
        <time>2013-08-06T07:52:16Z</time>
      </trkpt>
      <trkpt lat="48.3755" lon="-4.38151">
        <ele>113.0922852</ele>
        <time>2013-08-06T07:52:18Z</time>
      </trkpt>
      <trkpt lat="48.37533" lon="-4.38192">
        <ele>113.0922852</ele>
        <time>2013-08-06T07:52:27Z</time>
      </trkpt>
      <trkpt lat="48.37518" lon="-4.38226">
        <ele>112.6115723</ele>
        <time>2013-08-06T07:52:34Z</time>
      </trkpt>
      <trkpt lat="48.37503" lon="-4.38257">
        <ele>113.572998</ele>
        <time>2013-08-06T07:52:41Z</time>
      </trkpt>
      <trkpt lat="48.37488" lon="-4.38274">
        <ele>114.0535889</ele>
        <time>2013-08-06T07:52:48Z</time>
      </trkpt>
      <trkpt lat="48.37471" lon="-4.38273">
        <ele>115.0148926</ele>
        <time>2013-08-06T07:52:53Z</time>
      </trkpt>
      <trkpt lat="48.37453" lon="-4.38265">
        <ele>119.3408203</ele>
        <time>2013-08-06T07:52:58Z</time>
      </trkpt>
      <trkpt lat="48.37437" lon="-4.38256">
        <ele>122.2247314</ele>
        <time>2013-08-06T07:53:03Z</time>
      </trkpt>
      <trkpt lat="48.3742" lon="-4.38245">
        <ele>122.7054443</ele>
        <time>2013-08-06T07:53:10Z</time>
      </trkpt>
      <trkpt lat="48.3741" lon="-4.38251">
        <ele>118.8601074</ele>
        <time>2013-08-06T07:53:15Z</time>
      </trkpt>
      <trkpt lat="48.37398" lon="-4.38269">
        <ele>117.4182129</ele>
        <time>2013-08-06T07:53:21Z</time>
      </trkpt>
      <trkpt lat="48.37393" lon="-4.38284">
        <ele>118.3793945</ele>
        <time>2013-08-06T07:53:25Z</time>
      </trkpt>
      <trkpt lat="48.37386" lon="-4.38296">
        <ele>117.8988037</ele>
        <time>2013-08-06T07:53:30Z</time>
      </trkpt>
      <trkpt lat="48.37379" lon="-4.3831">
        <ele>116.4567871</ele>
        <time>2013-08-06T07:53:36Z</time>
      </trkpt>
      <trkpt lat="48.37373" lon="-4.38319">
        <ele>115.9761963</ele>
        <time>2013-08-06T07:53:40Z</time>
      </trkpt>
      <trkpt lat="48.37361" lon="-4.38339">
        <ele>114.0535889</ele>
        <time>2013-08-06T07:53:47Z</time>
      </trkpt>
      <trkpt lat="48.3734" lon="-4.38353">
        <ele>117.8988037</ele>
        <time>2013-08-06T07:53:54Z</time>
      </trkpt>
      <trkpt lat="48.37326" lon="-4.38346">
        <ele>118.8601074</ele>
        <time>2013-08-06T07:53:59Z</time>
      </trkpt>
      <trkpt lat="48.3731" lon="-4.38341">
        <ele>119.3408203</ele>
        <time>2013-08-06T07:54:04Z</time>
      </trkpt>
      <trkpt lat="48.373" lon="-4.3834">
        <ele>120.302124</ele>
        <time>2013-08-06T07:54:07Z</time>
      </trkpt>
      <trkpt lat="48.37286" lon="-4.38329">
        <ele>119.3408203</ele>
        <time>2013-08-06T07:54:12Z</time>
      </trkpt>
      <trkpt lat="48.3727" lon="-4.38314">
        <ele>119.8214111</ele>
        <time>2013-08-06T07:54:17Z</time>
      </trkpt>
      <trkpt lat="48.37256" lon="-4.38296">
        <ele>120.302124</ele>
        <time>2013-08-06T07:54:22Z</time>
      </trkpt>
      <trkpt lat="48.37238" lon="-4.38279">
        <ele>118.8601074</ele>
        <time>2013-08-06T07:54:28Z</time>
      </trkpt>
      <trkpt lat="48.37217" lon="-4.3826">
        <ele>120.7828369</ele>
        <time>2013-08-06T07:54:34Z</time>
      </trkpt>
      <trkpt lat="48.37196" lon="-4.38239">
        <ele>123.1861572</ele>
        <time>2013-08-06T07:54:41Z</time>
      </trkpt>
      <trkpt lat="48.37192" lon="-4.38223">
        <ele>121.2635498</ele>
        <time>2013-08-06T07:54:45Z</time>
      </trkpt>
      <trkpt lat="48.37196" lon="-4.38183">
        <ele>120.302124</ele>
        <time>2013-08-06T07:54:51Z</time>
      </trkpt>
      <trkpt lat="48.37199" lon="-4.38145">
        <ele>119.8214111</ele>
        <time>2013-08-06T07:54:56Z</time>
      </trkpt>
      <trkpt lat="48.37203" lon="-4.381">
        <ele>119.3408203</ele>
        <time>2013-08-06T07:55:02Z</time>
      </trkpt>
      <trkpt lat="48.37209" lon="-4.3803">
        <ele>118.8601074</ele>
        <time>2013-08-06T07:55:12Z</time>
      </trkpt>
      <trkpt lat="48.37211" lon="-4.38">
        <ele>118.3793945</ele>
        <time>2013-08-06T07:55:18Z</time>
      </trkpt>
      <trkpt lat="48.37205" lon="-4.37983">
        <ele>118.3793945</ele>
        <time>2013-08-06T07:55:23Z</time>
      </trkpt>
      <trkpt lat="48.37188" lon="-4.37977">
        <ele>116.9375</ele>
        <time>2013-08-06T07:55:28Z</time>
      </trkpt>
      <trkpt lat="48.37156" lon="-4.37967">
        <ele>115.4956055</ele>
        <time>2013-08-06T07:55:35Z</time>
      </trkpt>
      <trkpt lat="48.37115" lon="-4.37951">
        <ele>113.0922852</ele>
        <time>2013-08-06T07:55:42Z</time>
      </trkpt>
      <trkpt lat="48.3708" lon="-4.37934">
        <ele>114.0535889</ele>
        <time>2013-08-06T07:55:47Z</time>
      </trkpt>
      <trkpt lat="48.37034" lon="-4.37902">
        <ele>115.4956055</ele>
        <time>2013-08-06T07:55:54Z</time>
      </trkpt>
      <trkpt lat="48.37029" lon="-4.37898">
        <ele>115.4956055</ele>
        <time>2013-08-06T07:55:55Z</time>
      </trkpt>
      <trkpt lat="48.37014" lon="-4.379">
        <ele>112.1309814</ele>
        <time>2013-08-06T07:55:59Z</time>
      </trkpt>
      <trkpt lat="48.37011" lon="-4.37912">
        <ele>111.1695557</ele>
        <time>2013-08-06T07:56:01Z</time>
      </trkpt>
      <trkpt lat="48.37007" lon="-4.37965">
        <ele>110.6888428</ele>
        <time>2013-08-06T07:56:07Z</time>
      </trkpt>
      <trkpt lat="48.37006" lon="-4.38">
        <ele>110.208252</ele>
        <time>2013-08-06T07:56:11Z</time>
      </trkpt>
      <trkpt lat="48.37006" lon="-4.38034">
        <ele>109.7276611</ele>
        <time>2013-08-06T07:56:15Z</time>
      </trkpt>
      <trkpt lat="48.37007" lon="-4.38041">
        <ele>109.7276611</ele>
        <time>2013-08-06T07:56:16Z</time>
      </trkpt>
      <trkpt lat="48.36999" lon="-4.38052">
        <ele>109.2469482</ele>
        <time>2013-08-06T07:56:19Z</time>
      </trkpt>
      <trkpt lat="48.36984" lon="-4.38041">
        <ele>108.7662354</ele>
        <time>2013-08-06T07:56:22Z</time>
      </trkpt>
      <trkpt lat="48.36947" lon="-4.38004">
        <ele>106.8436279</ele>
        <time>2013-08-06T07:56:28Z</time>
      </trkpt>
      <trkpt lat="48.36899" lon="-4.37962">
        <ele>103.4790039</ele>
        <time>2013-08-06T07:56:34Z</time>
      </trkpt>
      <trkpt lat="48.36837" lon="-4.37911">
        <ele>101.5563965</ele>
        <time>2013-08-06T07:56:41Z</time>
      </trkpt>
      <trkpt lat="48.36821" lon="-4.379">
        <ele>99.6337891</ele>
        <time>2013-08-06T07:56:44Z</time>
      </trkpt>
      <trkpt lat="48.3682" lon="-4.37899">
        <ele>98.6724854</ele>
        <time>2013-08-06T07:56:45Z</time>
      </trkpt>
      <trkpt lat="48.36813" lon="-4.37916">
        <ele>94.3465576</ele>
        <time>2013-08-06T07:56:49Z</time>
      </trkpt>
      <trkpt lat="48.36798" lon="-4.37952">
        <ele>97.2304688</ele>
        <time>2013-08-06T07:56:54Z</time>
      </trkpt>
      <trkpt lat="48.36783" lon="-4.37977">
        <ele>96.2692871</ele>
        <time>2013-08-06T07:56:59Z</time>
      </trkpt>
      <trkpt lat="48.36778" lon="-4.37987">
        <ele>95.7884521</ele>
        <time>2013-08-06T07:57:01Z</time>
      </trkpt>
      <trkpt lat="48.36771" lon="-4.37998">
        <ele>95.7884521</ele>
        <time>2013-08-06T07:57:03Z</time>
      </trkpt>
      <trkpt lat="48.36763" lon="-4.38011">
        <ele>95.3077393</ele>
        <time>2013-08-06T07:57:06Z</time>
      </trkpt>
      <trkpt lat="48.36754" lon="-4.38024">
        <ele>96.7498779</ele>
        <time>2013-08-06T07:57:09Z</time>
      </trkpt>
      <trkpt lat="48.36737" lon="-4.3803">
        <ele>99.1530762</ele>
        <time>2013-08-06T07:57:13Z</time>
      </trkpt>
      <trkpt lat="48.36734" lon="-4.38027">
        <ele>98.6724854</ele>
        <time>2013-08-06T07:57:14Z</time>
      </trkpt>
      <trkpt lat="48.36707" lon="-4.37999">
        <ele>102.5177002</ele>
        <time>2013-08-06T07:57:20Z</time>
      </trkpt>
      <trkpt lat="48.36699" lon="-4.37991">
        <ele>100.5950928</ele>
        <time>2013-08-06T07:57:22Z</time>
      </trkpt>
      <trkpt lat="48.36679" lon="-4.37971">
        <ele>94.8271484</ele>
        <time>2013-08-06T07:57:27Z</time>
      </trkpt>
      <trkpt lat="48.36661" lon="-4.37952">
        <ele>93.8658447</ele>
        <time>2013-08-06T07:57:32Z</time>
      </trkpt>
      <trkpt lat="48.36621" lon="-4.37908">
        <ele>107.3243408</ele>
        <time>2013-08-06T07:57:40Z</time>
      </trkpt>
      <trkpt lat="48.36609" lon="-4.3791">
        <ele>106.3630371</ele>
        <time>2013-08-06T07:57:44Z</time>
      </trkpt>
      <trkpt lat="48.36606" lon="-4.37921">
        <ele>106.3630371</ele>
        <time>2013-08-06T07:57:46Z</time>
      </trkpt>
      <trkpt lat="48.36593" lon="-4.37966">
        <ele>103.4790039</ele>
        <time>2013-08-06T07:57:52Z</time>
      </trkpt>
      <trkpt lat="48.36579" lon="-4.38011">
        <ele>107.8050537</ele>
        <time>2013-08-06T07:57:59Z</time>
      </trkpt>
      <trkpt lat="48.3657" lon="-4.38041">
        <ele>110.208252</ele>
        <time>2013-08-06T07:58:03Z</time>
      </trkpt>
      <trkpt lat="48.36555" lon="-4.38085">
        <ele>109.2469482</ele>
        <time>2013-08-06T07:58:10Z</time>
      </trkpt>
      <trkpt lat="48.36542" lon="-4.38119">
        <ele>106.8436279</ele>
        <time>2013-08-06T07:58:15Z</time>
      </trkpt>
      <trkpt lat="48.36534" lon="-4.38148">
        <ele>105.8824463</ele>
        <time>2013-08-06T07:58:19Z</time>
      </trkpt>
      <trkpt lat="48.36523" lon="-4.3819">
        <ele>99.6337891</ele>
        <time>2013-08-06T07:58:26Z</time>
      </trkpt>
      <trkpt lat="48.36514" lon="-4.3822">
        <ele>98.1918945</ele>
        <time>2013-08-06T07:58:31Z</time>
      </trkpt>
      <trkpt lat="48.36511" lon="-4.38232">
        <ele>98.1918945</ele>
        <time>2013-08-06T07:58:33Z</time>
      </trkpt>
      <trkpt lat="48.36504" lon="-4.38247">
        <ele>97.7111816</ele>
        <time>2013-08-06T07:58:36Z</time>
      </trkpt>
      <trkpt lat="48.36488" lon="-4.38267">
        <ele>94.8271484</ele>
        <time>2013-08-06T07:58:42Z</time>
      </trkpt>
      <trkpt lat="48.36473" lon="-4.3828">
        <ele>92.904541</ele>
        <time>2013-08-06T07:58:47Z</time>
      </trkpt>
      <trkpt lat="48.36459" lon="-4.38276">
        <ele>94.8271484</ele>
        <time>2013-08-06T07:58:51Z</time>
      </trkpt>
      <trkpt lat="48.36438" lon="-4.38259">
        <ele>97.7111816</ele>
        <time>2013-08-06T07:58:56Z</time>
      </trkpt>
      <trkpt lat="48.36424" lon="-4.3826">
        <ele>95.7884521</ele>
        <time>2013-08-06T07:59:00Z</time>
      </trkpt>
      <trkpt lat="48.36417" lon="-4.38266">
        <ele>94.8271484</ele>
        <time>2013-08-06T07:59:02Z</time>
      </trkpt>
      <trkpt lat="48.36401" lon="-4.38277">
        <ele>94.8271484</ele>
        <time>2013-08-06T07:59:06Z</time>
      </trkpt>
      <trkpt lat="48.36382" lon="-4.38291">
        <ele>97.7111816</ele>
        <time>2013-08-06T07:59:11Z</time>
      </trkpt>
      <trkpt lat="48.36368" lon="-4.38304">
        <ele>98.1918945</ele>
        <time>2013-08-06T07:59:15Z</time>
      </trkpt>
      <trkpt lat="48.3635" lon="-4.38319">
        <ele>98.1918945</ele>
        <time>2013-08-06T07:59:20Z</time>
      </trkpt>
      <trkpt lat="48.3634" lon="-4.38328">
        <ele>98.1918945</ele>
        <time>2013-08-06T07:59:23Z</time>
      </trkpt>
      <trkpt lat="48.36324" lon="-4.38327">
        <ele>97.7111816</ele>
        <time>2013-08-06T07:59:28Z</time>
      </trkpt>
      <trkpt lat="48.36317" lon="-4.38321">
        <ele>96.7498779</ele>
        <time>2013-08-06T07:59:31Z</time>
      </trkpt>
      <trkpt lat="48.36305" lon="-4.38309">
        <ele>95.7884521</ele>
        <time>2013-08-06T07:59:36Z</time>
      </trkpt>
      <trkpt lat="48.36291" lon="-4.38292">
        <ele>96.2692871</ele>
        <time>2013-08-06T07:59:42Z</time>
      </trkpt>
      <trkpt lat="48.36279" lon="-4.38277">
        <ele>95.3077393</ele>
        <time>2013-08-06T07:59:47Z</time>
      </trkpt>
      <trkpt lat="48.36265" lon="-4.38257">
        <ele>93.3851318</ele>
        <time>2013-08-06T07:59:53Z</time>
      </trkpt>
      <trkpt lat="48.36258" lon="-4.38249">
        <ele>93.8658447</ele>
        <time>2013-08-06T07:59:56Z</time>
      </trkpt>
      <trkpt lat="48.36247" lon="-4.38234">
        <ele>93.8658447</ele>
        <time>2013-08-06T08:00:02Z</time>
      </trkpt>
      <trkpt lat="48.36237" lon="-4.38222">
        <ele>93.3851318</ele>
        <time>2013-08-06T08:00:07Z</time>
      </trkpt>
      <trkpt lat="48.36227" lon="-4.38209">
        <ele>93.3851318</ele>
        <time>2013-08-06T08:00:12Z</time>
      </trkpt>
      <trkpt lat="48.36221" lon="-4.382">
        <ele>94.8271484</ele>
        <time>2013-08-06T08:00:16Z</time>
      </trkpt>
      <trkpt lat="48.36213" lon="-4.38191">
        <ele>95.3077393</ele>
        <time>2013-08-06T08:00:20Z</time>
      </trkpt>
      <trkpt lat="48.36205" lon="-4.3818">
        <ele>96.2692871</ele>
        <time>2013-08-06T08:00:25Z</time>
      </trkpt>
      <trkpt lat="48.36194" lon="-4.38162">
        <ele>94.8271484</ele>
        <time>2013-08-06T08:00:32Z</time>
      </trkpt>
      <trkpt lat="48.36182" lon="-4.38146">
        <ele>94.3465576</ele>
        <time>2013-08-06T08:00:38Z</time>
      </trkpt>
      <trkpt lat="48.36175" lon="-4.3814">
        <ele>95.3077393</ele>
        <time>2013-08-06T08:00:44Z</time>
      </trkpt>
      <trkpt lat="48.36174" lon="-4.38141">
        <ele>95.7884521</ele>
        <time>2013-08-06T08:00:45Z</time>
      </trkpt>
      <trkpt lat="48.36167" lon="-4.3815">
        <ele>97.2304688</ele>
        <time>2013-08-06T08:00:52Z</time>
      </trkpt>
      <trkpt lat="48.36157" lon="-4.38148">
        <ele>98.6724854</ele>
        <time>2013-08-06T08:00:56Z</time>
      </trkpt>
      <trkpt lat="48.36137" lon="-4.3813">
        <ele>102.998291</ele>
        <time>2013-08-06T08:01:03Z</time>
      </trkpt>
      <trkpt lat="48.36118" lon="-4.38112">
        <ele>104.9210205</ele>
        <time>2013-08-06T08:01:09Z</time>
      </trkpt>
      <trkpt lat="48.36093" lon="-4.38086">
        <ele>105.8824463</ele>
        <time>2013-08-06T08:01:16Z</time>
      </trkpt>
      <trkpt lat="48.36074" lon="-4.38069">
        <ele>104.9210205</ele>
        <time>2013-08-06T08:01:21Z</time>
      </trkpt>
      <trkpt lat="48.36051" lon="-4.38046">
        <ele>102.0371094</ele>
        <time>2013-08-06T08:01:27Z</time>
      </trkpt>
      <trkpt lat="48.36037" lon="-4.3802">
        <ele>102.998291</ele>
        <time>2013-08-06T08:01:32Z</time>
      </trkpt>
      <trkpt lat="48.36034" lon="-4.38013">
        <ele>102.5177002</ele>
        <time>2013-08-06T08:01:34Z</time>
      </trkpt>
      <trkpt lat="48.36031" lon="-4.38006">
        <ele>102.998291</ele>
        <time>2013-08-06T08:01:38Z</time>
      </trkpt>
      <trkpt lat="48.36032" lon="-4.38007">
        <ele>102.998291</ele>
        <time>2013-08-06T08:01:41Z</time>
      </trkpt>
      <trkpt lat="48.36035" lon="-4.38009">
        <ele>102.0371094</ele>
        <time>2013-08-06T08:01:44Z</time>
      </trkpt>
      <trkpt lat="48.36046" lon="-4.38003">
        <ele>101.0756836</ele>
        <time>2013-08-06T08:01:49Z</time>
      </trkpt>
      <trkpt lat="48.36047" lon="-4.38">
        <ele>101.0756836</ele>
        <time>2013-08-06T08:01:50Z</time>
      </trkpt>
      <trkpt lat="48.36063" lon="-4.37957">
        <ele>100.114502</ele>
        <time>2013-08-06T08:01:59Z</time>
      </trkpt>
      <trkpt lat="48.36079" lon="-4.37918">
        <ele>98.6724854</ele>
        <time>2013-08-06T08:02:05Z</time>
      </trkpt>
      <trkpt lat="48.36098" lon="-4.37866">
        <ele>96.7498779</ele>
        <time>2013-08-06T08:02:13Z</time>
      </trkpt>
      <trkpt lat="48.3611" lon="-4.37836">
        <ele>96.2692871</ele>
        <time>2013-08-06T08:02:18Z</time>
      </trkpt>
      <trkpt lat="48.36122" lon="-4.37805">
        <ele>94.8271484</ele>
        <time>2013-08-06T08:02:23Z</time>
      </trkpt>
      <trkpt lat="48.36125" lon="-4.37798">
        <ele>94.3465576</ele>
        <time>2013-08-06T08:02:24Z</time>
      </trkpt>
      <trkpt lat="48.36129" lon="-4.37782">
        <ele>94.8271484</ele>
        <time>2013-08-06T08:02:26Z</time>
      </trkpt>
      <trkpt lat="48.36129" lon="-4.37749">
        <ele>94.8271484</ele>
        <time>2013-08-06T08:02:30Z</time>
      </trkpt>
      <trkpt lat="48.36124" lon="-4.37722">
        <ele>93.8658447</ele>
        <time>2013-08-06T08:02:33Z</time>
      </trkpt>
      <trkpt lat="48.36117" lon="-4.37667">
        <ele>91.4625244</ele>
        <time>2013-08-06T08:02:39Z</time>
      </trkpt>
      <trkpt lat="48.36116" lon="-4.37658">
        <ele>91.4625244</ele>
        <time>2013-08-06T08:02:40Z</time>
      </trkpt>
      <trkpt lat="48.36114" lon="-4.37629">
        <ele>89.539917</ele>
        <time>2013-08-06T08:02:44Z</time>
      </trkpt>
      <trkpt lat="48.36107" lon="-4.3759">
        <ele>85.6945801</ele>
        <time>2013-08-06T08:02:49Z</time>
      </trkpt>
      <trkpt lat="48.36107" lon="-4.37542">
        <ele>84.2526855</ele>
        <time>2013-08-06T08:02:55Z</time>
      </trkpt>
      <trkpt lat="48.36107" lon="-4.37519">
        <ele>83.7719727</ele>
        <time>2013-08-06T08:02:59Z</time>
      </trkpt>
      <trkpt lat="48.36109" lon="-4.37493">
        <ele>83.7719727</ele>
        <time>2013-08-06T08:03:04Z</time>
      </trkpt>
      <trkpt lat="48.36104" lon="-4.37447">
        <ele>80.8881836</ele>
        <time>2013-08-06T08:03:11Z</time>
      </trkpt>
      <trkpt lat="48.36091" lon="-4.37397">
        <ele>80.8881836</ele>
        <time>2013-08-06T08:03:17Z</time>
      </trkpt>
      <trkpt lat="48.3609" lon="-4.37389">
        <ele>80.8881836</ele>
        <time>2013-08-06T08:03:18Z</time>
      </trkpt>
      <trkpt lat="48.36088" lon="-4.37372">
        <ele>79.9266357</ele>
        <time>2013-08-06T08:03:20Z</time>
      </trkpt>
      <trkpt lat="48.36088" lon="-4.37335">
        <ele>78.4847412</ele>
        <time>2013-08-06T08:03:24Z</time>
      </trkpt>
      <trkpt lat="48.3608" lon="-4.37303">
        <ele>77.0428467</ele>
        <time>2013-08-06T08:03:28Z</time>
      </trkpt>
      <trkpt lat="48.36053" lon="-4.37266">
        <ele>75.1202393</ele>
        <time>2013-08-06T08:03:33Z</time>
      </trkpt>
      <trkpt lat="48.36048" lon="-4.37259">
        <ele>75.1202393</ele>
        <time>2013-08-06T08:03:34Z</time>
      </trkpt>
      <trkpt lat="48.3604" lon="-4.37227">
        <ele>70.3134766</ele>
        <time>2013-08-06T08:03:38Z</time>
      </trkpt>
      <trkpt lat="48.36035" lon="-4.37201">
        <ele>69.3522949</ele>
        <time>2013-08-06T08:03:43Z</time>
      </trkpt>
      <trkpt lat="48.36021" lon="-4.37178">
        <ele>66.9489746</ele>
        <time>2013-08-06T08:03:47Z</time>
      </trkpt>
      <trkpt lat="48.36001" lon="-4.37135">
        <ele>65.5070801</ele>
        <time>2013-08-06T08:03:52Z</time>
      </trkpt>
      <trkpt lat="48.35987" lon="-4.37102">
        <ele>64.0650635</ele>
        <time>2013-08-06T08:03:56Z</time>
      </trkpt>
      <trkpt lat="48.35974" lon="-4.37085">
        <ele>62.6229248</ele>
        <time>2013-08-06T08:04:00Z</time>
      </trkpt>
      <trkpt lat="48.35948" lon="-4.37069">
        <ele>62.142334</ele>
        <time>2013-08-06T08:04:07Z</time>
      </trkpt>
      <trkpt lat="48.35943" lon="-4.37058">
        <ele>61.1810303</ele>
        <time>2013-08-06T08:04:12Z</time>
      </trkpt>
      <trkpt lat="48.35946" lon="-4.37053">
        <ele>61.1810303</ele>
        <time>2013-08-06T08:04:14Z</time>
      </trkpt>
      <trkpt lat="48.3596" lon="-4.37026">
        <ele>59.7391357</ele>
        <time>2013-08-06T08:04:20Z</time>
      </trkpt>
      <trkpt lat="48.35971" lon="-4.36998">
        <ele>59.7391357</ele>
        <time>2013-08-06T08:04:25Z</time>
      </trkpt>
      <trkpt lat="48.35975" lon="-4.36977">
        <ele>58.77771</ele>
        <time>2013-08-06T08:04:29Z</time>
      </trkpt>
      <trkpt lat="48.35983" lon="-4.36932">
        <ele>57.3358154</ele>
        <time>2013-08-06T08:04:37Z</time>
      </trkpt>
      <trkpt lat="48.35992" lon="-4.36888">
        <ele>54.4517822</ele>
        <time>2013-08-06T08:04:44Z</time>
      </trkpt>
      <trkpt lat="48.35995" lon="-4.36874">
        <ele>53.9711914</ele>
        <time>2013-08-06T08:04:48Z</time>
      </trkpt>
      <trkpt lat="48.35996" lon="-4.36867">
        <ele>54.4517822</ele>
        <time>2013-08-06T08:04:58Z</time>
      </trkpt>
      <trkpt lat="48.35999" lon="-4.36873">
        <ele>53.4904785</ele>
        <time>2013-08-06T08:05:16Z</time>
      </trkpt>
      <trkpt lat="48.35998" lon="-4.36888">
        <ele>52.048584</ele>
        <time>2013-08-06T08:05:20Z</time>
      </trkpt>
      <trkpt lat="48.35998" lon="-4.36913">
        <ele>53.9711914</ele>
        <time>2013-08-06T08:05:26Z</time>
      </trkpt>
      <trkpt lat="48.35994" lon="-4.36939">
        <ele>57.3358154</ele>
        <time>2013-08-06T08:05:32Z</time>
      </trkpt>
      <trkpt lat="48.35992" lon="-4.3696">
        <ele>57.3358154</ele>
        <time>2013-08-06T08:05:37Z</time>
      </trkpt>
      <trkpt lat="48.35982" lon="-4.37002">
        <ele>58.77771</ele>
        <time>2013-08-06T08:05:46Z</time>
      </trkpt>
      <trkpt lat="48.35966" lon="-4.37034">
        <ele>60.2197266</ele>
        <time>2013-08-06T08:05:52Z</time>
      </trkpt>
      <trkpt lat="48.35955" lon="-4.3705">
        <ele>61.1810303</ele>
        <time>2013-08-06T08:05:57Z</time>
      </trkpt>
      <trkpt lat="48.35951" lon="-4.37059">
        <ele>61.1810303</ele>
        <time>2013-08-06T08:06:00Z</time>
      </trkpt>
      <trkpt lat="48.35945" lon="-4.3706">
        <ele>63.5843506</ele>
        <time>2013-08-06T08:06:05Z</time>
      </trkpt>
      <trkpt lat="48.35947" lon="-4.37057">
        <ele>64.0650635</ele>
        <time>2013-08-06T08:06:08Z</time>
      </trkpt>
      <trkpt lat="48.35957" lon="-4.3704">
        <ele>65.5070801</ele>
        <time>2013-08-06T08:06:13Z</time>
      </trkpt>
      <trkpt lat="48.35972" lon="-4.37008">
        <ele>68.3908691</ele>
        <time>2013-08-06T08:06:19Z</time>
      </trkpt>
      <trkpt lat="48.35979" lon="-4.3698">
        <ele>69.3522949</ele>
        <time>2013-08-06T08:06:24Z</time>
      </trkpt>
      <trkpt lat="48.35988" lon="-4.36928">
        <ele>67.9102783</ele>
        <time>2013-08-06T08:06:33Z</time>
      </trkpt>
      <trkpt lat="48.35995" lon="-4.36893">
        <ele>66.4682617</ele>
        <time>2013-08-06T08:06:38Z</time>
      </trkpt>
      <trkpt lat="48.35997" lon="-4.36881">
        <ele>65.9876709</ele>
        <time>2013-08-06T08:06:40Z</time>
      </trkpt>
      <trkpt lat="48.35994" lon="-4.36855">
        <ele>63.5843506</ele>
        <time>2013-08-06T08:06:45Z</time>
      </trkpt>
      <trkpt lat="48.35982" lon="-4.36821">
        <ele>58.77771</ele>
        <time>2013-08-06T08:06:52Z</time>
      </trkpt>
      <trkpt lat="48.35979" lon="-4.3681">
        <ele>56.8551025</ele>
        <time>2013-08-06T08:06:57Z</time>
      </trkpt>
      <trkpt lat="48.35985" lon="-4.36804">
        <ele>56.8551025</ele>
        <time>2013-08-06T08:07:02Z</time>
      </trkpt>
      <trkpt lat="48.35992" lon="-4.36807">
        <ele>56.8551025</ele>
        <time>2013-08-06T08:07:07Z</time>
      </trkpt>
      <trkpt lat="48.35994" lon="-4.36803">
        <ele>54.932373</ele>
        <time>2013-08-06T08:07:12Z</time>
      </trkpt>
      <trkpt lat="48.3599" lon="-4.36808">
        <ele>52.5291748</ele>
        <time>2013-08-06T08:07:17Z</time>
      </trkpt>
      <trkpt lat="48.35992" lon="-4.36812">
        <ele>48.68396</ele>
        <time>2013-08-06T08:07:23Z</time>
      </trkpt>
      <trkpt lat="48.35994" lon="-4.36812">
        <ele>47.2418213</ele>
        <time>2013-08-06T08:07:27Z</time>
      </trkpt>
      <trkpt lat="48.36002" lon="-4.36809">
        <ele>31.8607178</ele>
        <time>2013-08-06T08:09:52Z</time>
      </trkpt>
      <trkpt lat="48.36007" lon="-4.36802">
        <ele>32.8222656</ele>
        <time>2013-08-06T08:09:54Z</time>
      </trkpt>
      <trkpt lat="48.36018" lon="-4.36789">
        <ele>37.1480713</ele>
        <time>2013-08-06T08:09:59Z</time>
      </trkpt>
      <trkpt lat="48.36033" lon="-4.36769">
        <ele>41.9547119</ele>
        <time>2013-08-06T08:10:05Z</time>
      </trkpt>
      <trkpt lat="48.36041" lon="-4.36749">
        <ele>47.2418213</ele>
        <time>2013-08-06T08:10:10Z</time>
      </trkpt>
      <trkpt lat="48.36052" lon="-4.36721">
        <ele>44.3580322</ele>
        <time>2013-08-06T08:10:15Z</time>
      </trkpt>
      <trkpt lat="48.3606" lon="-4.36704">
        <ele>44.3580322</ele>
        <time>2013-08-06T08:10:18Z</time>
      </trkpt>
      <trkpt lat="48.36086" lon="-4.36683">
        <ele>44.3580322</ele>
        <time>2013-08-06T08:10:24Z</time>
      </trkpt>
      <trkpt lat="48.36118" lon="-4.3667">
        <ele>46.7612305</ele>
        <time>2013-08-06T08:10:30Z</time>
      </trkpt>
      <trkpt lat="48.36133" lon="-4.3666">
        <ele>43.3966064</ele>
        <time>2013-08-06T08:10:34Z</time>
      </trkpt>
      <trkpt lat="48.3614" lon="-4.36655">
        <ele>42.9160156</ele>
        <time>2013-08-06T08:10:36Z</time>
      </trkpt>
      <trkpt lat="48.36153" lon="-4.36647">
        <ele>42.9160156</ele>
        <time>2013-08-06T08:10:39Z</time>
      </trkpt>
      <trkpt lat="48.3617" lon="-4.36632">
        <ele>41.473999</ele>
        <time>2013-08-06T08:10:44Z</time>
      </trkpt>
      <trkpt lat="48.3618" lon="-4.36618">
        <ele>42.9160156</ele>
        <time>2013-08-06T08:10:48Z</time>
      </trkpt>
      <trkpt lat="48.36197" lon="-4.36616">
        <ele>45.7999268</ele>
        <time>2013-08-06T08:10:52Z</time>
      </trkpt>
      <trkpt lat="48.36208" lon="-4.36608">
        <ele>44.838623</ele>
        <time>2013-08-06T08:10:55Z</time>
      </trkpt>
      <trkpt lat="48.36222" lon="-4.36587">
        <ele>45.7999268</ele>
        <time>2013-08-06T08:11:00Z</time>
      </trkpt>
      <trkpt lat="48.36237" lon="-4.3656">
        <ele>47.7225342</ele>
        <time>2013-08-06T08:11:06Z</time>
      </trkpt>
      <trkpt lat="48.3624" lon="-4.36554">
        <ele>48.2033691</ele>
        <time>2013-08-06T08:11:07Z</time>
      </trkpt>
      <trkpt lat="48.36256" lon="-4.36523">
        <ele>46.7612305</ele>
        <time>2013-08-06T08:11:12Z</time>
      </trkpt>
      <trkpt lat="48.36262" lon="-4.36512">
        <ele>47.2418213</ele>
        <time>2013-08-06T08:11:14Z</time>
      </trkpt>
      <trkpt lat="48.36276" lon="-4.36484">
        <ele>51.0871582</ele>
        <time>2013-08-06T08:11:20Z</time>
      </trkpt>
      <trkpt lat="48.36281" lon="-4.36472">
        <ele>50.6065674</ele>
        <time>2013-08-06T08:11:22Z</time>
      </trkpt>
      <trkpt lat="48.36288" lon="-4.36441">
        <ele>53.4904785</ele>
        <time>2013-08-06T08:11:27Z</time>
      </trkpt>
      <trkpt lat="48.36292" lon="-4.36427">
        <ele>54.4517822</ele>
        <time>2013-08-06T08:11:29Z</time>
      </trkpt>
      <trkpt lat="48.36301" lon="-4.36402">
        <ele>53.0097656</ele>
        <time>2013-08-06T08:11:33Z</time>
      </trkpt>
      <trkpt lat="48.36316" lon="-4.36365">
        <ele>53.4904785</ele>
        <time>2013-08-06T08:11:39Z</time>
      </trkpt>
      <trkpt lat="48.3633" lon="-4.36332">
        <ele>51.5678711</ele>
        <time>2013-08-06T08:11:44Z</time>
      </trkpt>
      <trkpt lat="48.36338" lon="-4.36313">
        <ele>49.6452637</ele>
        <time>2013-08-06T08:11:47Z</time>
      </trkpt>
      <trkpt lat="48.36346" lon="-4.36297">
        <ele>48.2033691</ele>
        <time>2013-08-06T08:11:50Z</time>
      </trkpt>
      <trkpt lat="48.3636" lon="-4.36283">
        <ele>48.68396</ele>
        <time>2013-08-06T08:11:55Z</time>
      </trkpt>
      <trkpt lat="48.36376" lon="-4.36262">
        <ele>46.7612305</ele>
        <time>2013-08-06T08:12:00Z</time>
      </trkpt>
      <trkpt lat="48.3639" lon="-4.36239">
        <ele>47.2418213</ele>
        <time>2013-08-06T08:12:05Z</time>
      </trkpt>
      <trkpt lat="48.36394" lon="-4.36236">
        <ele>48.2033691</ele>
        <time>2013-08-06T08:12:06Z</time>
      </trkpt>
      <trkpt lat="48.36406" lon="-4.36214">
        <ele>52.048584</ele>
        <time>2013-08-06T08:12:11Z</time>
      </trkpt>
      <trkpt lat="48.36409" lon="-4.3621">
        <ele>51.5678711</ele>
        <time>2013-08-06T08:12:12Z</time>
      </trkpt>
      <trkpt lat="48.36422" lon="-4.36186">
        <ele>50.1259766</ele>
        <time>2013-08-06T08:12:18Z</time>
      </trkpt>
      <trkpt lat="48.36427" lon="-4.36178">
        <ele>50.1259766</ele>
        <time>2013-08-06T08:12:21Z</time>
      </trkpt>
      <trkpt lat="48.36426" lon="-4.36162">
        <ele>50.6065674</ele>
        <time>2013-08-06T08:12:26Z</time>
      </trkpt>
      <trkpt lat="48.36423" lon="-4.36158">
        <ele>51.0871582</ele>
        <time>2013-08-06T08:12:27Z</time>
      </trkpt>
      <trkpt lat="48.36403" lon="-4.36133">
        <ele>51.0871582</ele>
        <time>2013-08-06T08:12:32Z</time>
      </trkpt>
      <trkpt lat="48.36372" lon="-4.36091">
        <ele>48.68396</ele>
        <time>2013-08-06T08:12:38Z</time>
      </trkpt>
      <trkpt lat="48.36353" lon="-4.36059">
        <ele>45.7999268</ele>
        <time>2013-08-06T08:12:43Z</time>
      </trkpt>
      <trkpt lat="48.36353" lon="-4.36041">
        <ele>46.7612305</ele>
        <time>2013-08-06T08:12:47Z</time>
      </trkpt>
      <trkpt lat="48.36355" lon="-4.36038">
        <ele>46.7612305</ele>
        <time>2013-08-06T08:12:48Z</time>
      </trkpt>
      <trkpt lat="48.36377" lon="-4.36009">
        <ele>50.1259766</ele>
        <time>2013-08-06T08:12:55Z</time>
      </trkpt>
      <trkpt lat="48.36399" lon="-4.3598">
        <ele>52.5291748</ele>
        <time>2013-08-06T08:13:01Z</time>
      </trkpt>
      <trkpt lat="48.36414" lon="-4.35963">
        <ele>53.0097656</ele>
        <time>2013-08-06T08:13:05Z</time>
      </trkpt>
      <trkpt lat="48.36417" lon="-4.35959">
        <ele>53.0097656</ele>
        <time>2013-08-06T08:13:06Z</time>
      </trkpt>
      <trkpt lat="48.36437" lon="-4.3595">
        <ele>54.4517822</ele>
        <time>2013-08-06T08:13:12Z</time>
      </trkpt>
      <trkpt lat="48.36452" lon="-4.35957">
        <ele>56.8551025</ele>
        <time>2013-08-06T08:13:18Z</time>
      </trkpt>
      <trkpt lat="48.36454" lon="-4.35959">
        <ele>57.8165283</ele>
        <time>2013-08-06T08:13:19Z</time>
      </trkpt>
      <trkpt lat="48.36466" lon="-4.35954">
        <ele>62.6229248</ele>
        <time>2013-08-06T08:13:24Z</time>
      </trkpt>
      <trkpt lat="48.36491" lon="-4.35942">
        <ele>60.7003174</ele>
        <time>2013-08-06T08:13:30Z</time>
      </trkpt>
      <trkpt lat="48.36503" lon="-4.35943">
        <ele>58.2971191</ele>
        <time>2013-08-06T08:13:33Z</time>
      </trkpt>
      <trkpt lat="48.36532" lon="-4.35938">
        <ele>55.4130859</ele>
        <time>2013-08-06T08:13:40Z</time>
      </trkpt>
      <trkpt lat="48.36554" lon="-4.35934">
        <ele>54.932373</ele>
        <time>2013-08-06T08:13:46Z</time>
      </trkpt>
      <trkpt lat="48.36576" lon="-4.35923">
        <ele>54.4517822</ele>
        <time>2013-08-06T08:13:53Z</time>
      </trkpt>
      <trkpt lat="48.36585" lon="-4.35892">
        <ele>56.3745117</ele>
        <time>2013-08-06T08:13:59Z</time>
      </trkpt>
      <trkpt lat="48.36596" lon="-4.35858">
        <ele>57.3358154</ele>
        <time>2013-08-06T08:14:07Z</time>
      </trkpt>
      <trkpt lat="48.36606" lon="-4.35828">
        <ele>57.3358154</ele>
        <time>2013-08-06T08:14:15Z</time>
      </trkpt>
      <trkpt lat="48.36622" lon="-4.35789">
        <ele>58.2971191</ele>
        <time>2013-08-06T08:14:23Z</time>
      </trkpt>
      <trkpt lat="48.36642" lon="-4.35751">
        <ele>59.2584229</ele>
        <time>2013-08-06T08:14:30Z</time>
      </trkpt>
      <trkpt lat="48.36649" lon="-4.35742">
        <ele>58.2971191</ele>
        <time>2013-08-06T08:14:32Z</time>
      </trkpt>
      <trkpt lat="48.3666" lon="-4.35729">
        <ele>56.8551025</ele>
        <time>2013-08-06T08:14:35Z</time>
      </trkpt>
      <trkpt lat="48.36682" lon="-4.35691">
        <ele>54.4517822</ele>
        <time>2013-08-06T08:14:42Z</time>
      </trkpt>
      <trkpt lat="48.36692" lon="-4.35666">
        <ele>54.932373</ele>
        <time>2013-08-06T08:14:46Z</time>
      </trkpt>
      <trkpt lat="48.36702" lon="-4.35647">
        <ele>54.932373</ele>
        <time>2013-08-06T08:14:49Z</time>
      </trkpt>
      <trkpt lat="48.36721" lon="-4.35622">
        <ele>52.5291748</ele>
        <time>2013-08-06T08:14:54Z</time>
      </trkpt>
      <trkpt lat="48.36733" lon="-4.35607">
        <ele>51.5678711</ele>
        <time>2013-08-06T08:14:57Z</time>
      </trkpt>
      <trkpt lat="48.36755" lon="-4.35585">
        <ele>51.0871582</ele>
        <time>2013-08-06T08:15:02Z</time>
      </trkpt>
      <trkpt lat="48.36791" lon="-4.35549">
        <ele>52.048584</ele>
        <time>2013-08-06T08:15:10Z</time>
      </trkpt>
      <trkpt lat="48.36817" lon="-4.35528">
        <ele>53.0097656</ele>
        <time>2013-08-06T08:15:15Z</time>
      </trkpt>
      <trkpt lat="48.36836" lon="-4.35508">
        <ele>54.4517822</ele>
        <time>2013-08-06T08:15:20Z</time>
      </trkpt>
      <trkpt lat="48.36843" lon="-4.355">
        <ele>55.8937988</ele>
        <time>2013-08-06T08:15:22Z</time>
      </trkpt>
      <trkpt lat="48.36855" lon="-4.35482">
        <ele>55.4130859</ele>
        <time>2013-08-06T08:15:25Z</time>
      </trkpt>
      <trkpt lat="48.36877" lon="-4.35431">
        <ele>50.6065674</ele>
        <time>2013-08-06T08:15:32Z</time>
      </trkpt>
      <trkpt lat="48.36879" lon="-4.35425">
        <ele>49.6452637</ele>
        <time>2013-08-06T08:15:33Z</time>
      </trkpt>
      <trkpt lat="48.36889" lon="-4.35407">
        <ele>47.7225342</ele>
        <time>2013-08-06T08:15:37Z</time>
      </trkpt>
      <trkpt lat="48.36897" lon="-4.35398">
        <ele>50.1259766</ele>
        <time>2013-08-06T08:15:40Z</time>
      </trkpt>
      <trkpt lat="48.36908" lon="-4.35382">
        <ele>52.5291748</ele>
        <time>2013-08-06T08:15:47Z</time>
      </trkpt>
      <trkpt lat="48.36915" lon="-4.35374">
        <ele>54.4517822</ele>
        <time>2013-08-06T08:15:51Z</time>
      </trkpt>
      <trkpt lat="48.36928" lon="-4.3536">
        <ele>57.3358154</ele>
        <time>2013-08-06T08:15:58Z</time>
      </trkpt>
      <trkpt lat="48.36941" lon="-4.35337">
        <ele>60.2197266</ele>
        <time>2013-08-06T08:16:04Z</time>
      </trkpt>
      <trkpt lat="48.36957" lon="-4.35311">
        <ele>59.7391357</ele>
        <time>2013-08-06T08:16:10Z</time>
      </trkpt>
      <trkpt lat="48.36975" lon="-4.35287">
        <ele>61.1810303</ele>
        <time>2013-08-06T08:16:15Z</time>
      </trkpt>
      <trkpt lat="48.36985" lon="-4.35266">
        <ele>60.7003174</ele>
        <time>2013-08-06T08:16:18Z</time>
      </trkpt>
      <trkpt lat="48.36994" lon="-4.35239">
        <ele>59.2584229</ele>
        <time>2013-08-06T08:16:21Z</time>
      </trkpt>
      <trkpt lat="48.37005" lon="-4.352">
        <ele>57.3358154</ele>
        <time>2013-08-06T08:16:25Z</time>
      </trkpt>
      <trkpt lat="48.37011" lon="-4.35186">
        <ele>57.8165283</ele>
        <time>2013-08-06T08:16:28Z</time>
      </trkpt>
      <trkpt lat="48.37023" lon="-4.35183">
        <ele>59.2584229</ele>
        <time>2013-08-06T08:16:34Z</time>
      </trkpt>
      <trkpt lat="48.37025" lon="-4.35201">
        <ele>61.6617432</ele>
        <time>2013-08-06T08:16:40Z</time>
      </trkpt>
      <trkpt lat="48.37027" lon="-4.35205">
        <ele>62.142334</ele>
        <time>2013-08-06T08:16:41Z</time>
      </trkpt>
      <trkpt lat="48.37031" lon="-4.35224">
        <ele>65.0263672</ele>
        <time>2013-08-06T08:16:46Z</time>
      </trkpt>
      <trkpt lat="48.37037" lon="-4.35241">
        <ele>65.9876709</ele>
        <time>2013-08-06T08:16:51Z</time>
      </trkpt>
      <trkpt lat="48.37038" lon="-4.35251">
        <ele>61.6617432</ele>
        <time>2013-08-06T08:16:55Z</time>
      </trkpt>
      <trkpt lat="48.3704" lon="-4.35274">
        <ele>59.7391357</ele>
        <time>2013-08-06T08:17:02Z</time>
      </trkpt>
      <trkpt lat="48.37044" lon="-4.35292">
        <ele>53.9711914</ele>
        <time>2013-08-06T08:17:06Z</time>
      </trkpt>
      <trkpt lat="48.37042" lon="-4.35315">
        <ele>56.8551025</ele>
        <time>2013-08-06T08:17:12Z</time>
      </trkpt>
      <trkpt lat="48.3705" lon="-4.35324">
        <ele>55.4130859</ele>
        <time>2013-08-06T08:17:17Z</time>
      </trkpt>
      <trkpt lat="48.37053" lon="-4.35325">
        <ele>55.8937988</ele>
        <time>2013-08-06T08:17:18Z</time>
      </trkpt>
      <trkpt lat="48.37058" lon="-4.35325">
        <ele>56.3745117</ele>
        <time>2013-08-06T08:17:22Z</time>
      </trkpt>
      <trkpt lat="48.37071" lon="-4.35323">
        <ele>58.77771</ele>
        <time>2013-08-06T08:17:27Z</time>
      </trkpt>
      <trkpt lat="48.37089" lon="-4.35322">
        <ele>60.2197266</ele>
        <time>2013-08-06T08:17:32Z</time>
      </trkpt>
      <trkpt lat="48.37108" lon="-4.35322">
        <ele>65.0263672</ele>
        <time>2013-08-06T08:17:37Z</time>
      </trkpt>
      <trkpt lat="48.37124" lon="-4.35319">
        <ele>65.5070801</ele>
        <time>2013-08-06T08:17:42Z</time>
      </trkpt>
      <trkpt lat="48.37141" lon="-4.35322">
        <ele>67.4296875</ele>
        <time>2013-08-06T08:17:47Z</time>
      </trkpt>
      <trkpt lat="48.37159" lon="-4.35326">
        <ele>70.3134766</ele>
        <time>2013-08-06T08:17:52Z</time>
      </trkpt>
      <trkpt lat="48.37176" lon="-4.35333">
        <ele>71.7554932</ele>
        <time>2013-08-06T08:17:57Z</time>
      </trkpt>
      <trkpt lat="48.37191" lon="-4.35331">
        <ele>73.1976318</ele>
        <time>2013-08-06T08:18:03Z</time>
      </trkpt>
      <trkpt lat="48.37195" lon="-4.35331">
        <ele>74.6395264</ele>
        <time>2013-08-06T08:18:05Z</time>
      </trkpt>
      <trkpt lat="48.37203" lon="-4.35331">
        <ele>74.6395264</ele>
        <time>2013-08-06T08:18:08Z</time>
      </trkpt>
      <trkpt lat="48.3721" lon="-4.35317">
        <ele>72.7169189</ele>
        <time>2013-08-06T08:18:14Z</time>
      </trkpt>
      <trkpt lat="48.37212" lon="-4.35302">
        <ele>72.2362061</ele>
        <time>2013-08-06T08:18:16Z</time>
      </trkpt>
      <trkpt lat="48.37218" lon="-4.3525">
        <ele>67.9102783</ele>
        <time>2013-08-06T08:18:22Z</time>
      </trkpt>
      <trkpt lat="48.3722" lon="-4.35241">
        <ele>68.3908691</ele>
        <time>2013-08-06T08:18:23Z</time>
      </trkpt>
      <trkpt lat="48.37227" lon="-4.35222">
        <ele>65.9876709</ele>
        <time>2013-08-06T08:18:26Z</time>
      </trkpt>
      <trkpt lat="48.37228" lon="-4.35209">
        <ele>64.5456543</ele>
        <time>2013-08-06T08:18:29Z</time>
      </trkpt>
      <trkpt lat="48.37231" lon="-4.35195">
        <ele>64.5456543</ele>
        <time>2013-08-06T08:18:32Z</time>
      </trkpt>
      <trkpt lat="48.37238" lon="-4.35155">
        <ele>64.0650635</ele>
        <time>2013-08-06T08:18:38Z</time>
      </trkpt>
      <trkpt lat="48.37241" lon="-4.35147">
        <ele>63.5843506</ele>
        <time>2013-08-06T08:18:39Z</time>
      </trkpt>
      <trkpt lat="48.37265" lon="-4.35106">
        <ele>61.6617432</ele>
        <time>2013-08-06T08:18:45Z</time>
      </trkpt>
      <trkpt lat="48.37268" lon="-4.35101">
        <ele>61.6617432</ele>
        <time>2013-08-06T08:18:46Z</time>
      </trkpt>
      <trkpt lat="48.37276" lon="-4.35079">
        <ele>60.2197266</ele>
        <time>2013-08-06T08:18:50Z</time>
      </trkpt>
      <trkpt lat="48.37271" lon="-4.35036">
        <ele>60.2197266</ele>
        <time>2013-08-06T08:18:58Z</time>
      </trkpt>
      <trkpt lat="48.37271" lon="-4.34999">
        <ele>61.6617432</ele>
        <time>2013-08-06T08:19:05Z</time>
      </trkpt>
      <trkpt lat="48.37289" lon="-4.34991">
        <ele>62.142334</ele>
        <time>2013-08-06T08:19:10Z</time>
      </trkpt>
      <trkpt lat="48.37321" lon="-4.34991">
        <ele>60.2197266</ele>
        <time>2013-08-06T08:19:17Z</time>
      </trkpt>
      <trkpt lat="48.3733" lon="-4.34992">
        <ele>60.7003174</ele>
        <time>2013-08-06T08:19:19Z</time>
      </trkpt>
      <trkpt lat="48.37361" lon="-4.34998">
        <ele>65.5070801</ele>
        <time>2013-08-06T08:19:27Z</time>
      </trkpt>
      <trkpt lat="48.37384" lon="-4.35001">
        <ele>65.9876709</ele>
        <time>2013-08-06T08:19:33Z</time>
      </trkpt>
      <trkpt lat="48.3741" lon="-4.35002">
        <ele>66.9489746</ele>
        <time>2013-08-06T08:19:40Z</time>
      </trkpt>
      <trkpt lat="48.37439" lon="-4.35006">
        <ele>68.871582</ele>
        <time>2013-08-06T08:19:48Z</time>
      </trkpt>
      <trkpt lat="48.37465" lon="-4.35012">
        <ele>69.8328857</ele>
        <time>2013-08-06T08:19:56Z</time>
      </trkpt>
      <trkpt lat="48.37485" lon="-4.35019">
        <ele>68.871582</ele>
        <time>2013-08-06T08:20:03Z</time>
      </trkpt>
      <trkpt lat="48.3751" lon="-4.35027">
        <ele>72.7169189</ele>
        <time>2013-08-06T08:20:11Z</time>
      </trkpt>
      <trkpt lat="48.37532" lon="-4.35037">
        <ele>76.0814209</ele>
        <time>2013-08-06T08:20:20Z</time>
      </trkpt>
      <trkpt lat="48.3755" lon="-4.35043">
        <ele>78.0040283</ele>
        <time>2013-08-06T08:20:27Z</time>
      </trkpt>
      <trkpt lat="48.37569" lon="-4.35052">
        <ele>78.9654541</ele>
        <time>2013-08-06T08:20:35Z</time>
      </trkpt>
      <trkpt lat="48.37587" lon="-4.35061">
        <ele>81.3687744</ele>
        <time>2013-08-06T08:20:43Z</time>
      </trkpt>
      <trkpt lat="48.37601" lon="-4.35066">
        <ele>80.4074707</ele>
        <time>2013-08-06T08:20:50Z</time>
      </trkpt>
      <trkpt lat="48.37614" lon="-4.3506">
        <ele>79.4460449</ele>
        <time>2013-08-06T08:20:57Z</time>
      </trkpt>
      <trkpt lat="48.37629" lon="-4.35054">
        <ele>82.3300781</ele>
        <time>2013-08-06T08:21:03Z</time>
      </trkpt>
      <trkpt lat="48.37642" lon="-4.35046">
        <ele>84.2526855</ele>
        <time>2013-08-06T08:21:08Z</time>
      </trkpt>
      <trkpt lat="48.37653" lon="-4.35039">
        <ele>85.6945801</ele>
        <time>2013-08-06T08:21:13Z</time>
      </trkpt>
      <trkpt lat="48.37666" lon="-4.35023">
        <ele>83.2913818</ele>
        <time>2013-08-06T08:21:18Z</time>
      </trkpt>
      <trkpt lat="48.37674" lon="-4.35002">
        <ele>76.5621338</ele>
        <time>2013-08-06T08:21:23Z</time>
      </trkpt>
      <trkpt lat="48.37682" lon="-4.34981">
        <ele>75.6008301</ele>
        <time>2013-08-06T08:21:29Z</time>
      </trkpt>
      <trkpt lat="48.37689" lon="-4.34959">
        <ele>72.7169189</ele>
        <time>2013-08-06T08:21:35Z</time>
      </trkpt>
      <trkpt lat="48.37695" lon="-4.34932">
        <ele>71.7554932</ele>
        <time>2013-08-06T08:21:42Z</time>
      </trkpt>
      <trkpt lat="48.37698" lon="-4.34908">
        <ele>77.0428467</ele>
        <time>2013-08-06T08:21:48Z</time>
      </trkpt>
      <trkpt lat="48.37701" lon="-4.34888">
        <ele>81.3687744</ele>
        <time>2013-08-06T08:21:52Z</time>
      </trkpt>
      <trkpt lat="48.37708" lon="-4.34854">
        <ele>81.8493652</ele>
        <time>2013-08-06T08:21:58Z</time>
      </trkpt>
      <trkpt lat="48.37709" lon="-4.34849">
        <ele>82.3300781</ele>
        <time>2013-08-06T08:21:59Z</time>
      </trkpt>
      <trkpt lat="48.37713" lon="-4.34842">
        <ele>82.3300781</ele>
        <time>2013-08-06T08:22:01Z</time>
      </trkpt>
      <trkpt lat="48.37721" lon="-4.34812">
        <ele>83.7719727</ele>
        <time>2013-08-06T08:22:07Z</time>
      </trkpt>
      <trkpt lat="48.37727" lon="-4.3479">
        <ele>82.810791</ele>
        <time>2013-08-06T08:22:11Z</time>
      </trkpt>
      <trkpt lat="48.37738" lon="-4.34768">
        <ele>81.8493652</ele>
        <time>2013-08-06T08:22:16Z</time>
      </trkpt>
      <trkpt lat="48.37748" lon="-4.34739">
        <ele>80.8881836</ele>
        <time>2013-08-06T08:22:23Z</time>
      </trkpt>
      <trkpt lat="48.37754" lon="-4.34709">
        <ele>80.4074707</ele>
        <time>2013-08-06T08:22:29Z</time>
      </trkpt>
      <trkpt lat="48.37754" lon="-4.34681">
        <ele>80.4074707</ele>
        <time>2013-08-06T08:22:34Z</time>
      </trkpt>
      <trkpt lat="48.37758" lon="-4.34652">
        <ele>78.9654541</ele>
        <time>2013-08-06T08:22:39Z</time>
      </trkpt>
      <trkpt lat="48.37759" lon="-4.34627">
        <ele>77.0428467</ele>
        <time>2013-08-06T08:22:43Z</time>
      </trkpt>
      <trkpt lat="48.37758" lon="-4.34612">
        <ele>76.0814209</ele>
        <time>2013-08-06T08:22:45Z</time>
      </trkpt>
      <trkpt lat="48.37756" lon="-4.34595">
        <ele>75.1202393</ele>
        <time>2013-08-06T08:22:47Z</time>
      </trkpt>
      <trkpt lat="48.37741" lon="-4.34556">
        <ele>79.9266357</ele>
        <time>2013-08-06T08:22:51Z</time>
      </trkpt>
      <trkpt lat="48.3773" lon="-4.34513">
        <ele>81.3687744</ele>
        <time>2013-08-06T08:22:55Z</time>
      </trkpt>
      <trkpt lat="48.37731" lon="-4.3446">
        <ele>81.8493652</ele>
        <time>2013-08-06T08:23:01Z</time>
      </trkpt>
      <trkpt lat="48.37731" lon="-4.34452">
        <ele>82.3300781</ele>
        <time>2013-08-06T08:23:02Z</time>
      </trkpt>
      <trkpt lat="48.37732" lon="-4.34439">
        <ele>81.8493652</ele>
        <time>2013-08-06T08:23:04Z</time>
      </trkpt>
      <trkpt lat="48.37732" lon="-4.34403">
        <ele>79.9266357</ele>
        <time>2013-08-06T08:23:09Z</time>
      </trkpt>
      <trkpt lat="48.37733" lon="-4.34388">
        <ele>78.9654541</ele>
        <time>2013-08-06T08:23:11Z</time>
      </trkpt>
      <trkpt lat="48.37736" lon="-4.34347">
        <ele>78.0040283</ele>
        <time>2013-08-06T08:23:15Z</time>
      </trkpt>
      <trkpt lat="48.37749" lon="-4.34268">
        <ele>71.2749023</ele>
        <time>2013-08-06T08:23:21Z</time>
      </trkpt>
      <trkpt lat="48.37753" lon="-4.34242">
        <ele>70.7941895</ele>
        <time>2013-08-06T08:23:23Z</time>
      </trkpt>
      <trkpt lat="48.37759" lon="-4.34186">
        <ele>71.2749023</ele>
        <time>2013-08-06T08:23:28Z</time>
      </trkpt>
      <trkpt lat="48.37761" lon="-4.34168">
        <ele>69.8328857</ele>
        <time>2013-08-06T08:23:30Z</time>
      </trkpt>
      <trkpt lat="48.37762" lon="-4.34129">
        <ele>67.9102783</ele>
        <time>2013-08-06T08:23:35Z</time>
      </trkpt>
      <trkpt lat="48.37755" lon="-4.34103">
        <ele>67.4296875</ele>
        <time>2013-08-06T08:23:39Z</time>
      </trkpt>
      <trkpt lat="48.37746" lon="-4.34078">
        <ele>68.3908691</ele>
        <time>2013-08-06T08:23:42Z</time>
      </trkpt>
      <trkpt lat="48.37724" lon="-4.34041">
        <ele>67.9102783</ele>
        <time>2013-08-06T08:23:46Z</time>
      </trkpt>
      <trkpt lat="48.37714" lon="-4.34007">
        <ele>67.4296875</ele>
        <time>2013-08-06T08:23:49Z</time>
      </trkpt>
      <trkpt lat="48.37706" lon="-4.33965">
        <ele>65.9876709</ele>
        <time>2013-08-06T08:23:53Z</time>
      </trkpt>
      <trkpt lat="48.37695" lon="-4.33941">
        <ele>65.5070801</ele>
        <time>2013-08-06T08:23:57Z</time>
      </trkpt>
      <trkpt lat="48.37673" lon="-4.33902">
        <ele>64.0650635</ele>
        <time>2013-08-06T08:24:02Z</time>
      </trkpt>
      <trkpt lat="48.37663" lon="-4.33862">
        <ele>64.5456543</ele>
        <time>2013-08-06T08:24:06Z</time>
      </trkpt>
      <trkpt lat="48.37656" lon="-4.33799">
        <ele>61.1810303</ele>
        <time>2013-08-06T08:24:13Z</time>
      </trkpt>
      <trkpt lat="48.37649" lon="-4.3377">
        <ele>58.77771</ele>
        <time>2013-08-06T08:24:17Z</time>
      </trkpt>
      <trkpt lat="48.37646" lon="-4.33728">
        <ele>58.77771</ele>
        <time>2013-08-06T08:24:22Z</time>
      </trkpt>
      <trkpt lat="48.37646" lon="-4.33709">
        <ele>57.3358154</ele>
        <time>2013-08-06T08:24:24Z</time>
      </trkpt>
      <trkpt lat="48.37643" lon="-4.33667">
        <ele>54.4517822</ele>
        <time>2013-08-06T08:24:28Z</time>
      </trkpt>
      <trkpt lat="48.37637" lon="-4.33614">
        <ele>51.0871582</ele>
        <time>2013-08-06T08:24:33Z</time>
      </trkpt>
      <trkpt lat="48.37632" lon="-4.33583">
        <ele>50.1259766</ele>
        <time>2013-08-06T08:24:36Z</time>
      </trkpt>
      <trkpt lat="48.37629" lon="-4.33555">
        <ele>49.6452637</ele>
        <time>2013-08-06T08:24:39Z</time>
      </trkpt>
      <trkpt lat="48.37633" lon="-4.33502">
        <ele>47.7225342</ele>
        <time>2013-08-06T08:24:45Z</time>
      </trkpt>
      <trkpt lat="48.37633" lon="-4.33465">
        <ele>45.3192139</ele>
        <time>2013-08-06T08:24:49Z</time>
      </trkpt>
      <trkpt lat="48.37643" lon="-4.33438">
        <ele>46.2806396</ele>
        <time>2013-08-06T08:24:53Z</time>
      </trkpt>
      <trkpt lat="48.3765" lon="-4.33427">
        <ele>46.7612305</ele>
        <time>2013-08-06T08:24:55Z</time>
      </trkpt>
      <trkpt lat="48.37669" lon="-4.33396">
        <ele>47.7225342</ele>
        <time>2013-08-06T08:25:01Z</time>
      </trkpt>
      <trkpt lat="48.37681" lon="-4.33368">
        <ele>47.7225342</ele>
        <time>2013-08-06T08:25:07Z</time>
      </trkpt>
      <trkpt lat="48.37675" lon="-4.33351">
        <ele>44.838623</ele>
        <time>2013-08-06T08:25:10Z</time>
      </trkpt>
      <trkpt lat="48.37665" lon="-4.33326">
        <ele>43.3966064</ele>
        <time>2013-08-06T08:25:15Z</time>
      </trkpt>
      <trkpt lat="48.37651" lon="-4.33287">
        <ele>44.3580322</ele>
        <time>2013-08-06T08:25:21Z</time>
      </trkpt>
      <trkpt lat="48.37637" lon="-4.3325">
        <ele>43.3966064</ele>
        <time>2013-08-06T08:25:26Z</time>
      </trkpt>
      <trkpt lat="48.37631" lon="-4.33221">
        <ele>40.9934082</ele>
        <time>2013-08-06T08:25:32Z</time>
      </trkpt>
      <trkpt lat="48.37627" lon="-4.33214">
        <ele>43.3966064</ele>
        <time>2013-08-06T08:25:34Z</time>
      </trkpt>
      <trkpt lat="48.3761" lon="-4.33189">
        <ele>42.9160156</ele>
        <time>2013-08-06T08:25:41Z</time>
      </trkpt>
      <trkpt lat="48.37592" lon="-4.33162">
        <ele>41.9547119</ele>
        <time>2013-08-06T08:25:47Z</time>
      </trkpt>
      <trkpt lat="48.37582" lon="-4.33148">
        <ele>41.473999</ele>
        <time>2013-08-06T08:25:50Z</time>
      </trkpt>
      <trkpt lat="48.37573" lon="-4.33128">
        <ele>40.9934082</ele>
        <time>2013-08-06T08:25:54Z</time>
      </trkpt>
      <trkpt lat="48.37564" lon="-4.33112">
        <ele>39.5512695</ele>
        <time>2013-08-06T08:25:57Z</time>
      </trkpt>
      <trkpt lat="48.37542" lon="-4.33048">
        <ele>35.2254639</ele>
        <time>2013-08-06T08:26:03Z</time>
      </trkpt>
      <trkpt lat="48.37539" lon="-4.33039">
        <ele>34.2641602</ele>
        <time>2013-08-06T08:26:04Z</time>
      </trkpt>
      <trkpt lat="48.37532" lon="-4.33016">
        <ele>33.3028564</ele>
        <time>2013-08-06T08:26:07Z</time>
      </trkpt>
      <trkpt lat="48.37516" lon="-4.32994">
        <ele>30.8995361</ele>
        <time>2013-08-06T08:26:12Z</time>
      </trkpt>
      <trkpt lat="48.37508" lon="-4.33002">
        <ele>32.8222656</ele>
        <time>2013-08-06T08:26:15Z</time>
      </trkpt>
      <trkpt lat="48.37487" lon="-4.33028">
        <ele>36.6674805</ele>
        <time>2013-08-06T08:26:22Z</time>
      </trkpt>
      <trkpt lat="48.37474" lon="-4.33042">
        <ele>41.9547119</ele>
        <time>2013-08-06T08:26:27Z</time>
      </trkpt>
      <trkpt lat="48.37463" lon="-4.3306">
        <ele>47.2418213</ele>
        <time>2013-08-06T08:26:32Z</time>
      </trkpt>
      <trkpt lat="48.37454" lon="-4.33071">
        <ele>48.2033691</ele>
        <time>2013-08-06T08:26:37Z</time>
      </trkpt>
      <trkpt lat="48.37446" lon="-4.33077">
        <ele>47.2418213</ele>
        <time>2013-08-06T08:26:42Z</time>
      </trkpt>
      <trkpt lat="48.37437" lon="-4.33083">
        <ele>42.9160156</ele>
        <time>2013-08-06T08:26:48Z</time>
      </trkpt>
      <trkpt lat="48.37434" lon="-4.33089">
        <ele>40.5128174</ele>
        <time>2013-08-06T08:26:52Z</time>
      </trkpt>
      <trkpt lat="48.37431" lon="-4.33094">
        <ele>40.0321045</ele>
        <time>2013-08-06T08:26:55Z</time>
      </trkpt>
      <trkpt lat="48.37425" lon="-4.33098">
        <ele>37.6286621</ele>
        <time>2013-08-06T08:26:59Z</time>
      </trkpt>
      <trkpt lat="48.37415" lon="-4.33106">
        <ele>30.8995361</ele>
        <time>2013-08-06T08:27:05Z</time>
      </trkpt>
      <trkpt lat="48.37402" lon="-4.33134">
        <ele>33.3028564</ele>
        <time>2013-08-06T08:27:13Z</time>
      </trkpt>
      <trkpt lat="48.37389" lon="-4.33165">
        <ele>45.3192139</ele>
        <time>2013-08-06T08:27:20Z</time>
      </trkpt>
      <trkpt lat="48.3738" lon="-4.33187">
        <ele>45.3192139</ele>
        <time>2013-08-06T08:27:27Z</time>
      </trkpt>
      <trkpt lat="48.37368" lon="-4.33217">
        <ele>44.3580322</ele>
        <time>2013-08-06T08:27:35Z</time>
      </trkpt>
      <trkpt lat="48.37361" lon="-4.33237">
        <ele>43.8773193</ele>
        <time>2013-08-06T08:27:41Z</time>
      </trkpt>
      <trkpt lat="48.37351" lon="-4.33266">
        <ele>42.9160156</ele>
        <time>2013-08-06T08:27:49Z</time>
      </trkpt>
      <trkpt lat="48.37343" lon="-4.33289">
        <ele>45.7999268</ele>
        <time>2013-08-06T08:27:55Z</time>
      </trkpt>
      <trkpt lat="48.37333" lon="-4.33316">
        <ele>46.7612305</ele>
        <time>2013-08-06T08:28:03Z</time>
      </trkpt>
      <trkpt lat="48.37327" lon="-4.33333">
        <ele>47.2418213</ele>
        <time>2013-08-06T08:28:08Z</time>
      </trkpt>
      <trkpt lat="48.37317" lon="-4.33357">
        <ele>52.048584</ele>
        <time>2013-08-06T08:28:14Z</time>
      </trkpt>
      <trkpt lat="48.37311" lon="-4.33375">
        <ele>51.0871582</ele>
        <time>2013-08-06T08:28:19Z</time>
      </trkpt>
      <trkpt lat="48.37304" lon="-4.33399">
        <ele>52.5291748</ele>
        <time>2013-08-06T08:28:25Z</time>
      </trkpt>
      <trkpt lat="48.37295" lon="-4.33422">
        <ele>52.5291748</ele>
        <time>2013-08-06T08:28:32Z</time>
      </trkpt>
      <trkpt lat="48.37287" lon="-4.33437">
        <ele>48.2033691</ele>
        <time>2013-08-06T08:28:38Z</time>
      </trkpt>
      <trkpt lat="48.37279" lon="-4.33457">
        <ele>49.1645508</ele>
        <time>2013-08-06T08:28:43Z</time>
      </trkpt>
      <trkpt lat="48.37266" lon="-4.33489">
        <ele>56.3745117</ele>
        <time>2013-08-06T08:28:50Z</time>
      </trkpt>
      <trkpt lat="48.3726" lon="-4.33499">
        <ele>55.4130859</ele>
        <time>2013-08-06T08:28:54Z</time>
      </trkpt>
      <trkpt lat="48.37253" lon="-4.33515">
        <ele>55.4130859</ele>
        <time>2013-08-06T08:28:59Z</time>
      </trkpt>
      <trkpt lat="48.37244" lon="-4.33531">
        <ele>54.932373</ele>
        <time>2013-08-06T08:29:03Z</time>
      </trkpt>
      <trkpt lat="48.37232" lon="-4.33555">
        <ele>54.932373</ele>
        <time>2013-08-06T08:29:09Z</time>
      </trkpt>
      <trkpt lat="48.37221" lon="-4.33579">
        <ele>56.8551025</ele>
        <time>2013-08-06T08:29:15Z</time>
      </trkpt>
      <trkpt lat="48.37212" lon="-4.33596">
        <ele>61.1810303</ele>
        <time>2013-08-06T08:29:20Z</time>
      </trkpt>
      <trkpt lat="48.37202" lon="-4.33613">
        <ele>60.7003174</ele>
        <time>2013-08-06T08:29:25Z</time>
      </trkpt>
      <trkpt lat="48.37193" lon="-4.33625">
        <ele>64.0650635</ele>
        <time>2013-08-06T08:29:29Z</time>
      </trkpt>
      <trkpt lat="48.37181" lon="-4.33648">
        <ele>67.4296875</ele>
        <time>2013-08-06T08:29:35Z</time>
      </trkpt>
      <trkpt lat="48.37167" lon="-4.33667">
        <ele>70.7941895</ele>
        <time>2013-08-06T08:29:41Z</time>
      </trkpt>
      <trkpt lat="48.37151" lon="-4.33689">
        <ele>73.6782227</ele>
        <time>2013-08-06T08:29:48Z</time>
      </trkpt>
      <trkpt lat="48.37131" lon="-4.33706">
        <ele>71.7554932</ele>
        <time>2013-08-06T08:29:56Z</time>
      </trkpt>
      <trkpt lat="48.37112" lon="-4.33721">
        <ele>71.7554932</ele>
        <time>2013-08-06T08:30:05Z</time>
      </trkpt>
      <trkpt lat="48.37094" lon="-4.33732">
        <ele>69.3522949</ele>
        <time>2013-08-06T08:30:13Z</time>
      </trkpt>
      <trkpt lat="48.37079" lon="-4.33737">
        <ele>69.3522949</ele>
        <time>2013-08-06T08:30:19Z</time>
      </trkpt>
      <trkpt lat="48.37064" lon="-4.33721">
        <ele>67.4296875</ele>
        <time>2013-08-06T08:30:23Z</time>
      </trkpt>
      <trkpt lat="48.37052" lon="-4.33702">
        <ele>65.9876709</ele>
        <time>2013-08-06T08:30:27Z</time>
      </trkpt>
      <trkpt lat="48.37049" lon="-4.33698">
        <ele>65.0263672</ele>
        <time>2013-08-06T08:30:28Z</time>
      </trkpt>
      <trkpt lat="48.37037" lon="-4.33692">
        <ele>63.5843506</ele>
        <time>2013-08-06T08:30:32Z</time>
      </trkpt>
      <trkpt lat="48.37023" lon="-4.33698">
        <ele>62.6229248</ele>
        <time>2013-08-06T08:30:35Z</time>
      </trkpt>
      <trkpt lat="48.37013" lon="-4.337">
        <ele>61.6617432</ele>
        <time>2013-08-06T08:30:37Z</time>
      </trkpt>
      <trkpt lat="48.36986" lon="-4.33716">
        <ele>59.7391357</ele>
        <time>2013-08-06T08:30:42Z</time>
      </trkpt>
      <trkpt lat="48.36966" lon="-4.33736">
        <ele>57.3358154</ele>
        <time>2013-08-06T08:30:45Z</time>
      </trkpt>
      <trkpt lat="48.36946" lon="-4.33761">
        <ele>55.8937988</ele>
        <time>2013-08-06T08:30:48Z</time>
      </trkpt>
      <trkpt lat="48.36926" lon="-4.3378">
        <ele>56.8551025</ele>
        <time>2013-08-06T08:30:51Z</time>
      </trkpt>
      <trkpt lat="48.36887" lon="-4.33813">
        <ele>54.932373</ele>
        <time>2013-08-06T08:30:57Z</time>
      </trkpt>
      <trkpt lat="48.36862" lon="-4.33832">
        <ele>56.3745117</ele>
        <time>2013-08-06T08:31:01Z</time>
      </trkpt>
      <trkpt lat="48.36851" lon="-4.33841">
        <ele>57.8165283</ele>
        <time>2013-08-06T08:31:03Z</time>
      </trkpt>
      <trkpt lat="48.36835" lon="-4.3386">
        <ele>56.3745117</ele>
        <time>2013-08-06T08:31:07Z</time>
      </trkpt>
      <trkpt lat="48.36809" lon="-4.33905">
        <ele>58.77771</ele>
        <time>2013-08-06T08:31:15Z</time>
      </trkpt>
      <trkpt lat="48.36799" lon="-4.33921">
        <ele>58.77771</ele>
        <time>2013-08-06T08:31:19Z</time>
      </trkpt>
      <trkpt lat="48.36787" lon="-4.33946">
        <ele>54.4517822</ele>
        <time>2013-08-06T08:31:24Z</time>
      </trkpt>
      <trkpt lat="48.36777" lon="-4.33975">
        <ele>46.7612305</ele>
        <time>2013-08-06T08:31:30Z</time>
      </trkpt>
      <trkpt lat="48.36769" lon="-4.34003">
        <ele>40.9934082</ele>
        <time>2013-08-06T08:31:36Z</time>
      </trkpt>
      <trkpt lat="48.36755" lon="-4.3403">
        <ele>40.0321045</ele>
        <time>2013-08-06T08:31:42Z</time>
      </trkpt>
      <trkpt lat="48.36748" lon="-4.34042">
        <ele>42.4354248</ele>
        <time>2013-08-06T08:31:44Z</time>
      </trkpt>
      <trkpt lat="48.36721" lon="-4.34069">
        <ele>47.2418213</ele>
        <time>2013-08-06T08:31:49Z</time>
      </trkpt>
      <trkpt lat="48.36689" lon="-4.34078">
        <ele>51.0871582</ele>
        <time>2013-08-06T08:31:54Z</time>
      </trkpt>
      <trkpt lat="48.36666" lon="-4.34078">
        <ele>54.4517822</ele>
        <time>2013-08-06T08:31:58Z</time>
      </trkpt>
      <trkpt lat="48.36642" lon="-4.34089">
        <ele>56.3745117</ele>
        <time>2013-08-06T08:32:03Z</time>
      </trkpt>
      <trkpt lat="48.36626" lon="-4.34106">
        <ele>58.77771</ele>
        <time>2013-08-06T08:32:08Z</time>
      </trkpt>
      <trkpt lat="48.36616" lon="-4.341">
        <ele>60.7003174</ele>
        <time>2013-08-06T08:32:13Z</time>
      </trkpt>
      <trkpt lat="48.36615" lon="-4.34095">
        <ele>60.7003174</ele>
        <time>2013-08-06T08:32:14Z</time>
      </trkpt>
      <trkpt lat="48.366" lon="-4.34063">
        <ele>60.2197266</ele>
        <time>2013-08-06T08:32:21Z</time>
      </trkpt>
      <trkpt lat="48.36582" lon="-4.34023">
        <ele>58.2971191</ele>
        <time>2013-08-06T08:32:29Z</time>
      </trkpt>
      <trkpt lat="48.3656" lon="-4.3397">
        <ele>57.8165283</ele>
        <time>2013-08-06T08:32:39Z</time>
      </trkpt>
      <trkpt lat="48.3655" lon="-4.33922">
        <ele>56.8551025</ele>
        <time>2013-08-06T08:32:47Z</time>
      </trkpt>
      <trkpt lat="48.36545" lon="-4.33886">
        <ele>55.8937988</ele>
        <time>2013-08-06T08:32:54Z</time>
      </trkpt>
      <trkpt lat="48.36543" lon="-4.33871">
        <ele>55.4130859</ele>
        <time>2013-08-06T08:32:59Z</time>
      </trkpt>
      <trkpt lat="48.36538" lon="-4.33851">
        <ele>53.4904785</ele>
        <time>2013-08-06T08:33:04Z</time>
      </trkpt>
      <trkpt lat="48.36533" lon="-4.33841">
        <ele>53.9711914</ele>
        <time>2013-08-06T08:33:09Z</time>
      </trkpt>
      <trkpt lat="48.36531" lon="-4.33837">
        <ele>53.0097656</ele>
        <time>2013-08-06T08:33:11Z</time>
      </trkpt>
      <trkpt lat="48.36535" lon="-4.33827">
        <ele>52.048584</ele>
        <time>2013-08-06T08:33:17Z</time>
      </trkpt>
      <trkpt lat="48.36537" lon="-4.33814">
        <ele>51.5678711</ele>
        <time>2013-08-06T08:33:23Z</time>
      </trkpt>
      <trkpt lat="48.36535" lon="-4.33788">
        <ele>49.1645508</ele>
        <time>2013-08-06T08:33:28Z</time>
      </trkpt>
      <trkpt lat="48.36536" lon="-4.33759">
        <ele>49.1645508</ele>
        <time>2013-08-06T08:33:34Z</time>
      </trkpt>
      <trkpt lat="48.36539" lon="-4.3376">
        <ele>49.1645508</ele>
        <time>2013-08-06T08:33:38Z</time>
      </trkpt>
      <trkpt lat="48.36537" lon="-4.33778">
        <ele>46.7612305</ele>
        <time>2013-08-06T08:33:42Z</time>
      </trkpt>
      <trkpt lat="48.36537" lon="-4.33789">
        <ele>45.3192139</ele>
        <time>2013-08-06T08:33:44Z</time>
      </trkpt>
      <trkpt lat="48.36539" lon="-4.33805">
        <ele>43.3966064</ele>
        <time>2013-08-06T08:33:47Z</time>
      </trkpt>
      <trkpt lat="48.36538" lon="-4.33818">
        <ele>42.9160156</ele>
        <time>2013-08-06T08:33:50Z</time>
      </trkpt>
      <trkpt lat="48.36537" lon="-4.33822">
        <ele>41.473999</ele>
        <time>2013-08-06T08:33:51Z</time>
      </trkpt>
      <trkpt lat="48.36536" lon="-4.33825">
        <ele>41.473999</ele>
        <time>2013-08-06T08:33:52Z</time>
      </trkpt>
      <trkpt lat="48.36525" lon="-4.33844">
        <ele>44.3580322</ele>
        <time>2013-08-06T08:33:59Z</time>
      </trkpt>
      <trkpt lat="48.36508" lon="-4.33866">
        <ele>44.838623</ele>
        <time>2013-08-06T08:34:05Z</time>
      </trkpt>
      <trkpt lat="48.36487" lon="-4.3389">
        <ele>44.838623</ele>
        <time>2013-08-06T08:34:10Z</time>
      </trkpt>
      <trkpt lat="48.36477" lon="-4.33898">
        <ele>43.8773193</ele>
        <time>2013-08-06T08:34:12Z</time>
      </trkpt>
      <trkpt lat="48.36463" lon="-4.33915">
        <ele>43.3966064</ele>
        <time>2013-08-06T08:34:16Z</time>
      </trkpt>
      <trkpt lat="48.36457" lon="-4.33927">
        <ele>41.9547119</ele>
        <time>2013-08-06T08:34:19Z</time>
      </trkpt>
      <trkpt lat="48.36452" lon="-4.33936">
        <ele>44.838623</ele>
        <time>2013-08-06T08:34:25Z</time>
      </trkpt>
      <trkpt lat="48.36452" lon="-4.33927">
        <ele>45.7999268</ele>
        <time>2013-08-06T08:34:28Z</time>
      </trkpt>
      <trkpt lat="48.36456" lon="-4.33921">
        <ele>47.2418213</ele>
        <time>2013-08-06T08:34:30Z</time>
      </trkpt>
      <trkpt lat="48.36478" lon="-4.33898">
        <ele>49.1645508</ele>
        <time>2013-08-06T08:34:37Z</time>
      </trkpt>
      <trkpt lat="48.36491" lon="-4.33886">
        <ele>50.6065674</ele>
        <time>2013-08-06T08:34:41Z</time>
      </trkpt>
      <trkpt lat="48.36502" lon="-4.33874">
        <ele>53.4904785</ele>
        <time>2013-08-06T08:34:45Z</time>
      </trkpt>
      <trkpt lat="48.36513" lon="-4.3386">
        <ele>55.4130859</ele>
        <time>2013-08-06T08:34:50Z</time>
      </trkpt>
      <trkpt lat="48.3652" lon="-4.33852">
        <ele>56.3745117</ele>
        <time>2013-08-06T08:34:53Z</time>
      </trkpt>
      <trkpt lat="48.36533" lon="-4.33841">
        <ele>56.8551025</ele>
        <time>2013-08-06T08:34:58Z</time>
      </trkpt>
      <trkpt lat="48.36544" lon="-4.33851">
        <ele>56.3745117</ele>
        <time>2013-08-06T08:35:03Z</time>
      </trkpt>
      <trkpt lat="48.36546" lon="-4.33858">
        <ele>54.932373</ele>
        <time>2013-08-06T08:35:05Z</time>
      </trkpt>
      <trkpt lat="48.3655" lon="-4.3388">
        <ele>49.6452637</ele>
        <time>2013-08-06T08:35:12Z</time>
      </trkpt>
      <trkpt lat="48.36555" lon="-4.3391">
        <ele>48.68396</ele>
        <time>2013-08-06T08:35:17Z</time>
      </trkpt>
      <trkpt lat="48.36569" lon="-4.33971">
        <ele>50.1259766</ele>
        <time>2013-08-06T08:35:26Z</time>
      </trkpt>
      <trkpt lat="48.36583" lon="-4.34007">
        <ele>49.6452637</ele>
        <time>2013-08-06T08:35:33Z</time>
      </trkpt>
      <trkpt lat="48.36604" lon="-4.34052">
        <ele>49.1645508</ele>
        <time>2013-08-06T08:35:42Z</time>
      </trkpt>
      <trkpt lat="48.36616" lon="-4.3408">
        <ele>49.1645508</ele>
        <time>2013-08-06T08:35:48Z</time>
      </trkpt>
      <trkpt lat="48.36623" lon="-4.34108">
        <ele>49.1645508</ele>
        <time>2013-08-06T08:35:54Z</time>
      </trkpt>
      <trkpt lat="48.36619" lon="-4.34133">
        <ele>47.2418213</ele>
        <time>2013-08-06T08:36:01Z</time>
      </trkpt>
      <trkpt lat="48.36617" lon="-4.34151">
        <ele>46.7612305</ele>
        <time>2013-08-06T08:36:08Z</time>
      </trkpt>
      <trkpt lat="48.36616" lon="-4.3417">
        <ele>45.3192139</ele>
        <time>2013-08-06T08:36:13Z</time>
      </trkpt>
      <trkpt lat="48.36612" lon="-4.34214">
        <ele>45.7999268</ele>
        <time>2013-08-06T08:36:22Z</time>
      </trkpt>
      <trkpt lat="48.36612" lon="-4.34227">
        <ele>45.7999268</ele>
        <time>2013-08-06T08:36:26Z</time>
      </trkpt>
      <trkpt lat="48.36608" lon="-4.34232">
        <ele>50.1259766</ele>
        <time>2013-08-06T08:36:31Z</time>
      </trkpt>
      <trkpt lat="48.36609" lon="-4.34226">
        <ele>51.0871582</ele>
        <time>2013-08-06T08:36:34Z</time>
      </trkpt>
      <trkpt lat="48.36611" lon="-4.34191">
        <ele>52.5291748</ele>
        <time>2013-08-06T08:36:40Z</time>
      </trkpt>
      <trkpt lat="48.36616" lon="-4.34116">
        <ele>53.4904785</ele>
        <time>2013-08-06T08:36:50Z</time>
      </trkpt>
      <trkpt lat="48.36607" lon="-4.34076">
        <ele>53.9711914</ele>
        <time>2013-08-06T08:36:55Z</time>
      </trkpt>
      <trkpt lat="48.36588" lon="-4.34036">
        <ele>54.932373</ele>
        <time>2013-08-06T08:37:02Z</time>
      </trkpt>
      <trkpt lat="48.36563" lon="-4.33978">
        <ele>54.932373</ele>
        <time>2013-08-06T08:37:11Z</time>
      </trkpt>
      <trkpt lat="48.36549" lon="-4.33934">
        <ele>54.4517822</ele>
        <time>2013-08-06T08:37:18Z</time>
      </trkpt>
      <trkpt lat="48.36546" lon="-4.33901">
        <ele>54.4517822</ele>
        <time>2013-08-06T08:37:23Z</time>
      </trkpt>
      <trkpt lat="48.36542" lon="-4.33872">
        <ele>53.9711914</ele>
        <time>2013-08-06T08:37:28Z</time>
      </trkpt>
      <trkpt lat="48.3654" lon="-4.33854">
        <ele>52.5291748</ele>
        <time>2013-08-06T08:37:31Z</time>
      </trkpt>
      <trkpt lat="48.36536" lon="-4.33842">
        <ele>52.5291748</ele>
        <time>2013-08-06T08:37:33Z</time>
      </trkpt>
      <trkpt lat="48.36532" lon="-4.33814">
        <ele>52.048584</ele>
        <time>2013-08-06T08:37:37Z</time>
      </trkpt>
      <trkpt lat="48.36533" lon="-4.33763">
        <ele>49.1645508</ele>
        <time>2013-08-06T08:37:43Z</time>
      </trkpt>
      <trkpt lat="48.36535" lon="-4.33734">
        <ele>48.2033691</ele>
        <time>2013-08-06T08:37:46Z</time>
      </trkpt>
      <trkpt lat="48.36545" lon="-4.3369">
        <ele>48.2033691</ele>
        <time>2013-08-06T08:37:51Z</time>
      </trkpt>
      <trkpt lat="48.3655" lon="-4.33652">
        <ele>47.2418213</ele>
        <time>2013-08-06T08:37:56Z</time>
      </trkpt>
      <trkpt lat="48.36545" lon="-4.33625">
        <ele>45.3192139</ele>
        <time>2013-08-06T08:38:00Z</time>
      </trkpt>
      <trkpt lat="48.3653" lon="-4.33597">
        <ele>42.4354248</ele>
        <time>2013-08-06T08:38:04Z</time>
      </trkpt>
      <trkpt lat="48.36518" lon="-4.33578">
        <ele>39.5512695</ele>
        <time>2013-08-06T08:38:08Z</time>
      </trkpt>
      <trkpt lat="48.3651" lon="-4.33563">
        <ele>39.0706787</ele>
        <time>2013-08-06T08:38:12Z</time>
      </trkpt>
      <trkpt lat="48.36503" lon="-4.33542">
        <ele>37.1480713</ele>
        <time>2013-08-06T08:38:15Z</time>
      </trkpt>
      <trkpt lat="48.36498" lon="-4.335">
        <ele>36.6674805</ele>
        <time>2013-08-06T08:38:21Z</time>
      </trkpt>
      <trkpt lat="48.36497" lon="-4.33465">
        <ele>35.2254639</ele>
        <time>2013-08-06T08:38:26Z</time>
      </trkpt>
      <trkpt lat="48.36501" lon="-4.33433">
        <ele>37.6286621</ele>
        <time>2013-08-06T08:38:31Z</time>
      </trkpt>
      <trkpt lat="48.36506" lon="-4.33412">
        <ele>38.109375</ele>
        <time>2013-08-06T08:38:34Z</time>
      </trkpt>
      <trkpt lat="48.3652" lon="-4.33377">
        <ele>38.109375</ele>
        <time>2013-08-06T08:38:39Z</time>
      </trkpt>
      <trkpt lat="48.36543" lon="-4.33343">
        <ele>39.5512695</ele>
        <time>2013-08-06T08:38:45Z</time>
      </trkpt>
      <trkpt lat="48.36549" lon="-4.33332">
        <ele>39.0706787</ele>
        <time>2013-08-06T08:38:47Z</time>
      </trkpt>
      <trkpt lat="48.36569" lon="-4.33297">
        <ele>37.6286621</ele>
        <time>2013-08-06T08:38:53Z</time>
      </trkpt>
      <trkpt lat="48.36577" lon="-4.33289">
        <ele>36.6674805</ele>
        <time>2013-08-06T08:38:55Z</time>
      </trkpt>
      <trkpt lat="48.3659" lon="-4.33273">
        <ele>35.7060547</ele>
        <time>2013-08-06T08:38:59Z</time>
      </trkpt>
      <trkpt lat="48.36615" lon="-4.33256">
        <ele>32.3415527</ele>
        <time>2013-08-06T08:39:05Z</time>
      </trkpt>
      <trkpt lat="48.36632" lon="-4.33246">
        <ele>27.5349121</ele>
        <time>2013-08-06T08:39:10Z</time>
      </trkpt>
      <trkpt lat="48.36644" lon="-4.33242">
        <ele>26.0928955</ele>
        <time>2013-08-06T08:39:14Z</time>
      </trkpt>
      <trkpt lat="48.36664" lon="-4.33233">
        <ele>22.2475586</ele>
        <time>2013-08-06T08:39:18Z</time>
      </trkpt>
      <trkpt lat="48.36682" lon="-4.33229">
        <ele>19.3637695</ele>
        <time>2013-08-06T08:39:22Z</time>
      </trkpt>
      <trkpt lat="48.36704" lon="-4.33229">
        <ele>17.9217529</ele>
        <time>2013-08-06T08:39:27Z</time>
      </trkpt>
      <trkpt lat="48.36712" lon="-4.33228">
        <ele>18.4023438</ele>
        <time>2013-08-06T08:39:29Z</time>
      </trkpt>
      <trkpt lat="48.36722" lon="-4.33227">
        <ele>20.3249512</ele>
        <time>2013-08-06T08:39:33Z</time>
      </trkpt>
      <trkpt lat="48.36723" lon="-4.33226">
        <ele>20.3249512</ele>
        <time>2013-08-06T08:39:36Z</time>
      </trkpt>
      <trkpt lat="48.36724" lon="-4.33212">
        <ele>10.711792</ele>
        <time>2013-08-06T08:40:08Z</time>
      </trkpt>
      <trkpt lat="48.36725" lon="-4.3321">
        <ele>11.1925049</ele>
        <time>2013-08-06T08:40:09Z</time>
      </trkpt>
      <trkpt lat="48.36727" lon="-4.33204">
        <ele>12.6343994</ele>
        <time>2013-08-06T08:40:13Z</time>
      </trkpt>
      <trkpt lat="48.36725" lon="-4.33184">
        <ele>15.5184326</ele>
        <time>2013-08-06T08:40:42Z</time>
      </trkpt>
      <trkpt lat="48.36723" lon="-4.33177">
        <ele>17.4411621</ele>
        <time>2013-08-06T08:40:44Z</time>
      </trkpt>
      <trkpt lat="48.36728" lon="-4.33168">
        <ele>18.8830566</ele>
        <time>2013-08-06T08:40:50Z</time>
      </trkpt>
      <trkpt lat="48.36728" lon="-4.33165">
        <ele>19.3637695</ele>
        <time>2013-08-06T08:40:51Z</time>
      </trkpt>
      <trkpt lat="48.36729" lon="-4.33155">
        <ele>19.8443604</ele>
        <time>2013-08-06T08:40:55Z</time>
      </trkpt>
      <trkpt lat="48.36729" lon="-4.33135">
        <ele>20.3249512</ele>
        <time>2013-08-06T08:41:02Z</time>
      </trkpt>
      <trkpt lat="48.36727" lon="-4.33127">
        <ele>20.3249512</ele>
        <time>2013-08-06T08:41:08Z</time>
      </trkpt>
      <trkpt lat="48.36727" lon="-4.33124">
        <ele>22.7282715</ele>
        <time>2013-08-06T08:41:10Z</time>
      </trkpt>
      <trkpt lat="48.36725" lon="-4.33112">
        <ele>25.6123047</ele>
        <time>2013-08-06T08:41:16Z</time>
      </trkpt>
      <trkpt lat="48.36724" lon="-4.3311">
        <ele>26.5736084</ele>
        <time>2013-08-06T08:41:17Z</time>
      </trkpt>
      <trkpt lat="48.36722" lon="-4.33097">
        <ele>28.4962158</ele>
        <time>2013-08-06T08:41:24Z</time>
      </trkpt>
      <trkpt lat="48.36722" lon="-4.3309">
        <ele>29.9381104</ele>
        <time>2013-08-06T08:41:27Z</time>
      </trkpt>
      <trkpt lat="48.36721" lon="-4.33084">
        <ele>29.9381104</ele>
        <time>2013-08-06T08:41:29Z</time>
      </trkpt>
      <trkpt lat="48.36717" lon="-4.33066">
        <ele>29.4575195</ele>
        <time>2013-08-06T08:41:35Z</time>
      </trkpt>
      <trkpt lat="48.36715" lon="-4.33055">
        <ele>29.4575195</ele>
        <time>2013-08-06T08:41:39Z</time>
      </trkpt>
      <trkpt lat="48.36712" lon="-4.33031">
        <ele>25.1317139</ele>
        <time>2013-08-06T08:41:47Z</time>
      </trkpt>
      <trkpt lat="48.36712" lon="-4.33014">
        <ele>26.5736084</ele>
        <time>2013-08-06T08:41:53Z</time>
      </trkpt>
      <trkpt lat="48.36712" lon="-4.33">
        <ele>27.0543213</ele>
        <time>2013-08-06T08:41:58Z</time>
      </trkpt>
      <trkpt lat="48.36713" lon="-4.32984">
        <ele>26.5736084</ele>
        <time>2013-08-06T08:42:03Z</time>
      </trkpt>
      <trkpt lat="48.36715" lon="-4.32978">
        <ele>27.5349121</ele>
        <time>2013-08-06T08:42:06Z</time>
      </trkpt>
      <trkpt lat="48.36716" lon="-4.32975">
        <ele>30.4188232</ele>
        <time>2013-08-06T08:42:08Z</time>
      </trkpt>
      <trkpt lat="48.36723" lon="-4.32976">
        <ele>31.8607178</ele>
        <time>2013-08-06T08:42:14Z</time>
      </trkpt>
      <trkpt lat="48.36725" lon="-4.32977">
        <ele>33.3028564</ele>
        <time>2013-08-06T08:42:15Z</time>
      </trkpt>
      <trkpt lat="48.36741" lon="-4.32984">
        <ele>39.0706787</ele>
        <time>2013-08-06T08:42:25Z</time>
      </trkpt>
      <trkpt lat="48.36749" lon="-4.32987">
        <ele>40.9934082</ele>
        <time>2013-08-06T08:42:30Z</time>
      </trkpt>
      <trkpt lat="48.36753" lon="-4.32987">
        <ele>40.5128174</ele>
        <time>2013-08-06T08:42:32Z</time>
      </trkpt>
      <trkpt lat="48.36763" lon="-4.3299">
        <ele>40.9934082</ele>
        <time>2013-08-06T08:42:39Z</time>
      </trkpt>
      <trkpt lat="48.36769" lon="-4.32992">
        <ele>41.473999</ele>
        <time>2013-08-06T08:42:43Z</time>
      </trkpt>
      <trkpt lat="48.3678" lon="-4.33004">
        <ele>43.3966064</ele>
        <time>2013-08-06T08:42:49Z</time>
      </trkpt>
      <trkpt lat="48.3679" lon="-4.33015">
        <ele>42.4354248</ele>
        <time>2013-08-06T08:42:54Z</time>
      </trkpt>
      <trkpt lat="48.36797" lon="-4.3302">
        <ele>41.9547119</ele>
        <time>2013-08-06T08:42:57Z</time>
      </trkpt>
      <trkpt lat="48.36802" lon="-4.33024">
        <ele>40.9934082</ele>
        <time>2013-08-06T08:43:02Z</time>
      </trkpt>
      <trkpt lat="48.36803" lon="-4.33024">
        <ele>39.5512695</ele>
        <time>2013-08-06T08:43:04Z</time>
      </trkpt>
      <trkpt lat="48.36808" lon="-4.33017">
        <ele>38.5900879</ele>
        <time>2013-08-06T08:43:44Z</time>
      </trkpt>
      <trkpt lat="48.36808" lon="-4.33015">
        <ele>38.5900879</ele>
        <time>2013-08-06T08:43:45Z</time>
      </trkpt>
      <trkpt lat="48.36809" lon="-4.33005">
        <ele>41.473999</ele>
        <time>2013-08-06T08:43:48Z</time>
      </trkpt>
      <trkpt lat="48.36815" lon="-4.32987">
        <ele>46.2806396</ele>
        <time>2013-08-06T08:43:56Z</time>
      </trkpt>
      <trkpt lat="48.36818" lon="-4.32978">
        <ele>50.6065674</ele>
        <time>2013-08-06T08:44:00Z</time>
      </trkpt>
      <trkpt lat="48.36822" lon="-4.32962">
        <ele>51.0871582</ele>
        <time>2013-08-06T08:44:07Z</time>
      </trkpt>
      <trkpt lat="48.36827" lon="-4.32947">
        <ele>54.4517822</ele>
        <time>2013-08-06T08:44:14Z</time>
      </trkpt>
      <trkpt lat="48.36833" lon="-4.3293">
        <ele>55.4130859</ele>
        <time>2013-08-06T08:44:21Z</time>
      </trkpt>
      <trkpt lat="48.36842" lon="-4.32908">
        <ele>55.8937988</ele>
        <time>2013-08-06T08:44:30Z</time>
      </trkpt>
      <trkpt lat="48.36849" lon="-4.32888">
        <ele>56.3745117</ele>
        <time>2013-08-06T08:44:37Z</time>
      </trkpt>
      <trkpt lat="48.36859" lon="-4.32862">
        <ele>58.2971191</ele>
        <time>2013-08-06T08:44:45Z</time>
      </trkpt>
      <trkpt lat="48.36874" lon="-4.3283">
        <ele>62.6229248</ele>
        <time>2013-08-06T08:44:55Z</time>
      </trkpt>
      <trkpt lat="48.36883" lon="-4.3281">
        <ele>64.0650635</ele>
        <time>2013-08-06T08:45:03Z</time>
      </trkpt>
      <trkpt lat="48.36887" lon="-4.32795">
        <ele>63.5843506</ele>
        <time>2013-08-06T08:45:08Z</time>
      </trkpt>
      <trkpt lat="48.36897" lon="-4.32783">
        <ele>63.5843506</ele>
        <time>2013-08-06T08:45:14Z</time>
      </trkpt>
      <trkpt lat="48.369" lon="-4.32782">
        <ele>63.1036377</ele>
        <time>2013-08-06T08:45:16Z</time>
      </trkpt>
      <trkpt lat="48.36906" lon="-4.32782">
        <ele>60.7003174</ele>
        <time>2013-08-06T08:45:21Z</time>
      </trkpt>
      <trkpt lat="48.36917" lon="-4.32776">
        <ele>61.1810303</ele>
        <time>2013-08-06T08:45:28Z</time>
      </trkpt>
      <trkpt lat="48.36929" lon="-4.32771">
        <ele>62.142334</ele>
        <time>2013-08-06T08:45:34Z</time>
      </trkpt>
      <trkpt lat="48.3693" lon="-4.32769">
        <ele>62.142334</ele>
        <time>2013-08-06T08:45:35Z</time>
      </trkpt>
      <trkpt lat="48.36939" lon="-4.3276">
        <ele>65.9876709</ele>
        <time>2013-08-06T08:45:41Z</time>
      </trkpt>
      <trkpt lat="48.36948" lon="-4.32752">
        <ele>70.3134766</ele>
        <time>2013-08-06T08:45:48Z</time>
      </trkpt>
      <trkpt lat="48.36952" lon="-4.32749">
        <ele>71.7554932</ele>
        <time>2013-08-06T08:45:51Z</time>
      </trkpt>
      <trkpt lat="48.36963" lon="-4.32734">
        <ele>65.0263672</ele>
        <time>2013-08-06T08:45:57Z</time>
      </trkpt>
      <trkpt lat="48.36969" lon="-4.32727">
        <ele>65.9876709</ele>
        <time>2013-08-06T08:46:01Z</time>
      </trkpt>
      <trkpt lat="48.3698" lon="-4.32717">
        <ele>72.2362061</ele>
        <time>2013-08-06T08:46:08Z</time>
      </trkpt>
      <trkpt lat="48.36988" lon="-4.32701">
        <ele>70.3134766</ele>
        <time>2013-08-06T08:46:13Z</time>
      </trkpt>
      <trkpt lat="48.36994" lon="-4.32684">
        <ele>70.3134766</ele>
        <time>2013-08-06T08:46:18Z</time>
      </trkpt>
      <trkpt lat="48.36997" lon="-4.32674">
        <ele>70.3134766</ele>
        <time>2013-08-06T08:46:21Z</time>
      </trkpt>
      <trkpt lat="48.36999" lon="-4.32665">
        <ele>67.4296875</ele>
        <time>2013-08-06T08:46:23Z</time>
      </trkpt>
      <trkpt lat="48.37005" lon="-4.32649">
        <ele>69.8328857</ele>
        <time>2013-08-06T08:46:29Z</time>
      </trkpt>
      <trkpt lat="48.37013" lon="-4.32631">
        <ele>68.3908691</ele>
        <time>2013-08-06T08:46:35Z</time>
      </trkpt>
      <trkpt lat="48.37023" lon="-4.3261">
        <ele>69.3522949</ele>
        <time>2013-08-06T08:46:41Z</time>
      </trkpt>
      <trkpt lat="48.37032" lon="-4.32588">
        <ele>70.7941895</ele>
        <time>2013-08-06T08:46:47Z</time>
      </trkpt>
      <trkpt lat="48.3704" lon="-4.3257">
        <ele>73.1976318</ele>
        <time>2013-08-06T08:46:53Z</time>
      </trkpt>
      <trkpt lat="48.37043" lon="-4.32562">
        <ele>75.6008301</ele>
        <time>2013-08-06T08:46:56Z</time>
      </trkpt>
      <trkpt lat="48.37051" lon="-4.32542">
        <ele>78.4847412</ele>
        <time>2013-08-06T08:47:02Z</time>
      </trkpt>
      <trkpt lat="48.37058" lon="-4.32527">
        <ele>79.9266357</ele>
        <time>2013-08-06T08:47:08Z</time>
      </trkpt>
      <trkpt lat="48.37067" lon="-4.3251">
        <ele>78.4847412</ele>
        <time>2013-08-06T08:47:13Z</time>
      </trkpt>
      <trkpt lat="48.37081" lon="-4.32497">
        <ele>78.4847412</ele>
        <time>2013-08-06T08:47:18Z</time>
      </trkpt>
      <trkpt lat="48.37091" lon="-4.32483">
        <ele>77.5234375</ele>
        <time>2013-08-06T08:47:23Z</time>
      </trkpt>
      <trkpt lat="48.37099" lon="-4.32456">
        <ele>78.0040283</ele>
        <time>2013-08-06T08:47:29Z</time>
      </trkpt>
      <trkpt lat="48.37092" lon="-4.32432">
        <ele>74.6395264</ele>
        <time>2013-08-06T08:47:33Z</time>
      </trkpt>
      <trkpt lat="48.37085" lon="-4.32412">
        <ele>73.1976318</ele>
        <time>2013-08-06T08:47:36Z</time>
      </trkpt>
      <trkpt lat="48.3708" lon="-4.32399">
        <ele>73.1976318</ele>
        <time>2013-08-06T08:47:38Z</time>
      </trkpt>
      <trkpt lat="48.3706" lon="-4.32335">
        <ele>67.4296875</ele>
        <time>2013-08-06T08:47:46Z</time>
      </trkpt>
      <trkpt lat="48.37054" lon="-4.32319">
        <ele>66.9489746</ele>
        <time>2013-08-06T08:47:48Z</time>
      </trkpt>
      <trkpt lat="48.37051" lon="-4.32278">
        <ele>65.5070801</ele>
        <time>2013-08-06T08:47:53Z</time>
      </trkpt>
      <trkpt lat="48.37052" lon="-4.3227">
        <ele>65.5070801</ele>
        <time>2013-08-06T08:47:54Z</time>
      </trkpt>
      <trkpt lat="48.37063" lon="-4.32225">
        <ele>67.4296875</ele>
        <time>2013-08-06T08:48:01Z</time>
      </trkpt>
      <trkpt lat="48.37064" lon="-4.32219">
        <ele>67.9102783</ele>
        <time>2013-08-06T08:48:02Z</time>
      </trkpt>
      <trkpt lat="48.37074" lon="-4.32178">
        <ele>69.8328857</ele>
        <time>2013-08-06T08:48:09Z</time>
      </trkpt>
      <trkpt lat="48.37083" lon="-4.32129">
        <ele>70.7941895</ele>
        <time>2013-08-06T08:48:17Z</time>
      </trkpt>
      <trkpt lat="48.37085" lon="-4.32112">
        <ele>71.2749023</ele>
        <time>2013-08-06T08:48:20Z</time>
      </trkpt>
      <trkpt lat="48.37084" lon="-4.32081">
        <ele>72.7169189</ele>
        <time>2013-08-06T08:48:26Z</time>
      </trkpt>
      <trkpt lat="48.37094" lon="-4.32042">
        <ele>77.0428467</ele>
        <time>2013-08-06T08:48:32Z</time>
      </trkpt>
      <trkpt lat="48.37102" lon="-4.3201">
        <ele>78.4847412</ele>
        <time>2013-08-06T08:48:37Z</time>
      </trkpt>
      <trkpt lat="48.37105" lon="-4.31992">
        <ele>79.4460449</ele>
        <time>2013-08-06T08:48:40Z</time>
      </trkpt>
      <trkpt lat="48.37113" lon="-4.31958">
        <ele>80.8881836</ele>
        <time>2013-08-06T08:48:47Z</time>
      </trkpt>
      <trkpt lat="48.37122" lon="-4.31917">
        <ele>80.8881836</ele>
        <time>2013-08-06T08:48:57Z</time>
      </trkpt>
      <trkpt lat="48.3713" lon="-4.31878">
        <ele>80.8881836</ele>
        <time>2013-08-06T08:49:06Z</time>
      </trkpt>
      <trkpt lat="48.37138" lon="-4.31845">
        <ele>82.3300781</ele>
        <time>2013-08-06T08:49:14Z</time>
      </trkpt>
      <trkpt lat="48.37142" lon="-4.31822">
        <ele>82.3300781</ele>
        <time>2013-08-06T08:49:20Z</time>
      </trkpt>
      <trkpt lat="48.37152" lon="-4.31786">
        <ele>81.3687744</ele>
        <time>2013-08-06T08:49:28Z</time>
      </trkpt>
      <trkpt lat="48.37167" lon="-4.3178">
        <ele>81.3687744</ele>
        <time>2013-08-06T08:49:32Z</time>
      </trkpt>
      <trkpt lat="48.37201" lon="-4.31769">
        <ele>81.8493652</ele>
        <time>2013-08-06T08:49:39Z</time>
      </trkpt>
      <trkpt lat="48.37225" lon="-4.31755">
        <ele>82.3300781</ele>
        <time>2013-08-06T08:49:44Z</time>
      </trkpt>
      <trkpt lat="48.37256" lon="-4.31736">
        <ele>83.2913818</ele>
        <time>2013-08-06T08:49:51Z</time>
      </trkpt>
      <trkpt lat="48.37287" lon="-4.31714">
        <ele>84.7333984</ele>
        <time>2013-08-06T08:49:59Z</time>
      </trkpt>
      <trkpt lat="48.37313" lon="-4.31691">
        <ele>85.2139893</ele>
        <time>2013-08-06T08:50:06Z</time>
      </trkpt>
      <trkpt lat="48.37338" lon="-4.31665">
        <ele>85.2139893</ele>
        <time>2013-08-06T08:50:13Z</time>
      </trkpt>
      <trkpt lat="48.37369" lon="-4.31638">
        <ele>83.7719727</ele>
        <time>2013-08-06T08:50:20Z</time>
      </trkpt>
      <trkpt lat="48.37396" lon="-4.31618">
        <ele>82.810791</ele>
        <time>2013-08-06T08:50:26Z</time>
      </trkpt>
      <trkpt lat="48.37424" lon="-4.31595">
        <ele>82.3300781</ele>
        <time>2013-08-06T08:50:33Z</time>
      </trkpt>
      <trkpt lat="48.3746" lon="-4.31566">
        <ele>81.8493652</ele>
        <time>2013-08-06T08:50:41Z</time>
      </trkpt>
      <trkpt lat="48.37483" lon="-4.31549">
        <ele>82.3300781</ele>
        <time>2013-08-06T08:50:47Z</time>
      </trkpt>
      <trkpt lat="48.375" lon="-4.31538">
        <ele>82.3300781</ele>
        <time>2013-08-06T08:50:53Z</time>
      </trkpt>
      <trkpt lat="48.37517" lon="-4.31535">
        <ele>82.810791</ele>
        <time>2013-08-06T08:50:59Z</time>
      </trkpt>
      <trkpt lat="48.37537" lon="-4.31519">
        <ele>82.810791</ele>
        <time>2013-08-06T08:51:06Z</time>
      </trkpt>
      <trkpt lat="48.37563" lon="-4.31499">
        <ele>82.3300781</ele>
        <time>2013-08-06T08:51:13Z</time>
      </trkpt>
      <trkpt lat="48.37591" lon="-4.31471">
        <ele>81.3687744</ele>
        <time>2013-08-06T08:51:20Z</time>
      </trkpt>
      <trkpt lat="48.37612" lon="-4.31442">
        <ele>81.3687744</ele>
        <time>2013-08-06T08:51:26Z</time>
      </trkpt>
      <trkpt lat="48.3763" lon="-4.31404">
        <ele>81.8493652</ele>
        <time>2013-08-06T08:51:33Z</time>
      </trkpt>
      <trkpt lat="48.37643" lon="-4.31373">
        <ele>81.8493652</ele>
        <time>2013-08-06T08:51:39Z</time>
      </trkpt>
      <trkpt lat="48.37675" lon="-4.31312">
        <ele>81.3687744</ele>
        <time>2013-08-06T08:51:52Z</time>
      </trkpt>
      <trkpt lat="48.37696" lon="-4.31269">
        <ele>80.4074707</ele>
        <time>2013-08-06T08:51:59Z</time>
      </trkpt>
      <trkpt lat="48.37723" lon="-4.3122">
        <ele>79.4460449</ele>
        <time>2013-08-06T08:52:06Z</time>
      </trkpt>
      <trkpt lat="48.37762" lon="-4.31156">
        <ele>79.4460449</ele>
        <time>2013-08-06T08:52:15Z</time>
      </trkpt>
      <trkpt lat="48.37768" lon="-4.31146">
        <ele>79.4460449</ele>
        <time>2013-08-06T08:52:17Z</time>
      </trkpt>
      <trkpt lat="48.37775" lon="-4.31136">
        <ele>79.9266357</ele>
        <time>2013-08-06T08:52:21Z</time>
      </trkpt>
      <trkpt lat="48.37775" lon="-4.31134">
        <ele>79.9266357</ele>
        <time>2013-08-06T08:52:24Z</time>
      </trkpt>
      <trkpt lat="48.37779" lon="-4.3113">
        <ele>78.9654541</ele>
        <time>2013-08-06T08:52:34Z</time>
      </trkpt>
      <trkpt lat="48.37781" lon="-4.31129">
        <ele>78.0040283</ele>
        <time>2013-08-06T08:52:35Z</time>
      </trkpt>
      <trkpt lat="48.37795" lon="-4.31118">
        <ele>76.0814209</ele>
        <time>2013-08-06T08:52:40Z</time>
      </trkpt>
      <trkpt lat="48.37811" lon="-4.31107">
        <ele>76.0814209</ele>
        <time>2013-08-06T08:52:45Z</time>
      </trkpt>
      <trkpt lat="48.37825" lon="-4.31098">
        <ele>73.6782227</ele>
        <time>2013-08-06T08:52:49Z</time>
      </trkpt>
      <trkpt lat="48.37833" lon="-4.31094">
        <ele>75.1202393</ele>
        <time>2013-08-06T08:52:51Z</time>
      </trkpt>
      <trkpt lat="48.37842" lon="-4.31091">
        <ele>76.5621338</ele>
        <time>2013-08-06T08:52:53Z</time>
      </trkpt>
      <trkpt lat="48.37864" lon="-4.31084">
        <ele>74.6395264</ele>
        <time>2013-08-06T08:52:59Z</time>
      </trkpt>
      <trkpt lat="48.3788" lon="-4.31081">
        <ele>73.1976318</ele>
        <time>2013-08-06T08:53:04Z</time>
      </trkpt>
      <trkpt lat="48.37894" lon="-4.31076">
        <ele>73.6782227</ele>
        <time>2013-08-06T08:53:09Z</time>
      </trkpt>
      <trkpt lat="48.37911" lon="-4.3107">
        <ele>75.6008301</ele>
        <time>2013-08-06T08:53:15Z</time>
      </trkpt>
      <trkpt lat="48.37925" lon="-4.31063">
        <ele>80.4074707</ele>
        <time>2013-08-06T08:53:20Z</time>
      </trkpt>
      <trkpt lat="48.37932" lon="-4.31061">
        <ele>81.3687744</ele>
        <time>2013-08-06T08:53:23Z</time>
      </trkpt>
      <trkpt lat="48.37941" lon="-4.31075">
        <ele>81.3687744</ele>
        <time>2013-08-06T08:53:28Z</time>
      </trkpt>
      <trkpt lat="48.37962" lon="-4.31106">
        <ele>80.4074707</ele>
        <time>2013-08-06T08:53:36Z</time>
      </trkpt>
      <trkpt lat="48.3798" lon="-4.31131">
        <ele>78.4847412</ele>
        <time>2013-08-06T08:53:42Z</time>
      </trkpt>
      <trkpt lat="48.38008" lon="-4.3116">
        <ele>76.0814209</ele>
        <time>2013-08-06T08:53:49Z</time>
      </trkpt>
      <trkpt lat="48.38027" lon="-4.31172">
        <ele>74.1588135</ele>
        <time>2013-08-06T08:53:53Z</time>
      </trkpt>
      <trkpt lat="48.38045" lon="-4.31184">
        <ele>73.6782227</ele>
        <time>2013-08-06T08:53:57Z</time>
      </trkpt>
      <trkpt lat="48.38078" lon="-4.31206">
        <ele>74.1588135</ele>
        <time>2013-08-06T08:54:05Z</time>
      </trkpt>
      <trkpt lat="48.38092" lon="-4.31229">
        <ele>74.1588135</ele>
        <time>2013-08-06T08:54:10Z</time>
      </trkpt>
      <trkpt lat="48.38093" lon="-4.31256">
        <ele>74.6395264</ele>
        <time>2013-08-06T08:54:14Z</time>
      </trkpt>
      <trkpt lat="48.38092" lon="-4.31263">
        <ele>74.6395264</ele>
        <time>2013-08-06T08:54:15Z</time>
      </trkpt>
      <trkpt lat="48.38088" lon="-4.31303">
        <ele>73.6782227</ele>
        <time>2013-08-06T08:54:20Z</time>
      </trkpt>
      <trkpt lat="48.38088" lon="-4.31327">
        <ele>73.1976318</ele>
        <time>2013-08-06T08:54:24Z</time>
      </trkpt>
      <trkpt lat="48.38093" lon="-4.31346">
        <ele>73.1976318</ele>
        <time>2013-08-06T08:54:27Z</time>
      </trkpt>
      <trkpt lat="48.38097" lon="-4.31359">
        <ele>72.7169189</ele>
        <time>2013-08-06T08:54:29Z</time>
      </trkpt>
      <trkpt lat="48.3811" lon="-4.31393">
        <ele>72.2362061</ele>
        <time>2013-08-06T08:54:35Z</time>
      </trkpt>
      <trkpt lat="48.3812" lon="-4.31413">
        <ele>72.2362061</ele>
        <time>2013-08-06T08:54:39Z</time>
      </trkpt>
      <trkpt lat="48.38125" lon="-4.31422">
        <ele>71.7554932</ele>
        <time>2013-08-06T08:54:41Z</time>
      </trkpt>
      <trkpt lat="48.38142" lon="-4.31442">
        <ele>66.4682617</ele>
        <time>2013-08-06T08:54:47Z</time>
      </trkpt>
      <trkpt lat="48.38162" lon="-4.31451">
        <ele>63.5843506</ele>
        <time>2013-08-06T08:54:53Z</time>
      </trkpt>
      <trkpt lat="48.38184" lon="-4.31461">
        <ele>61.1810303</ele>
        <time>2013-08-06T08:54:58Z</time>
      </trkpt>
      <trkpt lat="48.38199" lon="-4.31466">
        <ele>59.2584229</ele>
        <time>2013-08-06T08:55:01Z</time>
      </trkpt>
      <trkpt lat="48.38232" lon="-4.31487">
        <ele>60.7003174</ele>
        <time>2013-08-06T08:55:07Z</time>
      </trkpt>
      <trkpt lat="48.38264" lon="-4.31519">
        <ele>58.77771</ele>
        <time>2013-08-06T08:55:13Z</time>
      </trkpt>
      <trkpt lat="48.38273" lon="-4.3153">
        <ele>58.77771</ele>
        <time>2013-08-06T08:55:15Z</time>
      </trkpt>
      <trkpt lat="48.38284" lon="-4.3156">
        <ele>58.2971191</ele>
        <time>2013-08-06T08:55:20Z</time>
      </trkpt>
      <trkpt lat="48.38286" lon="-4.31579">
        <ele>59.7391357</ele>
        <time>2013-08-06T08:55:24Z</time>
      </trkpt>
      <trkpt lat="48.38285" lon="-4.3159">
        <ele>59.7391357</ele>
        <time>2013-08-06T08:55:28Z</time>
      </trkpt>
      <trkpt lat="48.38287" lon="-4.31593">
        <ele>59.2584229</ele>
        <time>2013-08-06T08:55:30Z</time>
      </trkpt>
      <trkpt lat="48.38288" lon="-4.31607">
        <ele>61.6617432</ele>
        <time>2013-08-06T08:55:36Z</time>
      </trkpt>
      <trkpt lat="48.38291" lon="-4.3162">
        <ele>60.2197266</ele>
        <time>2013-08-06T08:55:41Z</time>
      </trkpt>
      <trkpt lat="48.38286" lon="-4.31634">
        <ele>57.8165283</ele>
        <time>2013-08-06T08:55:45Z</time>
      </trkpt>
      <trkpt lat="48.38279" lon="-4.31645">
        <ele>57.3358154</ele>
        <time>2013-08-06T08:55:48Z</time>
      </trkpt>
      <trkpt lat="48.38266" lon="-4.31679">
        <ele>55.8937988</ele>
        <time>2013-08-06T08:55:54Z</time>
      </trkpt>
      <trkpt lat="48.38254" lon="-4.3171">
        <ele>55.4130859</ele>
        <time>2013-08-06T08:55:59Z</time>
      </trkpt>
      <trkpt lat="48.38242" lon="-4.31746">
        <ele>59.7391357</ele>
        <time>2013-08-06T08:56:06Z</time>
      </trkpt>
      <trkpt lat="48.38223" lon="-4.31773">
        <ele>60.2197266</ele>
        <time>2013-08-06T08:56:13Z</time>
      </trkpt>
      <trkpt lat="48.38209" lon="-4.31798">
        <ele>61.1810303</ele>
        <time>2013-08-06T08:56:19Z</time>
      </trkpt>
      <trkpt lat="48.38199" lon="-4.31805">
        <ele>63.1036377</ele>
        <time>2013-08-06T08:56:23Z</time>
      </trkpt>
      <trkpt lat="48.38183" lon="-4.3182">
        <ele>64.5456543</ele>
        <time>2013-08-06T08:56:31Z</time>
      </trkpt>
      <trkpt lat="48.38172" lon="-4.31835">
        <ele>64.5456543</ele>
        <time>2013-08-06T08:56:38Z</time>
      </trkpt>
      <trkpt lat="48.38154" lon="-4.31859">
        <ele>65.5070801</ele>
        <time>2013-08-06T08:56:45Z</time>
      </trkpt>
      <trkpt lat="48.38138" lon="-4.31882">
        <ele>67.9102783</ele>
        <time>2013-08-06T08:56:51Z</time>
      </trkpt>
      <trkpt lat="48.38121" lon="-4.31905">
        <ele>69.3522949</ele>
        <time>2013-08-06T08:56:59Z</time>
      </trkpt>
      <trkpt lat="48.38097" lon="-4.31931">
        <ele>68.3908691</ele>
        <time>2013-08-06T08:57:08Z</time>
      </trkpt>
      <trkpt lat="48.38082" lon="-4.3195">
        <ele>67.9102783</ele>
        <time>2013-08-06T08:57:13Z</time>
      </trkpt>
      <trkpt lat="48.38069" lon="-4.31969">
        <ele>68.3908691</ele>
        <time>2013-08-06T08:57:17Z</time>
      </trkpt>
      <trkpt lat="48.38053" lon="-4.32009">
        <ele>66.4682617</ele>
        <time>2013-08-06T08:57:23Z</time>
      </trkpt>
      <trkpt lat="48.38036" lon="-4.32048">
        <ele>65.0263672</ele>
        <time>2013-08-06T08:57:28Z</time>
      </trkpt>
      <trkpt lat="48.38025" lon="-4.32071">
        <ele>64.0650635</ele>
        <time>2013-08-06T08:57:31Z</time>
      </trkpt>
      <trkpt lat="48.38005" lon="-4.32093">
        <ele>60.7003174</ele>
        <time>2013-08-06T08:57:35Z</time>
      </trkpt>
      <trkpt lat="48.37994" lon="-4.32113">
        <ele>58.2971191</ele>
        <time>2013-08-06T08:57:39Z</time>
      </trkpt>
      <trkpt lat="48.37991" lon="-4.32122">
        <ele>57.3358154</ele>
        <time>2013-08-06T08:57:42Z</time>
      </trkpt>
      <trkpt lat="48.37991" lon="-4.32124">
        <ele>57.8165283</ele>
        <time>2013-08-06T08:57:46Z</time>
      </trkpt>
      <trkpt lat="48.37988" lon="-4.3212">
        <ele>35.2254639</ele>
        <time>2013-08-06T09:01:15Z</time>
      </trkpt>
      <trkpt lat="48.37997" lon="-4.32124">
        <ele>36.6674805</ele>
        <time>2013-08-06T09:01:20Z</time>
      </trkpt>
      <trkpt lat="48.38006" lon="-4.32122">
        <ele>39.5512695</ele>
        <time>2013-08-06T09:01:24Z</time>
      </trkpt>
      <trkpt lat="48.38018" lon="-4.32123">
        <ele>43.3966064</ele>
        <time>2013-08-06T09:01:29Z</time>
      </trkpt>
      <trkpt lat="48.38026" lon="-4.32125">
        <ele>44.838623</ele>
        <time>2013-08-06T09:01:32Z</time>
      </trkpt>
      <trkpt lat="48.38028" lon="-4.32126">
        <ele>45.3192139</ele>
        <time>2013-08-06T09:01:33Z</time>
      </trkpt>
      <trkpt lat="48.38041" lon="-4.32128">
        <ele>49.1645508</ele>
        <time>2013-08-06T09:01:38Z</time>
      </trkpt>
      <trkpt lat="48.38061" lon="-4.32132">
        <ele>52.5291748</ele>
        <time>2013-08-06T09:01:45Z</time>
      </trkpt>
      <trkpt lat="48.38079" lon="-4.32137">
        <ele>54.932373</ele>
        <time>2013-08-06T09:01:51Z</time>
      </trkpt>
      <trkpt lat="48.38098" lon="-4.32143">
        <ele>55.8937988</ele>
        <time>2013-08-06T09:01:59Z</time>
      </trkpt>
      <trkpt lat="48.38122" lon="-4.32155">
        <ele>56.3745117</ele>
        <time>2013-08-06T09:02:09Z</time>
      </trkpt>
      <trkpt lat="48.38141" lon="-4.32166">
        <ele>57.3358154</ele>
        <time>2013-08-06T09:02:17Z</time>
      </trkpt>
      <trkpt lat="48.38163" lon="-4.32183">
        <ele>58.2971191</ele>
        <time>2013-08-06T09:02:27Z</time>
      </trkpt>
      <trkpt lat="48.38176" lon="-4.32196">
        <ele>59.7391357</ele>
        <time>2013-08-06T09:02:34Z</time>
      </trkpt>
      <trkpt lat="48.38192" lon="-4.32217">
        <ele>61.6617432</ele>
        <time>2013-08-06T09:02:43Z</time>
      </trkpt>
      <trkpt lat="48.38211" lon="-4.32238">
        <ele>62.6229248</ele>
        <time>2013-08-06T09:02:53Z</time>
      </trkpt>
      <trkpt lat="48.38228" lon="-4.32257">
        <ele>64.0650635</ele>
        <time>2013-08-06T09:03:01Z</time>
      </trkpt>
      <trkpt lat="48.38244" lon="-4.32272">
        <ele>65.5070801</ele>
        <time>2013-08-06T09:03:08Z</time>
      </trkpt>
      <trkpt lat="48.38267" lon="-4.32289">
        <ele>69.3522949</ele>
        <time>2013-08-06T09:03:18Z</time>
      </trkpt>
      <trkpt lat="48.38283" lon="-4.32299">
        <ele>71.2749023</ele>
        <time>2013-08-06T09:03:25Z</time>
      </trkpt>
      <trkpt lat="48.38306" lon="-4.32309">
        <ele>74.6395264</ele>
        <time>2013-08-06T09:03:35Z</time>
      </trkpt>
      <trkpt lat="48.3833" lon="-4.32319">
        <ele>76.5621338</ele>
        <time>2013-08-06T09:03:44Z</time>
      </trkpt>
      <trkpt lat="48.38366" lon="-4.32333">
        <ele>76.5621338</ele>
        <time>2013-08-06T09:03:55Z</time>
      </trkpt>
      <trkpt lat="48.38391" lon="-4.32344">
        <ele>75.6008301</ele>
        <time>2013-08-06T09:04:03Z</time>
      </trkpt>
      <trkpt lat="48.38421" lon="-4.32361">
        <ele>75.1202393</ele>
        <time>2013-08-06T09:04:12Z</time>
      </trkpt>
      <trkpt lat="48.38443" lon="-4.32375">
        <ele>77.0428467</ele>
        <time>2013-08-06T09:04:19Z</time>
      </trkpt>
      <trkpt lat="48.38469" lon="-4.32392">
        <ele>77.5234375</ele>
        <time>2013-08-06T09:04:27Z</time>
      </trkpt>
      <trkpt lat="48.38501" lon="-4.3241">
        <ele>77.5234375</ele>
        <time>2013-08-06T09:04:37Z</time>
      </trkpt>
      <trkpt lat="48.38504" lon="-4.32412">
        <ele>77.5234375</ele>
        <time>2013-08-06T09:04:38Z</time>
      </trkpt>
      <trkpt lat="48.38518" lon="-4.32401">
        <ele>79.4460449</ele>
        <time>2013-08-06T09:04:43Z</time>
      </trkpt>
      <trkpt lat="48.38521" lon="-4.32391">
        <ele>80.8881836</ele>
        <time>2013-08-06T09:04:45Z</time>
      </trkpt>
      <trkpt lat="48.38532" lon="-4.32342">
        <ele>82.810791</ele>
        <time>2013-08-06T09:04:53Z</time>
      </trkpt>
      <trkpt lat="48.3853" lon="-4.32308">
        <ele>83.2913818</ele>
        <time>2013-08-06T09:04:58Z</time>
      </trkpt>
      <trkpt lat="48.38517" lon="-4.32272">
        <ele>81.3687744</ele>
        <time>2013-08-06T09:05:04Z</time>
      </trkpt>
      <trkpt lat="48.38505" lon="-4.32252">
        <ele>80.8881836</ele>
        <time>2013-08-06T09:05:08Z</time>
      </trkpt>
      <trkpt lat="48.38499" lon="-4.32216">
        <ele>81.3687744</ele>
        <time>2013-08-06T09:05:13Z</time>
      </trkpt>
      <trkpt lat="48.38501" lon="-4.32171">
        <ele>84.2526855</ele>
        <time>2013-08-06T09:05:19Z</time>
      </trkpt>
      <trkpt lat="48.38511" lon="-4.32137">
        <ele>85.6945801</ele>
        <time>2013-08-06T09:05:25Z</time>
      </trkpt>
      <trkpt lat="48.38519" lon="-4.32114">
        <ele>86.175293</ele>
        <time>2013-08-06T09:05:29Z</time>
      </trkpt>
      <trkpt lat="48.38531" lon="-4.32078">
        <ele>85.6945801</ele>
        <time>2013-08-06T09:05:35Z</time>
      </trkpt>
      <trkpt lat="48.38535" lon="-4.32067">
        <ele>85.6945801</ele>
        <time>2013-08-06T09:05:37Z</time>
      </trkpt>
      <trkpt lat="48.38545" lon="-4.32058">
        <ele>85.6945801</ele>
        <time>2013-08-06T09:05:41Z</time>
      </trkpt>
      <trkpt lat="48.38559" lon="-4.32064">
        <ele>84.2526855</ele>
        <time>2013-08-06T09:05:45Z</time>
      </trkpt>
      <trkpt lat="48.38575" lon="-4.32071">
        <ele>82.810791</ele>
        <time>2013-08-06T09:05:49Z</time>
      </trkpt>
      <trkpt lat="48.38578" lon="-4.32072">
        <ele>81.8493652</ele>
        <time>2013-08-06T09:05:50Z</time>
      </trkpt>
      <trkpt lat="48.38597" lon="-4.32078">
        <ele>77.5234375</ele>
        <time>2013-08-06T09:05:56Z</time>
      </trkpt>
      <trkpt lat="48.38605" lon="-4.32081">
        <ele>76.5621338</ele>
        <time>2013-08-06T09:05:58Z</time>
      </trkpt>
      <trkpt lat="48.38618" lon="-4.32088">
        <ele>73.6782227</ele>
        <time>2013-08-06T09:06:03Z</time>
      </trkpt>
      <trkpt lat="48.38633" lon="-4.32096">
        <ele>74.6395264</ele>
        <time>2013-08-06T09:06:08Z</time>
      </trkpt>
      <trkpt lat="48.38639" lon="-4.321">
        <ele>74.6395264</ele>
        <time>2013-08-06T09:06:12Z</time>
      </trkpt>
      <trkpt lat="48.38653" lon="-4.32111">
        <ele>76.0814209</ele>
        <time>2013-08-06T09:06:17Z</time>
      </trkpt>
      <trkpt lat="48.38663" lon="-4.32119">
        <ele>80.4074707</ele>
        <time>2013-08-06T09:06:21Z</time>
      </trkpt>
      <trkpt lat="48.3868" lon="-4.32134">
        <ele>85.6945801</ele>
        <time>2013-08-06T09:06:27Z</time>
      </trkpt>
      <trkpt lat="48.38685" lon="-4.32138">
        <ele>85.2139893</ele>
        <time>2013-08-06T09:06:29Z</time>
      </trkpt>
      <trkpt lat="48.38699" lon="-4.32153">
        <ele>87.1365967</ele>
        <time>2013-08-06T09:06:36Z</time>
      </trkpt>
      <trkpt lat="48.38708" lon="-4.3216">
        <ele>90.0206299</ele>
        <time>2013-08-06T09:06:41Z</time>
      </trkpt>
      <trkpt lat="48.38716" lon="-4.32168">
        <ele>91.9432373</ele>
        <time>2013-08-06T09:06:46Z</time>
      </trkpt>
      <trkpt lat="48.38725" lon="-4.32178">
        <ele>91.4625244</ele>
        <time>2013-08-06T09:06:50Z</time>
      </trkpt>
      <trkpt lat="48.38736" lon="-4.32189">
        <ele>94.8271484</ele>
        <time>2013-08-06T09:06:58Z</time>
      </trkpt>
      <trkpt lat="48.38746" lon="-4.32198">
        <ele>97.2304688</ele>
        <time>2013-08-06T09:07:05Z</time>
      </trkpt>
      <trkpt lat="48.38756" lon="-4.32207">
        <ele>97.7111816</ele>
        <time>2013-08-06T09:07:13Z</time>
      </trkpt>
      <trkpt lat="48.38763" lon="-4.32214">
        <ele>96.2692871</ele>
        <time>2013-08-06T09:07:19Z</time>
      </trkpt>
      <trkpt lat="48.38774" lon="-4.32227">
        <ele>98.1918945</ele>
        <time>2013-08-06T09:07:26Z</time>
      </trkpt>
      <trkpt lat="48.38777" lon="-4.32235">
        <ele>101.0756836</ele>
        <time>2013-08-06T09:07:31Z</time>
      </trkpt>
      <trkpt lat="48.38779" lon="-4.32238">
        <ele>101.5563965</ele>
        <time>2013-08-06T09:07:35Z</time>
      </trkpt>
      <trkpt lat="48.38783" lon="-4.32242">
        <ele>102.998291</ele>
        <time>2013-08-06T09:07:38Z</time>
      </trkpt>
      <trkpt lat="48.38791" lon="-4.32252">
        <ele>102.998291</ele>
        <time>2013-08-06T09:07:46Z</time>
      </trkpt>
      <trkpt lat="48.38796" lon="-4.32258">
        <ele>103.4790039</ele>
        <time>2013-08-06T09:07:50Z</time>
      </trkpt>
      <trkpt lat="48.38798" lon="-4.32261">
        <ele>102.998291</ele>
        <time>2013-08-06T09:07:52Z</time>
      </trkpt>
      <trkpt lat="48.38801" lon="-4.32269">
        <ele>105.4017334</ele>
        <time>2013-08-06T09:07:56Z</time>
      </trkpt>
      <trkpt lat="48.38804" lon="-4.32283">
        <ele>107.3243408</ele>
        <time>2013-08-06T09:08:04Z</time>
      </trkpt>
      <trkpt lat="48.38805" lon="-4.32287">
        <ele>108.2856445</ele>
        <time>2013-08-06T09:08:06Z</time>
      </trkpt>
      <trkpt lat="48.3881" lon="-4.32299">
        <ele>109.2469482</ele>
        <time>2013-08-06T09:08:12Z</time>
      </trkpt>
      <trkpt lat="48.38814" lon="-4.32314">
        <ele>110.6888428</ele>
        <time>2013-08-06T09:08:19Z</time>
      </trkpt>
      <trkpt lat="48.38819" lon="-4.32327">
        <ele>109.7276611</ele>
        <time>2013-08-06T09:08:25Z</time>
      </trkpt>
      <trkpt lat="48.38823" lon="-4.32341">
        <ele>108.7662354</ele>
        <time>2013-08-06T09:08:30Z</time>
      </trkpt>
      <trkpt lat="48.38829" lon="-4.32352">
        <ele>109.2469482</ele>
        <time>2013-08-06T09:08:36Z</time>
      </trkpt>
      <trkpt lat="48.38831" lon="-4.32358">
        <ele>110.208252</ele>
        <time>2013-08-06T09:08:40Z</time>
      </trkpt>
      <trkpt lat="48.38832" lon="-4.32359">
        <ele>110.208252</ele>
        <time>2013-08-06T09:08:41Z</time>
      </trkpt>
      <trkpt lat="48.38835" lon="-4.32373">
        <ele>111.1695557</ele>
        <time>2013-08-06T09:08:46Z</time>
      </trkpt>
      <trkpt lat="48.38845" lon="-4.32394">
        <ele>113.572998</ele>
        <time>2013-08-06T09:08:54Z</time>
      </trkpt>
      <trkpt lat="48.38851" lon="-4.32408">
        <ele>111.6502686</ele>
        <time>2013-08-06T09:08:58Z</time>
      </trkpt>
      <trkpt lat="48.38852" lon="-4.32411">
        <ele>112.1309814</ele>
        <time>2013-08-06T09:09:00Z</time>
      </trkpt>
      <trkpt lat="48.38855" lon="-4.3242">
        <ele>114.0535889</ele>
        <time>2013-08-06T09:09:04Z</time>
      </trkpt>
      <trkpt lat="48.38865" lon="-4.32447">
        <ele>110.6888428</ele>
        <time>2013-08-06T09:09:13Z</time>
      </trkpt>
      <trkpt lat="48.38874" lon="-4.32462">
        <ele>109.2469482</ele>
        <time>2013-08-06T09:09:19Z</time>
      </trkpt>
      <trkpt lat="48.3889" lon="-4.32481">
        <ele>115.9761963</ele>
        <time>2013-08-06T09:09:26Z</time>
      </trkpt>
      <trkpt lat="48.38899" lon="-4.3249">
        <ele>116.4567871</ele>
        <time>2013-08-06T09:09:31Z</time>
      </trkpt>
      <trkpt lat="48.38904" lon="-4.32501">
        <ele>118.8601074</ele>
        <time>2013-08-06T09:09:35Z</time>
      </trkpt>
      <trkpt lat="48.38919" lon="-4.32518">
        <ele>120.7828369</ele>
        <time>2013-08-06T09:09:42Z</time>
      </trkpt>
      <trkpt lat="48.38933" lon="-4.32535">
        <ele>123.1861572</ele>
        <time>2013-08-06T09:09:49Z</time>
      </trkpt>
      <trkpt lat="48.38934" lon="-4.32537">
        <ele>122.2247314</ele>
        <time>2013-08-06T09:09:50Z</time>
      </trkpt>
      <trkpt lat="48.38939" lon="-4.32543">
        <ele>119.3408203</ele>
        <time>2013-08-06T09:09:53Z</time>
      </trkpt>
      <trkpt lat="48.38947" lon="-4.32549">
        <ele>118.8601074</ele>
        <time>2013-08-06T09:09:58Z</time>
      </trkpt>
      <trkpt lat="48.38954" lon="-4.32554">
        <ele>118.8601074</ele>
        <time>2013-08-06T09:10:02Z</time>
      </trkpt>
      <trkpt lat="48.38964" lon="-4.32562">
        <ele>116.9375</ele>
        <time>2013-08-06T09:10:07Z</time>
      </trkpt>
      <trkpt lat="48.38976" lon="-4.32571">
        <ele>117.8988037</ele>
        <time>2013-08-06T09:10:13Z</time>
      </trkpt>
      <trkpt lat="48.3899" lon="-4.32575">
        <ele>123.1861572</ele>
        <time>2013-08-06T09:10:21Z</time>
      </trkpt>
      <trkpt lat="48.39002" lon="-4.3258">
        <ele>124.6280518</ele>
        <time>2013-08-06T09:10:26Z</time>
      </trkpt>
      <trkpt lat="48.39005" lon="-4.32581">
        <ele>125.1087646</ele>
        <time>2013-08-06T09:10:27Z</time>
      </trkpt>
      <trkpt lat="48.39019" lon="-4.32584">
        <ele>130.876709</ele>
        <time>2013-08-06T09:10:35Z</time>
      </trkpt>
      <trkpt lat="48.39022" lon="-4.32582">
        <ele>131.8378906</ele>
        <time>2013-08-06T09:10:37Z</time>
      </trkpt>
      <trkpt lat="48.39032" lon="-4.32581">
        <ele>133.2799072</ele>
        <time>2013-08-06T09:10:41Z</time>
      </trkpt>
      <trkpt lat="48.39039" lon="-4.32581">
        <ele>135.6831055</ele>
        <time>2013-08-06T09:10:45Z</time>
      </trkpt>
      <trkpt lat="48.39053" lon="-4.3258">
        <ele>140.0091553</ele>
        <time>2013-08-06T09:10:53Z</time>
      </trkpt>
      <trkpt lat="48.39059" lon="-4.3258">
        <ele>140.4898682</ele>
        <time>2013-08-06T09:10:57Z</time>
      </trkpt>
      <trkpt lat="48.39072" lon="-4.32579">
        <ele>139.5284424</ele>
        <time>2013-08-06T09:11:03Z</time>
      </trkpt>
      <trkpt lat="48.39079" lon="-4.32581">
        <ele>140.0091553</ele>
        <time>2013-08-06T09:11:08Z</time>
      </trkpt>
      <trkpt lat="48.39087" lon="-4.32583">
        <ele>138.0865479</ele>
        <time>2013-08-06T09:11:17Z</time>
      </trkpt>
      <trkpt lat="48.39093" lon="-4.32582">
        <ele>136.6446533</ele>
        <time>2013-08-06T09:11:23Z</time>
      </trkpt>
      <trkpt lat="48.391" lon="-4.32583">
        <ele>133.760498</ele>
        <time>2013-08-06T09:11:27Z</time>
      </trkpt>
      <trkpt lat="48.3911" lon="-4.32578">
        <ele>126.0699463</ele>
        <time>2013-08-06T09:11:38Z</time>
      </trkpt>
      <trkpt lat="48.39117" lon="-4.32576">
        <ele>127.0313721</ele>
        <time>2013-08-06T09:11:42Z</time>
      </trkpt>
      <trkpt lat="48.39129" lon="-4.32572">
        <ele>128.9541016</ele>
        <time>2013-08-06T09:11:49Z</time>
      </trkpt>
      <trkpt lat="48.39144" lon="-4.32573">
        <ele>133.760498</ele>
        <time>2013-08-06T09:11:57Z</time>
      </trkpt>
      <trkpt lat="48.39157" lon="-4.32574">
        <ele>139.5284424</ele>
        <time>2013-08-06T09:12:02Z</time>
      </trkpt>
      <trkpt lat="48.39166" lon="-4.32572">
        <ele>143.8543701</ele>
        <time>2013-08-06T09:12:06Z</time>
      </trkpt>
      <trkpt lat="48.39176" lon="-4.32567">
        <ele>147.2189941</ele>
        <time>2013-08-06T09:12:11Z</time>
      </trkpt>
      <trkpt lat="48.39184" lon="-4.32563">
        <ele>149.1416016</ele>
        <time>2013-08-06T09:12:16Z</time>
      </trkpt>
      <trkpt lat="48.39187" lon="-4.3256">
        <ele>148.1804199</ele>
        <time>2013-08-06T09:12:18Z</time>
      </trkpt>
      <trkpt lat="48.39193" lon="-4.32556">
        <ele>147.699707</ele>
        <time>2013-08-06T09:12:23Z</time>
      </trkpt>
      <trkpt lat="48.392" lon="-4.32548">
        <ele>148.1804199</ele>
        <time>2013-08-06T09:12:28Z</time>
      </trkpt>
      <trkpt lat="48.39208" lon="-4.32539">
        <ele>144.8157959</ele>
        <time>2013-08-06T09:12:35Z</time>
      </trkpt>
      <trkpt lat="48.39214" lon="-4.32527">
        <ele>129.9152832</ele>
        <time>2013-08-06T09:12:44Z</time>
      </trkpt>
      <trkpt lat="48.39218" lon="-4.32524">
        <ele>124.6280518</ele>
        <time>2013-08-06T09:12:51Z</time>
      </trkpt>
      <trkpt lat="48.39218" lon="-4.32523">
        <ele>126.0699463</ele>
        <time>2013-08-06T09:12:53Z</time>
      </trkpt>
      <trkpt lat="48.39208" lon="-4.32521">
        <ele>146.7384033</ele>
        <time>2013-08-06T09:15:37Z</time>
      </trkpt>
      <trkpt lat="48.39208" lon="-4.32521">
        <ele>146.7384033</ele>
        <time>2013-08-06T09:15:38Z</time>
      </trkpt>
      <trkpt lat="48.39213" lon="-4.32525">
        <ele>146.7384033</ele>
        <time>2013-08-06T09:15:43Z</time>
      </trkpt>
      <trkpt lat="48.39224" lon="-4.32532">
        <ele>145.7770996</ele>
        <time>2013-08-06T09:15:48Z</time>
      </trkpt>
      <trkpt lat="48.39235" lon="-4.32535">
        <ele>142.8930664</ele>
        <time>2013-08-06T09:15:52Z</time>
      </trkpt>
      <trkpt lat="48.39247" lon="-4.32536">
        <ele>140.4898682</ele>
        <time>2013-08-06T09:15:57Z</time>
      </trkpt>
      <trkpt lat="48.39255" lon="-4.32532">
        <ele>139.5284424</ele>
        <time>2013-08-06T09:16:01Z</time>
      </trkpt>
      <trkpt lat="48.39257" lon="-4.32529">
        <ele>140.0091553</ele>
        <time>2013-08-06T09:16:03Z</time>
      </trkpt>
      <trkpt lat="48.39261" lon="-4.32523">
        <ele>143.3736572</ele>
        <time>2013-08-06T09:16:09Z</time>
      </trkpt>
      <trkpt lat="48.39259" lon="-4.32522">
        <ele>143.3736572</ele>
        <time>2013-08-06T09:16:20Z</time>
      </trkpt>
      <trkpt lat="48.39258" lon="-4.32525">
        <ele>144.3352051</ele>
        <time>2013-08-06T09:16:22Z</time>
      </trkpt>
      <trkpt lat="48.39255" lon="-4.32534">
        <ele>143.8543701</ele>
        <time>2013-08-06T09:16:26Z</time>
      </trkpt>
      <trkpt lat="48.39245" lon="-4.32536">
        <ele>140.4898682</ele>
        <time>2013-08-06T09:16:31Z</time>
      </trkpt>
      <trkpt lat="48.3924" lon="-4.32537">
        <ele>138.5672607</ele>
        <time>2013-08-06T09:16:34Z</time>
      </trkpt>
      <trkpt lat="48.39228" lon="-4.32535">
        <ele>140.0091553</ele>
        <time>2013-08-06T09:16:40Z</time>
      </trkpt>
      <trkpt lat="48.39223" lon="-4.32533">
        <ele>139.5284424</ele>
        <time>2013-08-06T09:16:42Z</time>
      </trkpt>
      <trkpt lat="48.39219" lon="-4.3253">
        <ele>139.5284424</ele>
        <time>2013-08-06T09:16:44Z</time>
      </trkpt>
      <trkpt lat="48.39216" lon="-4.32527">
        <ele>140.0091553</ele>
        <time>2013-08-06T09:16:48Z</time>
      </trkpt>
      <trkpt lat="48.39215" lon="-4.32525">
        <ele>141.9317627</ele>
        <time>2013-08-06T09:16:51Z</time>
      </trkpt>
      <trkpt lat="48.39216" lon="-4.32517">
        <ele>140.4898682</ele>
        <time>2013-08-06T09:16:57Z</time>
      </trkpt>
      <trkpt lat="48.39215" lon="-4.32512">
        <ele>140.4898682</ele>
        <time>2013-08-06T09:17:00Z</time>
      </trkpt>
      <trkpt lat="48.39221" lon="-4.32491">
        <ele>140.4898682</ele>
        <time>2013-08-06T09:17:08Z</time>
      </trkpt>
      <trkpt lat="48.39226" lon="-4.32476">
        <ele>139.0478516</ele>
        <time>2013-08-06T09:17:11Z</time>
      </trkpt>
      <trkpt lat="48.39231" lon="-4.32463">
        <ele>138.5672607</ele>
        <time>2013-08-06T09:17:14Z</time>
      </trkpt>
      <trkpt lat="48.39242" lon="-4.32441">
        <ele>138.0865479</ele>
        <time>2013-08-06T09:17:20Z</time>
      </trkpt>
      <trkpt lat="48.39252" lon="-4.32413">
        <ele>140.0091553</ele>
        <time>2013-08-06T09:17:27Z</time>
      </trkpt>
      <trkpt lat="48.39255" lon="-4.32407">
        <ele>139.0478516</ele>
        <time>2013-08-06T09:17:29Z</time>
      </trkpt>
      <trkpt lat="48.39257" lon="-4.32391">
        <ele>140.0091553</ele>
        <time>2013-08-06T09:17:33Z</time>
      </trkpt>
      <trkpt lat="48.39259" lon="-4.32375">
        <ele>140.970459</ele>
        <time>2013-08-06T09:17:38Z</time>
      </trkpt>
      <trkpt lat="48.39263" lon="-4.32359">
        <ele>143.3736572</ele>
        <time>2013-08-06T09:17:44Z</time>
      </trkpt>
      <trkpt lat="48.39264" lon="-4.32353">
        <ele>144.3352051</ele>
        <time>2013-08-06T09:17:46Z</time>
      </trkpt>
      <trkpt lat="48.39264" lon="-4.32347">
        <ele>143.3736572</ele>
        <time>2013-08-06T09:17:48Z</time>
      </trkpt>
      <trkpt lat="48.39263" lon="-4.3234">
        <ele>143.3736572</ele>
        <time>2013-08-06T09:17:50Z</time>
      </trkpt>
      <trkpt lat="48.39266" lon="-4.32322">
        <ele>140.4898682</ele>
        <time>2013-08-06T09:17:54Z</time>
      </trkpt>
      <trkpt lat="48.39266" lon="-4.32305">
        <ele>140.0091553</ele>
        <time>2013-08-06T09:17:58Z</time>
      </trkpt>
      <trkpt lat="48.39264" lon="-4.32283">
        <ele>138.5672607</ele>
        <time>2013-08-06T09:18:04Z</time>
      </trkpt>
      <trkpt lat="48.39259" lon="-4.32267">
        <ele>141.4510498</ele>
        <time>2013-08-06T09:18:09Z</time>
      </trkpt>
      <trkpt lat="48.39255" lon="-4.32245">
        <ele>142.8930664</ele>
        <time>2013-08-06T09:18:15Z</time>
      </trkpt>
      <trkpt lat="48.39256" lon="-4.32235">
        <ele>143.3736572</ele>
        <time>2013-08-06T09:18:18Z</time>
      </trkpt>
      <trkpt lat="48.39257" lon="-4.32226">
        <ele>142.8930664</ele>
        <time>2013-08-06T09:18:20Z</time>
      </trkpt>
      <trkpt lat="48.39252" lon="-4.32203">
        <ele>143.3736572</ele>
        <time>2013-08-06T09:18:26Z</time>
      </trkpt>
      <trkpt lat="48.39249" lon="-4.32189">
        <ele>146.7384033</ele>
        <time>2013-08-06T09:18:30Z</time>
      </trkpt>
      <trkpt lat="48.39254" lon="-4.32161">
        <ele>149.1416016</ele>
        <time>2013-08-06T09:18:37Z</time>
      </trkpt>
      <trkpt lat="48.39255" lon="-4.32146">
        <ele>150.5836182</ele>
        <time>2013-08-06T09:18:41Z</time>
      </trkpt>
      <trkpt lat="48.39257" lon="-4.32134">
        <ele>150.1030273</ele>
        <time>2013-08-06T09:18:44Z</time>
      </trkpt>
      <trkpt lat="48.3926" lon="-4.32125">
        <ele>146.7384033</ele>
        <time>2013-08-06T09:18:48Z</time>
      </trkpt>
      <trkpt lat="48.39263" lon="-4.32116">
        <ele>147.2189941</ele>
        <time>2013-08-06T09:18:51Z</time>
      </trkpt>
      <trkpt lat="48.39266" lon="-4.32104">
        <ele>147.2189941</ele>
        <time>2013-08-06T09:18:55Z</time>
      </trkpt>
      <trkpt lat="48.39274" lon="-4.32088">
        <ele>140.0091553</ele>
        <time>2013-08-06T09:19:01Z</time>
      </trkpt>
      <trkpt lat="48.39275" lon="-4.3208">
        <ele>141.9317627</ele>
        <time>2013-08-06T09:19:09Z</time>
      </trkpt>
      <trkpt lat="48.39281" lon="-4.32073">
        <ele>142.4124756</ele>
        <time>2013-08-06T09:19:19Z</time>
      </trkpt>
      <trkpt lat="48.39282" lon="-4.3207">
        <ele>140.4898682</ele>
        <time>2013-08-06T09:19:24Z</time>
      </trkpt>
      <trkpt lat="48.39284" lon="-4.32064">
        <ele>139.5284424</ele>
        <time>2013-08-06T09:19:30Z</time>
      </trkpt>
      <trkpt lat="48.39288" lon="-4.32044">
        <ele>136.1639404</ele>
        <time>2013-08-06T09:19:56Z</time>
      </trkpt>
      <trkpt lat="48.39294" lon="-4.3203">
        <ele>136.1639404</ele>
        <time>2013-08-06T09:20:00Z</time>
      </trkpt>
      <trkpt lat="48.39299" lon="-4.32017">
        <ele>133.760498</ele>
        <time>2013-08-06T09:20:05Z</time>
      </trkpt>
      <trkpt lat="48.39301" lon="-4.32016">
        <ele>134.2412109</ele>
        <time>2013-08-06T09:20:06Z</time>
      </trkpt>
      <trkpt lat="48.39305" lon="-4.32004">
        <ele>131.3572998</ele>
        <time>2013-08-06T09:20:11Z</time>
      </trkpt>
      <trkpt lat="48.39308" lon="-4.31994">
        <ele>129.9152832</ele>
        <time>2013-08-06T09:20:15Z</time>
      </trkpt>
      <trkpt lat="48.3931" lon="-4.31991">
        <ele>129.9152832</ele>
        <time>2013-08-06T09:20:17Z</time>
      </trkpt>
      <trkpt lat="48.39317" lon="-4.31972">
        <ele>127.9925537</ele>
        <time>2013-08-06T09:20:25Z</time>
      </trkpt>
      <trkpt lat="48.39317" lon="-4.31971">
        <ele>128.4733887</ele>
        <time>2013-08-06T09:20:26Z</time>
      </trkpt>
      <trkpt lat="48.39323" lon="-4.31962">
        <ele>127.9925537</ele>
        <time>2013-08-06T09:20:32Z</time>
      </trkpt>
      <trkpt lat="48.39329" lon="-4.31951">
        <ele>129.9152832</ele>
        <time>2013-08-06T09:20:37Z</time>
      </trkpt>
      <trkpt lat="48.3933" lon="-4.31948">
        <ele>130.876709</ele>
        <time>2013-08-06T09:20:38Z</time>
      </trkpt>
      <trkpt lat="48.39336" lon="-4.3193">
        <ele>134.7219238</ele>
        <time>2013-08-06T09:20:43Z</time>
      </trkpt>
      <trkpt lat="48.39341" lon="-4.3191">
        <ele>137.605835</ele>
        <time>2013-08-06T09:20:49Z</time>
      </trkpt>
      <trkpt lat="48.3935" lon="-4.31886">
        <ele>138.5672607</ele>
        <time>2013-08-06T09:20:55Z</time>
      </trkpt>
      <trkpt lat="48.39356" lon="-4.31862">
        <ele>138.0865479</ele>
        <time>2013-08-06T09:21:00Z</time>
      </trkpt>
      <trkpt lat="48.39358" lon="-4.31851">
        <ele>139.5284424</ele>
        <time>2013-08-06T09:21:03Z</time>
      </trkpt>
      <trkpt lat="48.39369" lon="-4.31821">
        <ele>144.8157959</ele>
        <time>2013-08-06T09:21:09Z</time>
      </trkpt>
      <trkpt lat="48.39378" lon="-4.31791">
        <ele>140.0091553</ele>
        <time>2013-08-06T09:21:16Z</time>
      </trkpt>
      <trkpt lat="48.39379" lon="-4.31787">
        <ele>140.0091553</ele>
        <time>2013-08-06T09:21:17Z</time>
      </trkpt>
      <trkpt lat="48.39389" lon="-4.31761">
        <ele>136.6446533</ele>
        <time>2013-08-06T09:21:23Z</time>
      </trkpt>
      <trkpt lat="48.39407" lon="-4.31737">
        <ele>135.2025146</ele>
        <time>2013-08-06T09:21:29Z</time>
      </trkpt>
      <trkpt lat="48.39422" lon="-4.31722">
        <ele>133.760498</ele>
        <time>2013-08-06T09:21:34Z</time>
      </trkpt>
      <trkpt lat="48.39427" lon="-4.31717">
        <ele>134.2412109</ele>
        <time>2013-08-06T09:21:36Z</time>
      </trkpt>
      <trkpt lat="48.39432" lon="-4.31697">
        <ele>132.7993164</ele>
        <time>2013-08-06T09:21:42Z</time>
      </trkpt>
      <trkpt lat="48.39438" lon="-4.31679">
        <ele>135.6831055</ele>
        <time>2013-08-06T09:21:46Z</time>
      </trkpt>
      <trkpt lat="48.39448" lon="-4.31656">
        <ele>138.0865479</ele>
        <time>2013-08-06T09:21:51Z</time>
      </trkpt>
      <trkpt lat="48.39455" lon="-4.31637">
        <ele>142.8930664</ele>
        <time>2013-08-06T09:21:56Z</time>
      </trkpt>
      <trkpt lat="48.39464" lon="-4.31613">
        <ele>145.2963867</ele>
        <time>2013-08-06T09:22:02Z</time>
      </trkpt>
      <trkpt lat="48.39476" lon="-4.31592">
        <ele>143.3736572</ele>
        <time>2013-08-06T09:22:07Z</time>
      </trkpt>
      <trkpt lat="48.39486" lon="-4.31569">
        <ele>143.3736572</ele>
        <time>2013-08-06T09:22:13Z</time>
      </trkpt>
      <trkpt lat="48.39496" lon="-4.31552">
        <ele>141.4510498</ele>
        <time>2013-08-06T09:22:19Z</time>
      </trkpt>
      <trkpt lat="48.39499" lon="-4.3154">
        <ele>139.0478516</ele>
        <time>2013-08-06T09:22:22Z</time>
      </trkpt>
      <trkpt lat="48.39502" lon="-4.31531">
        <ele>136.6446533</ele>
        <time>2013-08-06T09:22:27Z</time>
      </trkpt>
      <trkpt lat="48.39504" lon="-4.31519">
        <ele>132.7993164</ele>
        <time>2013-08-06T09:22:33Z</time>
      </trkpt>
      <trkpt lat="48.39506" lon="-4.31506">
        <ele>131.8378906</ele>
        <time>2013-08-06T09:22:39Z</time>
      </trkpt>
      <trkpt lat="48.3951" lon="-4.31487">
        <ele>133.760498</ele>
        <time>2013-08-06T09:22:44Z</time>
      </trkpt>
      <trkpt lat="48.39516" lon="-4.31469">
        <ele>135.6831055</ele>
        <time>2013-08-06T09:22:51Z</time>
      </trkpt>
      <trkpt lat="48.39517" lon="-4.31461">
        <ele>137.1252441</ele>
        <time>2013-08-06T09:22:53Z</time>
      </trkpt>
      <trkpt lat="48.39517" lon="-4.31433">
        <ele>139.5284424</ele>
        <time>2013-08-06T09:22:59Z</time>
      </trkpt>
      <trkpt lat="48.39516" lon="-4.31409">
        <ele>142.8930664</ele>
        <time>2013-08-06T09:23:04Z</time>
      </trkpt>
      <trkpt lat="48.39517" lon="-4.31385">
        <ele>140.4898682</ele>
        <time>2013-08-06T09:23:09Z</time>
      </trkpt>
      <trkpt lat="48.39519" lon="-4.3136">
        <ele>140.0091553</ele>
        <time>2013-08-06T09:23:14Z</time>
      </trkpt>
      <trkpt lat="48.39518" lon="-4.3134">
        <ele>140.0091553</ele>
        <time>2013-08-06T09:23:18Z</time>
      </trkpt>
      <trkpt lat="48.39516" lon="-4.31321">
        <ele>137.605835</ele>
        <time>2013-08-06T09:23:22Z</time>
      </trkpt>
      <trkpt lat="48.39513" lon="-4.31301">
        <ele>135.2025146</ele>
        <time>2013-08-06T09:23:26Z</time>
      </trkpt>
      <trkpt lat="48.39512" lon="-4.31265">
        <ele>136.6446533</ele>
        <time>2013-08-06T09:23:32Z</time>
      </trkpt>
      <trkpt lat="48.3951" lon="-4.3124">
        <ele>135.2025146</ele>
        <time>2013-08-06T09:23:37Z</time>
      </trkpt>
      <trkpt lat="48.39511" lon="-4.31204">
        <ele>134.7219238</ele>
        <time>2013-08-06T09:23:42Z</time>
      </trkpt>
      <trkpt lat="48.3951" lon="-4.31175">
        <ele>135.6831055</ele>
        <time>2013-08-06T09:23:47Z</time>
      </trkpt>
      <trkpt lat="48.39509" lon="-4.3117">
        <ele>135.6831055</ele>
        <time>2013-08-06T09:23:48Z</time>
      </trkpt>
      <trkpt lat="48.39507" lon="-4.31147">
        <ele>134.2412109</ele>
        <time>2013-08-06T09:23:54Z</time>
      </trkpt>
      <trkpt lat="48.39506" lon="-4.31133">
        <ele>133.760498</ele>
        <time>2013-08-06T09:23:59Z</time>
      </trkpt>
      <trkpt lat="48.39502" lon="-4.31122">
        <ele>133.2799072</ele>
        <time>2013-08-06T09:24:05Z</time>
      </trkpt>
      <trkpt lat="48.39501" lon="-4.31122">
        <ele>133.760498</ele>
        <time>2013-08-06T09:24:08Z</time>
      </trkpt>
      <trkpt lat="48.39491" lon="-4.31109">
        <ele>144.8157959</ele>
        <time>2013-08-06T09:26:14Z</time>
      </trkpt>
      <trkpt lat="48.3949" lon="-4.31108">
        <ele>144.3352051</ele>
        <time>2013-08-06T09:26:15Z</time>
      </trkpt>
      <trkpt lat="48.39475" lon="-4.31092">
        <ele>143.8543701</ele>
        <time>2013-08-06T09:26:19Z</time>
      </trkpt>
      <trkpt lat="48.39451" lon="-4.31073">
        <ele>142.8930664</ele>
        <time>2013-08-06T09:26:25Z</time>
      </trkpt>
      <trkpt lat="48.39411" lon="-4.31061">
        <ele>140.4898682</ele>
        <time>2013-08-06T09:26:33Z</time>
      </trkpt>
      <trkpt lat="48.39372" lon="-4.31058">
        <ele>136.6446533</ele>
        <time>2013-08-06T09:26:40Z</time>
      </trkpt>
      <trkpt lat="48.39328" lon="-4.31055">
        <ele>133.760498</ele>
        <time>2013-08-06T09:26:47Z</time>
      </trkpt>
      <trkpt lat="48.39279" lon="-4.31048">
        <ele>131.3572998</ele>
        <time>2013-08-06T09:26:54Z</time>
      </trkpt>
      <trkpt lat="48.39246" lon="-4.3103">
        <ele>130.3959961</ele>
        <time>2013-08-06T09:26:59Z</time>
      </trkpt>
      <trkpt lat="48.39206" lon="-4.31004">
        <ele>128.9541016</ele>
        <time>2013-08-06T09:27:05Z</time>
      </trkpt>
      <trkpt lat="48.39186" lon="-4.30992">
        <ele>128.4733887</ele>
        <time>2013-08-06T09:27:08Z</time>
      </trkpt>
      <trkpt lat="48.39143" lon="-4.30964">
        <ele>128.4733887</ele>
        <time>2013-08-06T09:27:15Z</time>
      </trkpt>
      <trkpt lat="48.39106" lon="-4.3094">
        <ele>129.9152832</ele>
        <time>2013-08-06T09:27:22Z</time>
      </trkpt>
      <trkpt lat="48.39084" lon="-4.30928">
        <ele>130.3959961</ele>
        <time>2013-08-06T09:27:26Z</time>
      </trkpt>
      <trkpt lat="48.39079" lon="-4.30925">
        <ele>130.3959961</ele>
        <time>2013-08-06T09:27:27Z</time>
      </trkpt>
      <trkpt lat="48.39045" lon="-4.30916">
        <ele>130.876709</ele>
        <time>2013-08-06T09:27:34Z</time>
      </trkpt>
      <trkpt lat="48.38998" lon="-4.30911">
        <ele>131.8378906</ele>
        <time>2013-08-06T09:27:44Z</time>
      </trkpt>
      <trkpt lat="48.38976" lon="-4.30905">
        <ele>130.3959961</ele>
        <time>2013-08-06T09:27:49Z</time>
      </trkpt>
      <trkpt lat="48.38969" lon="-4.30894">
        <ele>128.4733887</ele>
        <time>2013-08-06T09:27:53Z</time>
      </trkpt>
      <trkpt lat="48.38966" lon="-4.30891">
        <ele>127.0313721</ele>
        <time>2013-08-06T09:27:56Z</time>
      </trkpt>
      <trkpt lat="48.38966" lon="-4.30891">
        <ele>126.5506592</ele>
        <time>2013-08-06T09:27:58Z</time>
      </trkpt>
      <trkpt lat="48.38969" lon="-4.30892">
        <ele>112.6115723</ele>
        <time>2013-08-06T09:30:14Z</time>
      </trkpt>
      <trkpt lat="48.38967" lon="-4.30893">
        <ele>112.6115723</ele>
        <time>2013-08-06T09:30:15Z</time>
      </trkpt>
      <trkpt lat="48.38951" lon="-4.30891">
        <ele>111.6502686</ele>
        <time>2013-08-06T09:30:18Z</time>
      </trkpt>
      <trkpt lat="48.38917" lon="-4.30879">
        <ele>109.7276611</ele>
        <time>2013-08-06T09:30:24Z</time>
      </trkpt>
      <trkpt lat="48.38873" lon="-4.30872">
        <ele>107.8050537</ele>
        <time>2013-08-06T09:30:30Z</time>
      </trkpt>
      <trkpt lat="48.38829" lon="-4.30879">
        <ele>104.9210205</ele>
        <time>2013-08-06T09:30:35Z</time>
      </trkpt>
      <trkpt lat="48.38777" lon="-4.30896">
        <ele>101.0756836</ele>
        <time>2013-08-06T09:30:40Z</time>
      </trkpt>
      <trkpt lat="48.38718" lon="-4.30901">
        <ele>95.3077393</ele>
        <time>2013-08-06T09:30:45Z</time>
      </trkpt>
      <trkpt lat="48.38637" lon="-4.309">
        <ele>88.0980225</ele>
        <time>2013-08-06T09:30:51Z</time>
      </trkpt>
      <trkpt lat="48.38555" lon="-4.30889">
        <ele>82.3300781</ele>
        <time>2013-08-06T09:30:57Z</time>
      </trkpt>
      <trkpt lat="48.38462" lon="-4.30855">
        <ele>78.0040283</ele>
        <time>2013-08-06T09:31:04Z</time>
      </trkpt>
      <trkpt lat="48.38392" lon="-4.30827">
        <ele>75.6008301</ele>
        <time>2013-08-06T09:31:10Z</time>
      </trkpt>
      <trkpt lat="48.38361" lon="-4.30812">
        <ele>74.1588135</ele>
        <time>2013-08-06T09:31:13Z</time>
      </trkpt>
      <trkpt lat="48.38339" lon="-4.30784">
        <ele>73.6782227</ele>
        <time>2013-08-06T09:31:16Z</time>
      </trkpt>
      <trkpt lat="48.38332" lon="-4.30741">
        <ele>73.1976318</ele>
        <time>2013-08-06T09:31:19Z</time>
      </trkpt>
      <trkpt lat="48.38329" lon="-4.30635">
        <ele>70.7941895</ele>
        <time>2013-08-06T09:31:26Z</time>
      </trkpt>
      <trkpt lat="48.38328" lon="-4.3062">
        <ele>70.7941895</ele>
        <time>2013-08-06T09:31:27Z</time>
      </trkpt>
      <trkpt lat="48.38315" lon="-4.30581">
        <ele>71.7554932</ele>
        <time>2013-08-06T09:31:31Z</time>
      </trkpt>
      <trkpt lat="48.38309" lon="-4.30577">
        <ele>72.2362061</ele>
        <time>2013-08-06T09:31:34Z</time>
      </trkpt>
      <trkpt lat="48.38309" lon="-4.30578">
        <ele>72.2362061</ele>
        <time>2013-08-06T09:31:36Z</time>
      </trkpt>
      <trkpt lat="48.38295" lon="-4.30579">
        <ele>73.1976318</ele>
        <time>2013-08-06T09:34:17Z</time>
      </trkpt>
      <trkpt lat="48.38294" lon="-4.30578">
        <ele>72.7169189</ele>
        <time>2013-08-06T09:34:18Z</time>
      </trkpt>
      <trkpt lat="48.38282" lon="-4.30577">
        <ele>73.1976318</ele>
        <time>2013-08-06T09:34:22Z</time>
      </trkpt>
      <trkpt lat="48.38269" lon="-4.30582">
        <ele>73.1976318</ele>
        <time>2013-08-06T09:34:26Z</time>
      </trkpt>
      <trkpt lat="48.38255" lon="-4.30596">
        <ele>73.1976318</ele>
        <time>2013-08-06T09:34:30Z</time>
      </trkpt>
      <trkpt lat="48.38244" lon="-4.30608">
        <ele>73.6782227</ele>
        <time>2013-08-06T09:34:33Z</time>
      </trkpt>
      <trkpt lat="48.38227" lon="-4.30627">
        <ele>74.1588135</ele>
        <time>2013-08-06T09:34:37Z</time>
      </trkpt>
      <trkpt lat="48.38217" lon="-4.30655">
        <ele>73.6782227</ele>
        <time>2013-08-06T09:34:41Z</time>
      </trkpt>
      <trkpt lat="48.38201" lon="-4.30689">
        <ele>74.1588135</ele>
        <time>2013-08-06T09:34:46Z</time>
      </trkpt>
      <trkpt lat="48.38184" lon="-4.30721">
        <ele>75.1202393</ele>
        <time>2013-08-06T09:34:51Z</time>
      </trkpt>
      <trkpt lat="48.3817" lon="-4.30769">
        <ele>75.1202393</ele>
        <time>2013-08-06T09:34:58Z</time>
      </trkpt>
      <trkpt lat="48.38169" lon="-4.30775">
        <ele>75.1202393</ele>
        <time>2013-08-06T09:34:59Z</time>
      </trkpt>
      <trkpt lat="48.38158" lon="-4.30795">
        <ele>76.0814209</ele>
        <time>2013-08-06T09:35:03Z</time>
      </trkpt>
      <trkpt lat="48.38131" lon="-4.30842">
        <ele>77.5234375</ele>
        <time>2013-08-06T09:35:12Z</time>
      </trkpt>
      <trkpt lat="48.3811" lon="-4.30882">
        <ele>78.4847412</ele>
        <time>2013-08-06T09:35:19Z</time>
      </trkpt>
      <trkpt lat="48.38081" lon="-4.3092">
        <ele>78.4847412</ele>
        <time>2013-08-06T09:35:26Z</time>
      </trkpt>
      <trkpt lat="48.38046" lon="-4.30957">
        <ele>81.3687744</ele>
        <time>2013-08-06T09:35:33Z</time>
      </trkpt>
      <trkpt lat="48.3801" lon="-4.30999">
        <ele>83.2913818</ele>
        <time>2013-08-06T09:35:41Z</time>
      </trkpt>
      <trkpt lat="48.37981" lon="-4.31035">
        <ele>83.2913818</ele>
        <time>2013-08-06T09:35:49Z</time>
      </trkpt>
      <trkpt lat="48.37965" lon="-4.3105">
        <ele>82.3300781</ele>
        <time>2013-08-06T09:35:53Z</time>
      </trkpt>
      <trkpt lat="48.37945" lon="-4.31068">
        <ele>82.3300781</ele>
        <time>2013-08-06T09:35:58Z</time>
      </trkpt>
      <trkpt lat="48.37927" lon="-4.31076">
        <ele>83.2913818</ele>
        <time>2013-08-06T09:36:02Z</time>
      </trkpt>
      <trkpt lat="48.37892" lon="-4.31085">
        <ele>82.810791</ele>
        <time>2013-08-06T09:36:08Z</time>
      </trkpt>
      <trkpt lat="48.3784" lon="-4.31098">
        <ele>81.3687744</ele>
        <time>2013-08-06T09:36:15Z</time>
      </trkpt>
      <trkpt lat="48.37809" lon="-4.31117">
        <ele>81.3687744</ele>
        <time>2013-08-06T09:36:19Z</time>
      </trkpt>
      <trkpt lat="48.37794" lon="-4.31126">
        <ele>82.3300781</ele>
        <time>2013-08-06T09:36:21Z</time>
      </trkpt>
      <trkpt lat="48.3778" lon="-4.31134">
        <ele>84.7333984</ele>
        <time>2013-08-06T09:36:23Z</time>
      </trkpt>
      <trkpt lat="48.37777" lon="-4.31159">
        <ele>83.2913818</ele>
        <time>2013-08-06T09:36:27Z</time>
      </trkpt>
      <trkpt lat="48.37781" lon="-4.31171">
        <ele>81.8493652</ele>
        <time>2013-08-06T09:36:29Z</time>
      </trkpt>
      <trkpt lat="48.37788" lon="-4.31219">
        <ele>77.0428467</ele>
        <time>2013-08-06T09:36:35Z</time>
      </trkpt>
      <trkpt lat="48.37793" lon="-4.31283">
        <ele>74.1588135</ele>
        <time>2013-08-06T09:36:41Z</time>
      </trkpt>
      <trkpt lat="48.37799" lon="-4.31368">
        <ele>71.2749023</ele>
        <time>2013-08-06T09:36:48Z</time>
      </trkpt>
      <trkpt lat="48.37795" lon="-4.31448">
        <ele>68.3908691</ele>
        <time>2013-08-06T09:36:54Z</time>
      </trkpt>
      <trkpt lat="48.3779" lon="-4.31512">
        <ele>65.9876709</ele>
        <time>2013-08-06T09:36:58Z</time>
      </trkpt>
      <trkpt lat="48.37785" lon="-4.3161">
        <ele>63.1036377</ele>
        <time>2013-08-06T09:37:04Z</time>
      </trkpt>
      <trkpt lat="48.37791" lon="-4.31692">
        <ele>60.7003174</ele>
        <time>2013-08-06T09:37:09Z</time>
      </trkpt>
      <trkpt lat="48.378" lon="-4.3179">
        <ele>56.8551025</ele>
        <time>2013-08-06T09:37:15Z</time>
      </trkpt>
      <trkpt lat="48.37809" lon="-4.31907">
        <ele>53.0097656</ele>
        <time>2013-08-06T09:37:22Z</time>
      </trkpt>
      <trkpt lat="48.37823" lon="-4.31982">
        <ele>51.5678711</ele>
        <time>2013-08-06T09:37:27Z</time>
      </trkpt>
      <trkpt lat="48.37844" lon="-4.32046">
        <ele>50.6065674</ele>
        <time>2013-08-06T09:37:32Z</time>
      </trkpt>
      <trkpt lat="48.37868" lon="-4.32095">
        <ele>50.1259766</ele>
        <time>2013-08-06T09:37:37Z</time>
      </trkpt>
      <trkpt lat="48.37888" lon="-4.32141">
        <ele>51.0871582</ele>
        <time>2013-08-06T09:37:42Z</time>
      </trkpt>
      <trkpt lat="48.37898" lon="-4.32168">
        <ele>52.048584</ele>
        <time>2013-08-06T09:37:45Z</time>
      </trkpt>
      <trkpt lat="48.37907" lon="-4.32202">
        <ele>53.9711914</ele>
        <time>2013-08-06T09:37:49Z</time>
      </trkpt>
      <trkpt lat="48.37916" lon="-4.32245">
        <ele>54.4517822</ele>
        <time>2013-08-06T09:37:54Z</time>
      </trkpt>
      <trkpt lat="48.37919" lon="-4.32285">
        <ele>56.3745117</ele>
        <time>2013-08-06T09:37:59Z</time>
      </trkpt>
      <trkpt lat="48.37922" lon="-4.32347">
        <ele>57.8165283</ele>
        <time>2013-08-06T09:38:07Z</time>
      </trkpt>
      <trkpt lat="48.37921" lon="-4.32397">
        <ele>59.2584229</ele>
        <time>2013-08-06T09:38:14Z</time>
      </trkpt>
      <trkpt lat="48.37921" lon="-4.32449">
        <ele>58.77771</ele>
        <time>2013-08-06T09:38:21Z</time>
      </trkpt>
      <trkpt lat="48.37922" lon="-4.32489">
        <ele>57.8165283</ele>
        <time>2013-08-06T09:38:27Z</time>
      </trkpt>
      <trkpt lat="48.37923" lon="-4.32526">
        <ele>56.8551025</ele>
        <time>2013-08-06T09:38:34Z</time>
      </trkpt>
      <trkpt lat="48.37927" lon="-4.32559">
        <ele>53.0097656</ele>
        <time>2013-08-06T09:38:40Z</time>
      </trkpt>
      <trkpt lat="48.37928" lon="-4.32591">
        <ele>51.0871582</ele>
        <time>2013-08-06T09:38:46Z</time>
      </trkpt>
      <trkpt lat="48.37929" lon="-4.32625">
        <ele>51.0871582</ele>
        <time>2013-08-06T09:38:53Z</time>
      </trkpt>
      <trkpt lat="48.37934" lon="-4.32657">
        <ele>50.1259766</ele>
        <time>2013-08-06T09:39:00Z</time>
      </trkpt>
      <trkpt lat="48.37939" lon="-4.327">
        <ele>51.5678711</ele>
        <time>2013-08-06T09:39:09Z</time>
      </trkpt>
      <trkpt lat="48.37948" lon="-4.32741">
        <ele>56.8551025</ele>
        <time>2013-08-06T09:39:17Z</time>
      </trkpt>
      <trkpt lat="48.37965" lon="-4.3279">
        <ele>60.2197266</ele>
        <time>2013-08-06T09:39:26Z</time>
      </trkpt>
      <trkpt lat="48.37988" lon="-4.32842">
        <ele>60.7003174</ele>
        <time>2013-08-06T09:39:34Z</time>
      </trkpt>
      <trkpt lat="48.38023" lon="-4.32911">
        <ele>62.142334</ele>
        <time>2013-08-06T09:39:44Z</time>
      </trkpt>
      <trkpt lat="48.38048" lon="-4.32953">
        <ele>64.5456543</ele>
        <time>2013-08-06T09:39:51Z</time>
      </trkpt>
      <trkpt lat="48.3807" lon="-4.32985">
        <ele>68.871582</ele>
        <time>2013-08-06T09:39:59Z</time>
      </trkpt>
      <trkpt lat="48.38088" lon="-4.33013">
        <ele>74.1588135</ele>
        <time>2013-08-06T09:40:08Z</time>
      </trkpt>
      <trkpt lat="48.38106" lon="-4.33041">
        <ele>77.5234375</ele>
        <time>2013-08-06T09:40:17Z</time>
      </trkpt>
      <trkpt lat="48.38126" lon="-4.33067">
        <ele>78.4847412</ele>
        <time>2013-08-06T09:40:27Z</time>
      </trkpt>
      <trkpt lat="48.38148" lon="-4.33098">
        <ele>77.5234375</ele>
        <time>2013-08-06T09:40:39Z</time>
      </trkpt>
      <trkpt lat="48.38161" lon="-4.33124">
        <ele>80.8881836</ele>
        <time>2013-08-06T09:40:47Z</time>
      </trkpt>
      <trkpt lat="48.38177" lon="-4.33149">
        <ele>79.4460449</ele>
        <time>2013-08-06T09:40:54Z</time>
      </trkpt>
      <trkpt lat="48.38186" lon="-4.33175">
        <ele>77.0428467</ele>
        <time>2013-08-06T09:40:59Z</time>
      </trkpt>
      <trkpt lat="48.38194" lon="-4.33197">
        <ele>70.7941895</ele>
        <time>2013-08-06T09:41:04Z</time>
      </trkpt>
      <trkpt lat="48.38201" lon="-4.33217">
        <ele>69.8328857</ele>
        <time>2013-08-06T09:41:08Z</time>
      </trkpt>
      <trkpt lat="48.38214" lon="-4.33247">
        <ele>67.9102783</ele>
        <time>2013-08-06T09:41:13Z</time>
      </trkpt>
      <trkpt lat="48.38216" lon="-4.33254">
        <ele>67.4296875</ele>
        <time>2013-08-06T09:41:14Z</time>
      </trkpt>
      <trkpt lat="48.38234" lon="-4.33294">
        <ele>64.0650635</ele>
        <time>2013-08-06T09:41:21Z</time>
      </trkpt>
      <trkpt lat="48.38255" lon="-4.33345">
        <ele>60.7003174</ele>
        <time>2013-08-06T09:41:29Z</time>
      </trkpt>
      <trkpt lat="48.38272" lon="-4.33399">
        <ele>58.77771</ele>
        <time>2013-08-06T09:41:37Z</time>
      </trkpt>
      <trkpt lat="48.38278" lon="-4.33459">
        <ele>65.5070801</ele>
        <time>2013-08-06T09:41:45Z</time>
      </trkpt>
      <trkpt lat="48.38275" lon="-4.33523">
        <ele>73.1976318</ele>
        <time>2013-08-06T09:41:53Z</time>
      </trkpt>
      <trkpt lat="48.38269" lon="-4.33571">
        <ele>76.5621338</ele>
        <time>2013-08-06T09:42:00Z</time>
      </trkpt>
      <trkpt lat="48.38264" lon="-4.33621">
        <ele>78.0040283</ele>
        <time>2013-08-06T09:42:09Z</time>
      </trkpt>
      <trkpt lat="48.38255" lon="-4.33647">
        <ele>78.9654541</ele>
        <time>2013-08-06T09:42:15Z</time>
      </trkpt>
      <trkpt lat="48.38241" lon="-4.33684">
        <ele>80.8881836</ele>
        <time>2013-08-06T09:42:23Z</time>
      </trkpt>
      <trkpt lat="48.38223" lon="-4.33722">
        <ele>83.2913818</ele>
        <time>2013-08-06T09:42:32Z</time>
      </trkpt>
      <trkpt lat="48.38204" lon="-4.33756">
        <ele>84.7333984</ele>
        <time>2013-08-06T09:42:41Z</time>
      </trkpt>
      <trkpt lat="48.38189" lon="-4.33789">
        <ele>87.1365967</ele>
        <time>2013-08-06T09:42:51Z</time>
      </trkpt>
      <trkpt lat="48.38175" lon="-4.33821">
        <ele>88.0980225</ele>
        <time>2013-08-06T09:43:00Z</time>
      </trkpt>
      <trkpt lat="48.38166" lon="-4.3385">
        <ele>88.0980225</ele>
        <time>2013-08-06T09:43:08Z</time>
      </trkpt>
      <trkpt lat="48.38159" lon="-4.33878">
        <ele>90.5013428</ele>
        <time>2013-08-06T09:43:15Z</time>
      </trkpt>
      <trkpt lat="48.38152" lon="-4.33912">
        <ele>90.5013428</ele>
        <time>2013-08-06T09:43:23Z</time>
      </trkpt>
      <trkpt lat="48.38146" lon="-4.33933">
        <ele>93.3851318</ele>
        <time>2013-08-06T09:43:29Z</time>
      </trkpt>
      <trkpt lat="48.38143" lon="-4.33961">
        <ele>97.7111816</ele>
        <time>2013-08-06T09:43:36Z</time>
      </trkpt>
      <trkpt lat="48.38143" lon="-4.33992">
        <ele>98.1918945</ele>
        <time>2013-08-06T09:43:44Z</time>
      </trkpt>
      <trkpt lat="48.38142" lon="-4.34027">
        <ele>99.1530762</ele>
        <time>2013-08-06T09:43:52Z</time>
      </trkpt>
      <trkpt lat="48.38143" lon="-4.34053">
        <ele>100.114502</ele>
        <time>2013-08-06T09:43:58Z</time>
      </trkpt>
      <trkpt lat="48.38144" lon="-4.34092">
        <ele>102.5177002</ele>
        <time>2013-08-06T09:44:07Z</time>
      </trkpt>
      <trkpt lat="48.38145" lon="-4.34126">
        <ele>102.998291</ele>
        <time>2013-08-06T09:44:15Z</time>
      </trkpt>
      <trkpt lat="48.38146" lon="-4.34159">
        <ele>102.998291</ele>
        <time>2013-08-06T09:44:23Z</time>
      </trkpt>
      <trkpt lat="48.38145" lon="-4.34191">
        <ele>103.9597168</ele>
        <time>2013-08-06T09:44:31Z</time>
      </trkpt>
      <trkpt lat="48.38143" lon="-4.34216">
        <ele>105.8824463</ele>
        <time>2013-08-06T09:44:37Z</time>
      </trkpt>
      <trkpt lat="48.38141" lon="-4.34253">
        <ele>107.3243408</ele>
        <time>2013-08-06T09:44:44Z</time>
      </trkpt>
      <trkpt lat="48.38139" lon="-4.34289">
        <ele>108.7662354</ele>
        <time>2013-08-06T09:44:52Z</time>
      </trkpt>
      <trkpt lat="48.38134" lon="-4.3433">
        <ele>112.1309814</ele>
        <time>2013-08-06T09:45:02Z</time>
      </trkpt>
      <trkpt lat="48.38134" lon="-4.34358">
        <ele>113.572998</ele>
        <time>2013-08-06T09:45:09Z</time>
      </trkpt>
      <trkpt lat="48.38132" lon="-4.34398">
        <ele>114.5341797</ele>
        <time>2013-08-06T09:45:18Z</time>
      </trkpt>
      <trkpt lat="48.38129" lon="-4.34449">
        <ele>115.0148926</ele>
        <time>2013-08-06T09:45:29Z</time>
      </trkpt>
      <trkpt lat="48.38127" lon="-4.34477">
        <ele>115.9761963</ele>
        <time>2013-08-06T09:45:35Z</time>
      </trkpt>
      <trkpt lat="48.38129" lon="-4.34509">
        <ele>114.5341797</ele>
        <time>2013-08-06T09:45:41Z</time>
      </trkpt>
      <trkpt lat="48.38131" lon="-4.34536">
        <ele>115.4956055</ele>
        <time>2013-08-06T09:45:46Z</time>
      </trkpt>
      <trkpt lat="48.38137" lon="-4.3457">
        <ele>114.0535889</ele>
        <time>2013-08-06T09:45:53Z</time>
      </trkpt>
      <trkpt lat="48.38147" lon="-4.34609">
        <ele>116.9375</ele>
        <time>2013-08-06T09:46:02Z</time>
      </trkpt>
      <trkpt lat="48.38157" lon="-4.34647">
        <ele>121.7441406</ele>
        <time>2013-08-06T09:46:12Z</time>
      </trkpt>
      <trkpt lat="48.38166" lon="-4.3468">
        <ele>124.6280518</ele>
        <time>2013-08-06T09:46:21Z</time>
      </trkpt>
      <trkpt lat="48.38173" lon="-4.34709">
        <ele>127.9925537</ele>
        <time>2013-08-06T09:46:29Z</time>
      </trkpt>
      <trkpt lat="48.3818" lon="-4.34732">
        <ele>127.9925537</ele>
        <time>2013-08-06T09:46:35Z</time>
      </trkpt>
      <trkpt lat="48.38189" lon="-4.34771">
        <ele>128.4733887</ele>
        <time>2013-08-06T09:46:45Z</time>
      </trkpt>
      <trkpt lat="48.38198" lon="-4.34807">
        <ele>127.9925537</ele>
        <time>2013-08-06T09:46:55Z</time>
      </trkpt>
      <trkpt lat="48.38208" lon="-4.34813">
        <ele>128.4733887</ele>
        <time>2013-08-06T09:46:59Z</time>
      </trkpt>
      <trkpt lat="48.38221" lon="-4.34828">
        <ele>128.4733887</ele>
        <time>2013-08-06T09:47:05Z</time>
      </trkpt>
      <trkpt lat="48.38225" lon="-4.3485">
        <ele>128.4733887</ele>
        <time>2013-08-06T09:47:11Z</time>
      </trkpt>
      <trkpt lat="48.38219" lon="-4.3487">
        <ele>127.5119629</ele>
        <time>2013-08-06T09:47:15Z</time>
      </trkpt>
      <trkpt lat="48.38205" lon="-4.34886">
        <ele>126.5506592</ele>
        <time>2013-08-06T09:47:19Z</time>
      </trkpt>
      <trkpt lat="48.38201" lon="-4.34891">
        <ele>126.0699463</ele>
        <time>2013-08-06T09:47:20Z</time>
      </trkpt>
      <trkpt lat="48.38195" lon="-4.34923">
        <ele>124.1473389</ele>
        <time>2013-08-06T09:47:24Z</time>
      </trkpt>
      <trkpt lat="48.38204" lon="-4.35">
        <ele>122.7054443</ele>
        <time>2013-08-06T09:47:33Z</time>
      </trkpt>
      <trkpt lat="48.38207" lon="-4.35059">
        <ele>124.1473389</ele>
        <time>2013-08-06T09:47:41Z</time>
      </trkpt>
      <trkpt lat="48.38208" lon="-4.35066">
        <ele>124.6280518</ele>
        <time>2013-08-06T09:47:42Z</time>
      </trkpt>
      <trkpt lat="48.38212" lon="-4.35088">
        <ele>125.5893555</ele>
        <time>2013-08-06T09:47:45Z</time>
      </trkpt>
      <trkpt lat="48.38213" lon="-4.35112">
        <ele>126.5506592</ele>
        <time>2013-08-06T09:47:47Z</time>
      </trkpt>
      <trkpt lat="48.38213" lon="-4.35112">
        <ele>126.5506592</ele>
        <time>2013-08-06T09:47:47Z</time>
      </trkpt>
      <trkpt lat="48.38213" lon="-4.3512">
        <ele>126.5506592</ele>
        <time>2013-08-06T09:47:48Z</time>
      </trkpt>
      <trkpt lat="48.38209" lon="-4.35158">
        <ele>132.7993164</ele>
        <time>2013-08-06T09:47:52Z</time>
      </trkpt>
      <trkpt lat="48.38201" lon="-4.35204">
        <ele>132.7993164</ele>
        <time>2013-08-06T09:47:58Z</time>
      </trkpt>
      <trkpt lat="48.38197" lon="-4.35246">
        <ele>132.3186035</ele>
        <time>2013-08-06T09:48:04Z</time>
      </trkpt>
      <trkpt lat="48.38201" lon="-4.35305">
        <ele>129.4346924</ele>
        <time>2013-08-06T09:48:12Z</time>
      </trkpt>
      <trkpt lat="48.38197" lon="-4.35358">
        <ele>127.9925537</ele>
        <time>2013-08-06T09:48:20Z</time>
      </trkpt>
      <trkpt lat="48.38196" lon="-4.35398">
        <ele>126.5506592</ele>
        <time>2013-08-06T09:48:26Z</time>
      </trkpt>
      <trkpt lat="48.38196" lon="-4.35415">
        <ele>124.6280518</ele>
        <time>2013-08-06T09:48:29Z</time>
      </trkpt>
      <trkpt lat="48.38193" lon="-4.35452">
        <ele>127.0313721</ele>
        <time>2013-08-06T09:48:34Z</time>
      </trkpt>
      <trkpt lat="48.38193" lon="-4.35465">
        <ele>127.0313721</ele>
        <time>2013-08-06T09:48:36Z</time>
      </trkpt>
      <trkpt lat="48.38191" lon="-4.35525">
        <ele>127.0313721</ele>
        <time>2013-08-06T09:48:45Z</time>
      </trkpt>
      <trkpt lat="48.38192" lon="-4.3558">
        <ele>127.0313721</ele>
        <time>2013-08-06T09:48:53Z</time>
      </trkpt>
      <trkpt lat="48.3819" lon="-4.3562">
        <ele>130.876709</ele>
        <time>2013-08-06T09:48:59Z</time>
      </trkpt>
      <trkpt lat="48.38187" lon="-4.35668">
        <ele>132.7993164</ele>
        <time>2013-08-06T09:49:07Z</time>
      </trkpt>
      <trkpt lat="48.38181" lon="-4.35681">
        <ele>134.7219238</ele>
        <time>2013-08-06T09:49:09Z</time>
      </trkpt>
      <trkpt lat="48.38181" lon="-4.357">
        <ele>134.7219238</ele>
        <time>2013-08-06T09:49:12Z</time>
      </trkpt>
      <trkpt lat="48.38186" lon="-4.35723">
        <ele>133.760498</ele>
        <time>2013-08-06T09:49:16Z</time>
      </trkpt>
      <trkpt lat="48.38188" lon="-4.35756">
        <ele>134.2412109</ele>
        <time>2013-08-06T09:49:20Z</time>
      </trkpt>
      <trkpt lat="48.3819" lon="-4.35814">
        <ele>135.2025146</ele>
        <time>2013-08-06T09:49:27Z</time>
      </trkpt>
      <trkpt lat="48.3819" lon="-4.35831">
        <ele>135.2025146</ele>
        <time>2013-08-06T09:49:29Z</time>
      </trkpt>
      <trkpt lat="48.38189" lon="-4.35856">
        <ele>136.1639404</ele>
        <time>2013-08-06T09:49:32Z</time>
      </trkpt>
      <trkpt lat="48.38189" lon="-4.35892">
        <ele>137.1252441</ele>
        <time>2013-08-06T09:49:36Z</time>
      </trkpt>
      <trkpt lat="48.38195" lon="-4.35945">
        <ele>137.605835</ele>
        <time>2013-08-06T09:49:43Z</time>
      </trkpt>
      <trkpt lat="48.38197" lon="-4.36002">
        <ele>134.7219238</ele>
        <time>2013-08-06T09:49:49Z</time>
      </trkpt>
      <trkpt lat="48.38191" lon="-4.36053">
        <ele>132.7993164</ele>
        <time>2013-08-06T09:49:55Z</time>
      </trkpt>
      <trkpt lat="48.38189" lon="-4.36103">
        <ele>132.3186035</ele>
        <time>2013-08-06T09:50:02Z</time>
      </trkpt>
      <trkpt lat="48.38184" lon="-4.36163">
        <ele>132.7993164</ele>
        <time>2013-08-06T09:50:09Z</time>
      </trkpt>
      <trkpt lat="48.3818" lon="-4.3623">
        <ele>130.3959961</ele>
        <time>2013-08-06T09:50:16Z</time>
      </trkpt>
      <trkpt lat="48.38178" lon="-4.36266">
        <ele>129.4346924</ele>
        <time>2013-08-06T09:50:20Z</time>
      </trkpt>
      <trkpt lat="48.38168" lon="-4.36332">
        <ele>130.876709</ele>
        <time>2013-08-06T09:50:27Z</time>
      </trkpt>
      <trkpt lat="48.38159" lon="-4.36403">
        <ele>132.3186035</ele>
        <time>2013-08-06T09:50:35Z</time>
      </trkpt>
      <trkpt lat="48.38155" lon="-4.3646">
        <ele>130.876709</ele>
        <time>2013-08-06T09:50:42Z</time>
      </trkpt>
      <trkpt lat="48.38154" lon="-4.36475">
        <ele>130.3959961</ele>
        <time>2013-08-06T09:50:44Z</time>
      </trkpt>
      <trkpt lat="48.38149" lon="-4.36534">
        <ele>129.4346924</ele>
        <time>2013-08-06T09:50:52Z</time>
      </trkpt>
      <trkpt lat="48.38143" lon="-4.36588">
        <ele>128.4733887</ele>
        <time>2013-08-06T09:51:00Z</time>
      </trkpt>
      <trkpt lat="48.38138" lon="-4.36645">
        <ele>127.9925537</ele>
        <time>2013-08-06T09:51:08Z</time>
      </trkpt>
      <trkpt lat="48.38134" lon="-4.36698">
        <ele>127.9925537</ele>
        <time>2013-08-06T09:51:14Z</time>
      </trkpt>
      <trkpt lat="48.3813" lon="-4.36763">
        <ele>127.5119629</ele>
        <time>2013-08-06T09:51:21Z</time>
      </trkpt>
      <trkpt lat="48.3813" lon="-4.36801">
        <ele>126.0699463</ele>
        <time>2013-08-06T09:51:25Z</time>
      </trkpt>
      <trkpt lat="48.3813" lon="-4.36883">
        <ele>124.6280518</ele>
        <time>2013-08-06T09:51:33Z</time>
      </trkpt>
      <trkpt lat="48.38135" lon="-4.36964">
        <ele>122.2247314</ele>
        <time>2013-08-06T09:51:40Z</time>
      </trkpt>
      <trkpt lat="48.38146" lon="-4.37046">
        <ele>119.3408203</ele>
        <time>2013-08-06T09:51:46Z</time>
      </trkpt>
      <trkpt lat="48.38164" lon="-4.37145">
        <ele>115.4956055</ele>
        <time>2013-08-06T09:51:53Z</time>
      </trkpt>
      <trkpt lat="48.38185" lon="-4.37238">
        <ele>115.0148926</ele>
        <time>2013-08-06T09:52:00Z</time>
      </trkpt>
      <trkpt lat="48.38204" lon="-4.37306">
        <ele>115.4956055</ele>
        <time>2013-08-06T09:52:06Z</time>
      </trkpt>
      <trkpt lat="48.38231" lon="-4.374">
        <ele>112.1309814</ele>
        <time>2013-08-06T09:52:15Z</time>
      </trkpt>
      <trkpt lat="48.38241" lon="-4.37468">
        <ele>114.0535889</ele>
        <time>2013-08-06T09:52:21Z</time>
      </trkpt>
      <trkpt lat="48.3826" lon="-4.37529">
        <ele>118.8601074</ele>
        <time>2013-08-06T09:52:27Z</time>
      </trkpt>
      <trkpt lat="48.38277" lon="-4.37589">
        <ele>119.8214111</ele>
        <time>2013-08-06T09:52:34Z</time>
      </trkpt>
      <trkpt lat="48.38277" lon="-4.3764">
        <ele>120.7828369</ele>
        <time>2013-08-06T09:52:40Z</time>
      </trkpt>
      <trkpt lat="48.38277" lon="-4.37647">
        <ele>120.7828369</ele>
        <time>2013-08-06T09:52:41Z</time>
      </trkpt>
      <trkpt lat="48.38278" lon="-4.37682">
        <ele>120.302124</ele>
        <time>2013-08-06T09:52:46Z</time>
      </trkpt>
      <trkpt lat="48.38287" lon="-4.37702">
        <ele>118.8601074</ele>
        <time>2013-08-06T09:52:50Z</time>
      </trkpt>
      <trkpt lat="48.38294" lon="-4.37706">
        <ele>119.3408203</ele>
        <time>2013-08-06T09:52:52Z</time>
      </trkpt>
      <trkpt lat="48.38311" lon="-4.37716">
        <ele>119.3408203</ele>
        <time>2013-08-06T09:52:56Z</time>
      </trkpt>
      <trkpt lat="48.38335" lon="-4.37721">
        <ele>119.3408203</ele>
        <time>2013-08-06T09:53:01Z</time>
      </trkpt>
      <trkpt lat="48.38356" lon="-4.37712">
        <ele>120.302124</ele>
        <time>2013-08-06T09:53:06Z</time>
      </trkpt>
      <trkpt lat="48.38386" lon="-4.37701">
        <ele>122.2247314</ele>
        <time>2013-08-06T09:53:13Z</time>
      </trkpt>
      <trkpt lat="48.38394" lon="-4.377">
        <ele>122.7054443</ele>
        <time>2013-08-06T09:53:15Z</time>
      </trkpt>
      <trkpt lat="48.38403" lon="-4.37701">
        <ele>122.7054443</ele>
        <time>2013-08-06T09:53:17Z</time>
      </trkpt>
      <trkpt lat="48.38431" lon="-4.37709">
        <ele>122.2247314</ele>
        <time>2013-08-06T09:53:22Z</time>
      </trkpt>
      <trkpt lat="48.38461" lon="-4.37724">
        <ele>121.2635498</ele>
        <time>2013-08-06T09:53:27Z</time>
      </trkpt>
      <trkpt lat="48.38481" lon="-4.3771">
        <ele>121.2635498</ele>
        <time>2013-08-06T09:53:30Z</time>
      </trkpt>
      <trkpt lat="48.38496" lon="-4.37683">
        <ele>120.7828369</ele>
        <time>2013-08-06T09:53:33Z</time>
      </trkpt>
      <trkpt lat="48.38525" lon="-4.37635">
        <ele>120.302124</ele>
        <time>2013-08-06T09:53:38Z</time>
      </trkpt>
      <trkpt lat="48.38535" lon="-4.37616">
        <ele>118.8601074</ele>
        <time>2013-08-06T09:53:40Z</time>
      </trkpt>
      <trkpt lat="48.38565" lon="-4.37586">
        <ele>117.4182129</ele>
        <time>2013-08-06T09:53:44Z</time>
      </trkpt>
      <trkpt lat="48.38573" lon="-4.37582">
        <ele>117.4182129</ele>
        <time>2013-08-06T09:53:45Z</time>
      </trkpt>
      <trkpt lat="48.38591" lon="-4.37577">
        <ele>117.4182129</ele>
        <time>2013-08-06T09:53:47Z</time>
      </trkpt>
      <trkpt lat="48.38636" lon="-4.3758">
        <ele>115.0148926</ele>
        <time>2013-08-06T09:53:52Z</time>
      </trkpt>
      <trkpt lat="48.38684" lon="-4.37587">
        <ele>110.208252</ele>
        <time>2013-08-06T09:53:57Z</time>
      </trkpt>
      <trkpt lat="48.38723" lon="-4.37605">
        <ele>105.8824463</ele>
        <time>2013-08-06T09:54:01Z</time>
      </trkpt>
      <trkpt lat="48.3874" lon="-4.37618">
        <ele>102.998291</ele>
        <time>2013-08-06T09:54:03Z</time>
      </trkpt>
      <trkpt lat="48.38775" lon="-4.37657">
        <ele>93.3851318</ele>
        <time>2013-08-06T09:54:08Z</time>
      </trkpt>
      <trkpt lat="48.38785" lon="-4.37679">
        <ele>90.0206299</ele>
        <time>2013-08-06T09:54:10Z</time>
      </trkpt>
      <trkpt lat="48.38802" lon="-4.37742">
        <ele>73.6782227</ele>
        <time>2013-08-06T09:54:15Z</time>
      </trkpt>
      <trkpt lat="48.38823" lon="-4.37815">
        <ele>65.0263672</ele>
        <time>2013-08-06T09:54:20Z</time>
      </trkpt>
      <trkpt lat="48.38842" lon="-4.37832">
        <ele>62.142334</ele>
        <time>2013-08-06T09:54:22Z</time>
      </trkpt>
      <trkpt lat="48.38875" lon="-4.37868">
        <ele>58.77771</ele>
        <time>2013-08-06T09:54:27Z</time>
      </trkpt>
      <trkpt lat="48.38888" lon="-4.37879">
        <ele>58.2971191</ele>
        <time>2013-08-06T09:54:31Z</time>
      </trkpt>
      <trkpt lat="48.38909" lon="-4.37896">
        <ele>54.4517822</ele>
        <time>2013-08-06T09:54:35Z</time>
      </trkpt>
      <trkpt lat="48.38937" lon="-4.37926">
        <ele>47.7225342</ele>
        <time>2013-08-06T09:54:39Z</time>
      </trkpt>
      <trkpt lat="48.38977" lon="-4.37979">
        <ele>42.4354248</ele>
        <time>2013-08-06T09:54:44Z</time>
      </trkpt>
      <trkpt lat="48.39016" lon="-4.3803">
        <ele>35.2254639</ele>
        <time>2013-08-06T09:54:49Z</time>
      </trkpt>
      <trkpt lat="48.3907" lon="-4.38092">
        <ele>27.0543213</ele>
        <time>2013-08-06T09:54:55Z</time>
      </trkpt>
      <trkpt lat="48.39107" lon="-4.38136">
        <ele>20.3249512</ele>
        <time>2013-08-06T09:55:00Z</time>
      </trkpt>
      <trkpt lat="48.39126" lon="-4.38149">
        <ele>18.4023438</ele>
        <time>2013-08-06T09:55:03Z</time>
      </trkpt>
      <trkpt lat="48.39144" lon="-4.38144">
        <ele>15.0377197</ele>
        <time>2013-08-06T09:55:07Z</time>
      </trkpt>
      <trkpt lat="48.39149" lon="-4.38122">
        <ele>15.5184326</ele>
        <time>2013-08-06T09:55:10Z</time>
      </trkpt>
      <trkpt lat="48.39164" lon="-4.38091">
        <ele>18.8830566</ele>
        <time>2013-08-06T09:55:14Z</time>
      </trkpt>
      <trkpt lat="48.39177" lon="-4.38047">
        <ele>24.651001</ele>
        <time>2013-08-06T09:55:20Z</time>
      </trkpt>
      <trkpt lat="48.39192" lon="-4.38007">
        <ele>26.0928955</ele>
        <time>2013-08-06T09:55:27Z</time>
      </trkpt>
      <trkpt lat="48.39202" lon="-4.37973">
        <ele>26.0928955</ele>
        <time>2013-08-06T09:55:34Z</time>
      </trkpt>
      <trkpt lat="48.39203" lon="-4.37949">
        <ele>21.286377</ele>
        <time>2013-08-06T09:55:40Z</time>
      </trkpt>
      <trkpt lat="48.39193" lon="-4.37932">
        <ele>19.8443604</ele>
        <time>2013-08-06T09:55:46Z</time>
      </trkpt>
      <trkpt lat="48.39186" lon="-4.37918">
        <ele>18.8830566</ele>
        <time>2013-08-06T09:55:51Z</time>
      </trkpt>
      <trkpt lat="48.39179" lon="-4.37907">
        <ele>18.4023438</ele>
        <time>2013-08-06T09:55:56Z</time>
      </trkpt>
    </trkseg>
  </trk>
</gpx>